Provisional Data: Chiques Creek near Route 283


Please select a monitoring station.
Please select start date.
Please select start date.

Toggle Unit: C/F Toggle Unit: C/F
Sample Time Temperature (C) Temperature (F) Specific Conductivity (mS/cm) pH   Turbidity (NTU+) DO (mg/L)
10/20/2020 12:00:00 AM 12.42 54.356 0.218 8.78 4.65 9.24
10/20/2020 12:15:00 AM 12.41 54.338 0.218 8.78 4.69 9.11
10/20/2020 12:30:00 AM 12.4 54.32 0.218 8.78 4.58 9.44
10/20/2020 12:45:00 AM 12.38 54.284 0.218 8.77 4.66 9.08
10/20/2020 1:00:00 AM 12.37 54.266 0.218 8.76 4.7 8.82
10/20/2020 1:15:00 AM 12.36 54.248 0.218 8.76 4.68 8.84
10/20/2020 1:30:00 AM 12.35 54.23 0.218 8.75 4.78 8.8
10/20/2020 1:45:00 AM 12.34 54.212 0.218 8.74 4.84 9.35
10/20/2020 2:00:00 AM 12.33 54.194 0.219 8.74 4.7 9.49
10/20/2020 2:15:00 AM 12.32 54.176 0.218 8.73 4.93 8.82
10/20/2020 2:30:00 AM 12.31 54.158 0.219 8.73 4.86 9.08
10/20/2020 2:45:00 AM 12.3 54.14 0.219 8.72 4.77 9.48
10/20/2020 3:00:00 AM 12.3 54.14 0.219 8.72 5 8.7
10/20/2020 3:15:00 AM 12.3 54.14 0.219 8.71 4.92 9.46
10/20/2020 3:30:00 AM 12.31 54.158 0.219 8.71 4.89 8.91
10/20/2020 3:45:00 AM 12.32 54.176 0.219 8.71 4.76 9.53
10/20/2020 4:00:00 AM 12.33 54.194 0.219 8.71 5.09 9.46
10/20/2020 4:15:00 AM 12.34 54.212 0.219 8.7 4.95 9.33
10/20/2020 4:30:00 AM 12.36 54.248 0.219 8.7 5.1 9.43
10/20/2020 4:45:00 AM 12.38 54.284 0.219 8.7 5.07 9.19
10/20/2020 5:00:00 AM 12.39 54.302 0.22 8.7 4.95 9.52
10/20/2020 5:15:00 AM 12.41 54.338 0.22 8.7 4.94 8.95
10/20/2020 5:30:00 AM 12.42 54.356 0.22 8.7 4.98 9.2
10/20/2020 5:45:00 AM 12.44 54.392 0.22 8.71 4.9 8.75
10/20/2020 6:00:00 AM 12.45 54.41 0.22 8.71 4.97 9.2
10/20/2020 6:15:00 AM 12.47 54.446 0.22 8.71 5.69 9.49
10/20/2020 6:30:00 AM 12.48 54.464 0.22 8.71 5.01 9.14
10/20/2020 6:45:00 AM 12.5 54.5 0.22 8.71 5.04 9.32
10/20/2020 7:00:00 AM 12.51 54.518 0.22 8.71 4.99 9.42
10/20/2020 7:15:00 AM 12.53 54.554 0.22 8.71 4.95 9.45
10/20/2020 7:30:00 AM 12.55 54.59 0.22 8.72 4.83 9.58
10/20/2020 7:45:00 AM 12.57 54.626 0.221 8.72 4.82 9.67
10/20/2020 8:00:00 AM 12.61 54.698 0.221 8.73 5.01 9.75
10/20/2020 8:15:00 AM 12.67 54.806 0.221 8.73 4.94 9.83
10/20/2020 8:30:00 AM 12.73 54.914 0.221 8.75 4.98 9.89
10/20/2020 8:45:00 AM 12.8 55.04 0.221 8.76 4.86 10
10/20/2020 9:00:00 AM 12.84 55.112 0.221 8.77 4.77 9.99
10/20/2020 9:15:00 AM 12.9 55.22 0.221 8.78 4.94 10
10/20/2020 9:30:00 AM 12.97 55.346 0.221 8.79 4.73 10.11
10/20/2020 9:45:00 AM 13.05 55.49 0.221 8.8 4.88 10.11
10/20/2020 10:00:00 AM 13.1 55.58 0.221 8.81 5.35 10.14
10/20/2020 10:15:00 AM 13.16 55.688 0.221 8.82 5.24 9.9
10/20/2020 10:30:00 AM 13.24 55.832 0.221 8.83 6.42 10.07
10/20/2020 10:45:00 AM 13.34 56.012 0.222 8.84 5.71 9.52
10/20/2020 11:00:00 AM 13.46 56.228 0.222 8.85 4.85 9.7
10/20/2020 11:15:00 AM 13.56 56.408 0.222 8.86 4.78 9.73
10/20/2020 11:30:00 AM 13.68 56.624 0.222 8.87 4.88 9.98
10/20/2020 11:45:00 AM 13.76 56.768 0.222 8.88 4.95 9.74
10/20/2020 12:00:00 PM 13.79 56.822 0.222 8.88 4.74 9.62
10/20/2020 12:15:00 PM 13.86 56.948 0.222 8.88 5.2 9.6
10/20/2020 12:30:00 PM 13.9 57.02 0.222 8.88 4.99 9.47
10/20/2020 12:45:00 PM 13.93 57.074 0.222 8.88 5.12 9.1
10/20/2020 1:00:00 PM 14 57.2 0.221 8.88 4.91 9.88
10/20/2020 1:15:00 PM 14.06 57.308 0.221 8.89 4.94 9.84
10/20/2020 1:30:00 PM 14.1 57.38 0.221 8.89 4.85 10.05
10/20/2020 1:45:00 PM -99999.99 -179968 -99999.99 -99999.99 -99999.99 -99999.99
10/20/2020 2:00:00 PM -99999.99 -179968 -99999.99 -99999.99 -99999.99 -99999.99
10/20/2020 2:15:00 PM -99999.99 -179968 -99999.99 -99999.99 -99999.99 -99999.99
10/20/2020 2:30:00 PM -99999.99 -179968 -99999.99 -99999.99 -99999.99 -99999.99
10/20/2020 2:45:00 PM -99999.99 -179968 -99999.99 -99999.99 -99999.99 -99999.99
10/20/2020 3:00:00 PM -99999.99 -179968 -99999.99 -99999.99 -99999.99 -99999.99
10/20/2020 3:15:00 PM -99999.99 -179968 -99999.99 -99999.99 -99999.99 -99999.99
10/20/2020 3:30:00 PM -99999.99 -179968 -99999.99 -99999.99 -99999.99 -99999.99
10/20/2020 3:45:00 PM 14.26 57.668 0.588 7.42 1.16 10.08
10/20/2020 4:00:00 PM 14.29 57.722 0.588 7.44 1.1 10.1
10/20/2020 4:15:00 PM 14.32 57.776 0.587 7.47 1.08 10.07
10/20/2020 4:30:00 PM 14.33 57.794 0.587 7.47 1.08 10.04
10/20/2020 4:45:00 PM 14.34 57.812 0.587 7.47 1.02 10.01
10/20/2020 5:00:00 PM 14.35 57.83 0.587 7.47 1.15 9.98
10/20/2020 5:15:00 PM 14.38 57.884 0.587 7.48 1.04 9.97
10/20/2020 5:30:00 PM 14.38 57.884 0.587 7.48 1.07 9.95
10/20/2020 5:45:00 PM 14.38 57.884 0.586 7.49 1.15 9.91
10/20/2020 6:00:00 PM 14.38 57.884 0.586 7.48 1.12 9.89
10/20/2020 6:15:00 PM 14.38 57.884 0.586 7.47 1.12 9.85
10/20/2020 6:30:00 PM 14.38 57.884 0.586 7.49 1.09 9.82
10/20/2020 6:45:00 PM 14.38 57.884 0.586 7.47 1.2 9.79
10/20/2020 7:00:00 PM 14.37 57.866 0.586 7.48 1.31 9.78
10/20/2020 7:15:00 PM 14.37 57.866 0.586 7.47 1.2 9.75
10/20/2020 7:30:00 PM 14.36 57.848 0.587 7.46 1.2 9.74
10/20/2020 7:45:00 PM 14.36 57.848 0.587 7.46 3.05 9.74
10/20/2020 8:00:00 PM 14.37 57.866 0.587 7.47 2.06 9.72
10/20/2020 8:15:00 PM 14.38 57.884 0.587 7.46 1.73 9.72
10/20/2020 8:30:00 PM 14.39 57.902 0.588 7.45 2.02 9.7
10/20/2020 8:45:00 PM 14.38 57.884 0.588 7.45 3.29 9.7
10/20/2020 9:00:00 PM 14.38 57.884 0.588 7.45 2.9 9.69
10/20/2020 9:15:00 PM 14.36 57.848 0.588 7.45 1.64 9.67
10/20/2020 9:30:00 PM 14.35 57.83 0.589 7.45 2.46 9.67
10/20/2020 9:45:00 PM 14.34 57.812 0.589 7.45 1.74 9.65
10/20/2020 10:00:00 PM 14.33 57.794 0.589 7.44 2.4 9.64
10/20/2020 10:15:00 PM 14.32 57.776 0.59 7.45 2.31 9.63
10/20/2020 10:30:00 PM 14.31 57.758 0.59 7.44 1.49 9.62
10/20/2020 10:45:00 PM 14.3 57.74 0.591 7.43 1.53 9.6
10/20/2020 11:00:00 PM 14.28 57.704 0.591 7.43 1.42 9.59
10/20/2020 11:15:00 PM 14.25 57.65 0.592 7.43 1.31 9.59
10/20/2020 11:30:00 PM 14.24 57.632 0.592 7.44 2.57 9.57
10/20/2020 11:45:00 PM 14.22 57.596 0.593 7.42 1.56 9.56
10/21/2020 12:00:00 AM 14.21 57.578 0.594 7.42 1.61 9.53
10/21/2020 12:15:00 AM 14.2 57.56 0.595 7.41 1.58 9.52
10/21/2020 12:30:00 AM 14.19 57.542 0.595 7.41 1.78 9.48
10/21/2020 12:45:00 AM 14.18 57.524 0.596 7.41 1.66 9.48
10/21/2020 1:00:00 AM 14.17 57.506 0.597 7.4 2.87 9.47
10/21/2020 1:15:00 AM 14.17 57.506 0.598 7.4 2.19 9.46
10/21/2020 1:30:00 AM 14.16 57.488 0.599 7.4 5.38 9.43
10/21/2020 1:45:00 AM 14.15 57.47 0.6 7.39 4.41 9.44
10/21/2020 2:00:00 AM 14.14 57.452 0.601 7.39 2.12 9.42
10/21/2020 2:15:00 AM 14.14 57.452 0.601 7.39 3.5 9.42
10/21/2020 2:30:00 AM 14.14 57.452 0.602 7.39 2.04 9.41
10/21/2020 2:45:00 AM 14.13 57.434 0.602 7.39 5.48 9.41
10/21/2020 3:00:00 AM 14.12 57.416 0.603 7.38 3.76 9.41
10/21/2020 3:15:00 AM 14.13 57.434 0.603 7.39 4.65 9.41
10/21/2020 3:30:00 AM 14.14 57.452 0.604 7.38 4.61 9.39
10/21/2020 3:45:00 AM 14.15 57.47 0.604 7.38 3.14 9.38
10/21/2020 4:00:00 AM 14.17 57.506 0.605 7.39 3.55 9.39
10/21/2020 4:15:00 AM 14.18 57.524 0.605 7.39 1.89 9.35
10/21/2020 4:30:00 AM 14.2 57.56 0.605 7.38 1.66 9.33
10/21/2020 4:45:00 AM 14.22 57.596 0.607 7.38 1.46 9.33
10/21/2020 5:00:00 AM 14.24 57.632 0.607 7.39 2.51 9.31
10/21/2020 5:15:00 AM 14.26 57.668 0.608 7.39 1.6 9.31
10/21/2020 5:30:00 AM 14.28 57.704 0.609 7.39 1.56 9.33
10/21/2020 5:45:00 AM 14.31 57.758 0.61 7.4 3.12 9.3
10/21/2020 6:00:00 AM 14.34 57.812 0.611 7.39 1.6 9.28
10/21/2020 6:15:00 AM 14.36 57.848 0.611 7.4 2.51 9.32
10/21/2020 6:30:00 AM 14.38 57.884 0.612 7.4 7.83 9.31
10/21/2020 6:45:00 AM 14.41 57.938 0.613 7.4 2.69 9.32
10/21/2020 7:00:00 AM 14.43 57.974 0.614 7.4 3.47 9.33
10/21/2020 7:15:00 AM 14.46 58.028 0.615 7.41 2.77 9.32
10/21/2020 7:30:00 AM 14.49 58.082 0.615 7.42 3.26 9.32
10/21/2020 7:45:00 AM 14.52 58.136 0.616 7.42 2.25 9.32
10/21/2020 8:00:00 AM 14.55 58.19 0.616 7.42 4.14 9.33
10/21/2020 8:15:00 AM 14.59 58.262 0.617 7.43 7.18 9.34
10/21/2020 8:30:00 AM 14.63 58.334 0.617 7.44 2.49 9.37
10/21/2020 8:45:00 AM 14.67 58.406 0.617 7.44 4.19 9.39
10/21/2020 9:00:00 AM 14.7 58.46 0.618 7.45 2.25 9.41
10/21/2020 9:15:00 AM 14.74 58.532 0.618 7.46 2.01 9.43
10/21/2020 9:30:00 AM 14.78 58.604 0.618 7.47 1.92 9.45
10/21/2020 9:45:00 AM 14.82 58.676 0.618 7.48 3.1 9.58
10/21/2020 10:00:00 AM 14.86 58.748 0.617 7.49 4.63 9.62
10/21/2020 10:15:00 AM 14.9 58.82 0.617 7.5 3.67 9.64
10/21/2020 10:30:00 AM 14.95 58.91 0.617 7.51 4.83 9.69
10/21/2020 10:45:00 AM 14.99 58.982 0.617 7.52 3.78 9.71
10/21/2020 11:00:00 AM 15.04 59.072 0.616 7.53 1.56 9.73
10/21/2020 11:15:00 AM 15.1 59.18 0.616 7.54 1.92 9.8
10/21/2020 11:30:00 AM 15.15 59.27 0.616 7.55 2.24 9.82
10/21/2020 11:45:00 AM 15.21 59.378 0.615 7.55 1.73 9.83
10/21/2020 12:00:00 PM 15.26 59.468 0.615 7.56 1.9 9.82
10/21/2020 12:15:00 PM 15.36 59.648 0.615 7.57 3.66 9.94
10/21/2020 12:30:00 PM 15.43 59.774 0.614 7.58 1.18 9.94
10/21/2020 12:45:00 PM 15.45 59.81 0.614 7.58 1.41 9.78
10/21/2020 1:00:00 PM 15.55 59.99 0.614 7.59 2.81 9.82
10/21/2020 1:15:00 PM 15.67 60.206 0.613 7.61 4.48 9.84
10/21/2020 1:30:00 PM 15.71 60.278 0.613 7.6 1.18 9.78
10/21/2020 1:45:00 PM 15.76 60.368 0.612 7.6 1.12 9.75
10/21/2020 2:00:00 PM 15.9 60.62 0.612 7.63 1.26 9.78
10/21/2020 2:15:00 PM 15.99 60.782 0.612 7.63 1.22 9.74
10/21/2020 2:30:00 PM 16.04 60.872 0.611 7.63 1.12 9.66
10/21/2020 2:45:00 PM 16.06 60.908 0.611 7.63 1.16 9.66
10/21/2020 3:00:00 PM 16.06 60.908 0.611 7.63 1.24 9.56
10/21/2020 3:15:00 PM 16.07 60.926 0.611 7.64 1.45 9.53
10/21/2020 3:30:00 PM 16.03 60.854 0.611 7.63 1.44 9.48
10/21/2020 3:45:00 PM 16 60.8 0.611 7.62 1.3 9.42
10/21/2020 4:00:00 PM 15.99 60.782 0.611 7.62 1.44 9.36
10/21/2020 4:15:00 PM 15.98 60.764 0.61 7.62 1.38 9.3
10/21/2020 4:30:00 PM 15.94 60.692 0.61 7.62 1.45 9.27
10/21/2020 4:45:00 PM 15.92 60.656 0.61 7.62 2.02 9.24
10/21/2020 5:00:00 PM 15.88 60.584 0.609 7.62 1.45 9.22
10/21/2020 5:15:00 PM 15.84 60.512 0.609 7.61 1.43 9.22
10/21/2020 5:30:00 PM 15.78 60.404 0.609 7.61 1.37 9.24
10/21/2020 5:45:00 PM 15.75 60.35 0.608 7.61 1.37 9.24
10/21/2020 6:00:00 PM 15.75 60.35 0.608 7.62 1.37 9.25
10/21/2020 6:15:00 PM 15.74 60.332 0.608 7.62 1.33 9.25
10/21/2020 6:30:00 PM 15.73 60.314 0.607 7.62 1.55 9.23
10/21/2020 6:45:00 PM 15.72 60.296 0.607 7.62 2.06 9.22
10/21/2020 7:00:00 PM 15.71 60.278 0.607 7.62 2.95 9.26
10/21/2020 7:15:00 PM 15.7 60.26 0.606 7.62 4.2 9.28
10/21/2020 7:30:00 PM 15.69 60.242 0.606 7.63 1.59 9.31
10/21/2020 7:45:00 PM 15.68 60.224 0.606 7.63 2.27 9.34
10/21/2020 8:00:00 PM 15.67 60.206 0.605 7.63 1.48 9.37
10/21/2020 8:15:00 PM 15.67 60.206 0.605 7.63 1.45 9.37
10/21/2020 8:30:00 PM 15.67 60.206 0.605 7.63 1.47 9.37
10/21/2020 8:45:00 PM 15.67 60.206 0.605 7.63 1.76 9.36
10/21/2020 9:00:00 PM 15.65 60.17 0.605 7.63 1.8 9.34
10/21/2020 9:15:00 PM 15.64 60.152 0.605 7.62 1.62 9.33
10/21/2020 9:30:00 PM 15.63 60.134 0.605 7.62 1.96 9.3
10/21/2020 9:45:00 PM 15.62 60.116 0.605 7.61 1.8 9.28
10/21/2020 10:00:00 PM 15.63 60.134 0.606 7.61 4.87 9.26
10/21/2020 10:15:00 PM 15.63 60.134 0.606 7.61 2.23 9.22
10/21/2020 10:30:00 PM 15.61 60.098 0.606 7.6 7.23 9.2
10/21/2020 10:45:00 PM 15.6 60.08 0.606 7.6 1.84 9.17
10/21/2020 11:00:00 PM 15.58 60.044 0.607 7.59 1.68 9.13
10/21/2020 11:15:00 PM 15.56 60.008 0.607 7.58 1.52 9.12
10/21/2020 11:30:00 PM 15.55 59.99 0.607 7.58 1.89 9.09
10/21/2020 11:45:00 PM 15.54 59.972 0.608 7.58 1.45 9.06
10/22/2020 12:00:00 AM 15.52 59.936 0.608 7.57 2.1 9.06
10/22/2020 12:15:00 AM 15.51 59.918 0.608 7.57 5.03 9.05
10/22/2020 12:30:00 AM 15.51 59.918 0.608 7.57 1.9 9.02
10/22/2020 12:45:00 AM 15.5 59.9 0.609 7.56 1.84 9
10/22/2020 1:00:00 AM 15.49 59.882 0.609 7.55 1.58 8.98
10/22/2020 1:15:00 AM 15.48 59.864 0.609 7.55 2.17 8.96
10/22/2020 1:30:00 AM 15.47 59.846 0.609 7.55 1.67 8.95
10/22/2020 1:45:00 AM 15.46 59.828 0.61 7.54 3.87 8.94
10/22/2020 2:00:00 AM 15.46 59.828 0.61 7.54 5.2 8.92
10/22/2020 2:15:00 AM 15.45 59.81 0.61 7.54 1.96 8.9
10/22/2020 2:30:00 AM 15.44 59.792 0.61 7.54 8.39 8.91
10/22/2020 2:45:00 AM 15.44 59.792 0.61 7.53 2.66 8.9
10/22/2020 3:00:00 AM 15.43 59.774 0.61 7.53 1.69 8.87
10/22/2020 3:15:00 AM 15.43 59.774 0.611 7.53 1.88 8.87
10/22/2020 3:30:00 AM 15.43 59.774 0.611 7.52 1.66 8.87
10/22/2020 3:45:00 AM 15.43 59.774 0.611 7.52 1.83 8.86
10/22/2020 4:00:00 AM 15.43 59.774 0.611 7.52 1.74 8.85
10/22/2020 4:15:00 AM 15.43 59.774 0.612 7.52 1.78 8.85
10/22/2020 4:30:00 AM 15.44 59.792 0.612 7.52 7.83 8.83
10/22/2020 4:45:00 AM 15.44 59.792 0.612 7.52 1.72 8.82
10/22/2020 5:00:00 AM 15.45 59.81 0.612 7.52 4.17 8.82
10/22/2020 5:15:00 AM 15.47 59.846 0.612 7.52 1.72 8.82
10/22/2020 5:30:00 AM 15.48 59.864 0.613 7.52 1.84 8.82
10/22/2020 5:45:00 AM 15.49 59.882 0.613 7.52 1.71 8.8
10/22/2020 6:00:00 AM 15.5 59.9 0.613 7.52 1.79 8.81
10/22/2020 6:15:00 AM 15.52 59.936 0.613 7.53 1.68 8.8
10/22/2020 6:30:00 AM 15.53 59.954 0.613 7.53 1.61 8.8
10/22/2020 6:45:00 AM 15.55 59.99 0.613 7.53 1.88 8.81
10/22/2020 7:00:00 AM 15.56 60.008 0.613 7.53 1.66 8.8
10/22/2020 7:15:00 AM 15.58 60.044 0.614 7.53 1.58 8.81
10/22/2020 7:30:00 AM 15.6 60.08 0.614 7.53 2.31 8.82
10/22/2020 7:45:00 AM 15.61 60.098 0.614 7.54 1.62 8.82
10/22/2020 8:00:00 AM 15.64 60.152 0.613 7.54 1.77 8.85
10/22/2020 8:15:00 AM 15.66 60.188 0.613 7.55 1.5 8.89
10/22/2020 8:30:00 AM 15.69 60.242 0.613 7.55 1.4 8.92
10/22/2020 8:45:00 AM 15.72 60.296 0.613 7.56 1.38 8.96
10/22/2020 9:00:00 AM 15.75 60.35 0.613 7.57 1.34 8.98
10/22/2020 9:15:00 AM 15.78 60.404 0.613 7.57 1.32 9.03
10/22/2020 9:30:00 AM 15.82 60.476 0.613 7.58 1.38 9.06
10/22/2020 9:45:00 AM 15.85 60.53 0.613 7.59 1.39 9.09
10/22/2020 10:00:00 AM 15.88 60.584 0.612 7.6 1.51 9.12
10/22/2020 10:15:00 AM 15.92 60.656 0.612 7.6 2.33 9.13
10/22/2020 10:30:00 AM 15.95 60.71 0.612 7.61 2.12 9.13
10/22/2020 10:45:00 AM 15.98 60.764 0.612 7.61 1.72 9.16
10/22/2020 11:00:00 AM 16 60.8 0.612 7.62 3.37 9.13
10/22/2020 11:15:00 AM 16.03 60.854 0.611 7.62 1.74 9.15
10/22/2020 11:30:00 AM 16.05 60.89 0.611 7.63 2.38 9.13
10/22/2020 11:45:00 AM 16.08 60.944 0.611 7.63 4.67 9.16
10/22/2020 12:00:00 PM 16.11 60.998 0.61 7.63 1.51 9.16
10/22/2020 12:15:00 PM 16.13 61.034 0.61 7.63 1.74 9.12
10/22/2020 12:30:00 PM 16.15 61.07 0.61 7.63 1.63 9.08
10/22/2020 12:45:00 PM 16.18 61.124 0.609 7.64 1.48 9.08
10/22/2020 1:00:00 PM 16.2 61.16 0.609 7.64 1.24 9.06
10/22/2020 1:15:00 PM 16.23 61.214 0.609 7.64 1.46 9.07
10/22/2020 1:30:00 PM 16.28 61.304 0.608 7.65 1.32 9.18
10/22/2020 1:45:00 PM 16.32 61.376 0.608 7.66 2.08 9.22
10/22/2020 2:00:00 PM 16.35 61.43 0.608 7.66 1.95 9.21
10/22/2020 2:15:00 PM 16.39 61.502 0.607 7.67 2.16 9.22
10/22/2020 2:30:00 PM 16.42 61.556 0.607 7.68 2.17 9.23
10/22/2020 2:45:00 PM 16.5 61.7 0.606 7.69 1.28 9.3
10/22/2020 3:00:00 PM 16.48 61.664 0.607 7.68 1.41 9.15
10/22/2020 3:15:00 PM 16.52 61.736 0.606 7.68 1.3 9.14
10/22/2020 3:30:00 PM 16.55 61.79 0.604 7.68 3.17 9.1
10/22/2020 3:45:00 PM 16.56 61.808 0.606 7.68 1.53 9.02
10/22/2020 4:00:00 PM 16.58 61.844 0.606 7.68 2.19 8.94
10/22/2020 4:15:00 PM 16.6 61.88 0.606 7.68 1.79 8.88
10/22/2020 4:30:00 PM 16.61 61.898 0.605 7.68 1.85 8.85
10/22/2020 4:45:00 PM 16.59 61.862 0.605 7.68 1.39 8.81
10/22/2020 5:00:00 PM 16.58 61.844 0.605 7.67 1.48 8.76
10/22/2020 5:15:00 PM 16.57 61.826 0.605 7.67 1.43 8.74
10/22/2020 5:30:00 PM 16.57 61.826 0.605 7.67 1.49 8.7
10/22/2020 5:45:00 PM 16.57 61.826 0.605 7.67 1.53 8.67
10/22/2020 6:00:00 PM 16.55 61.79 0.605 7.66 1.55 8.66
10/22/2020 6:15:00 PM 16.53 61.754 0.604 7.66 1.86 8.63
10/22/2020 6:30:00 PM 16.5 61.7 0.604 7.66 1.85 8.63
10/22/2020 6:45:00 PM 16.49 61.682 0.604 7.65 1.74 8.62
10/22/2020 7:00:00 PM 16.49 61.682 0.604 7.65 1.71 8.62
10/22/2020 7:15:00 PM 16.5 61.7 0.603 7.65 1.65 8.63
10/22/2020 7:30:00 PM 16.49 61.682 0.603 7.66 2.14 8.67
10/22/2020 7:45:00 PM 16.49 61.682 0.603 7.66 1.77 8.67
10/22/2020 8:00:00 PM 16.48 61.664 0.603 7.66 2.17 8.67
10/22/2020 8:15:00 PM 16.46 61.628 0.603 7.66 2.74 8.67
10/22/2020 8:30:00 PM 16.44 61.592 0.602 7.66 1.52 8.69
10/22/2020 8:45:00 PM 16.42 61.556 0.602 7.67 1.83 8.7
10/22/2020 9:00:00 PM 16.39 61.502 0.602 7.66 2.44 8.7
10/22/2020 9:15:00 PM 16.37 61.466 0.602 7.66 1.78 8.71
10/22/2020 9:30:00 PM 16.33 61.394 0.602 7.65 1.73 8.71
10/22/2020 9:45:00 PM 16.3 61.34 0.602 7.65 2.32 8.72
10/22/2020 10:00:00 PM 16.27 61.286 0.602 7.65 2.25 8.73
10/22/2020 10:15:00 PM 16.25 61.25 0.602 7.64 2.31 8.72
10/22/2020 10:30:00 PM 16.22 61.196 0.602 7.64 2.31 8.71
10/22/2020 10:45:00 PM 16.2 61.16 0.602 7.64 2.73 8.68
10/22/2020 11:00:00 PM 16.17 61.106 0.602 7.63 2.06 8.66
10/22/2020 11:15:00 PM 16.14 61.052 0.602 7.64 2.64 8.65
10/22/2020 11:30:00 PM 16.11 60.998 0.602 7.63 3.33 8.63
10/22/2020 11:45:00 PM 16.09 60.962 0.603 7.62 3.23 8.63
10/23/2020 12:00:00 AM 16.06 60.908 0.603 7.61 2.44 8.61
10/23/2020 12:15:00 AM 16.03 60.854 0.603 7.6 2.65 8.6
10/23/2020 12:30:00 AM 16 60.8 0.603 7.6 2.59 8.59
10/23/2020 12:45:00 AM 15.97 60.746 0.603 7.59 3.45 8.56
10/23/2020 1:00:00 AM 15.95 60.71 0.603 7.59 3.86 8.55
10/23/2020 1:15:00 AM 15.92 60.656 0.603 7.59 4.21 8.53
10/23/2020 1:30:00 AM 15.89 60.602 0.603 7.58 2.89 8.54
10/23/2020 1:45:00 AM 15.87 60.566 0.604 7.57 10.8 8.51
10/23/2020 2:00:00 AM 15.84 60.512 0.604 7.57 4.7 8.5
10/23/2020 2:15:00 AM 15.82 60.476 0.604 7.56 3.26 8.49
10/23/2020 2:30:00 AM 15.8 60.44 0.605 7.56 3.95 8.47
10/23/2020 2:45:00 AM 15.78 60.404 0.605 7.55 3.2 8.47
10/23/2020 3:00:00 AM 15.76 60.368 0.605 7.55 3.97 8.46
10/23/2020 3:15:00 AM 15.76 60.368 0.605 7.55 3.36 8.46
10/23/2020 3:30:00 AM 15.75 60.35 0.606 7.54 3.07 8.45
10/23/2020 3:45:00 AM 15.76 60.368 0.608 7.54 5.93 8.44
10/23/2020 4:00:00 AM 15.76 60.368 0.607 7.54 5.21 8.43
10/23/2020 4:15:00 AM 15.76 60.368 0.607 7.54 1.97 8.41
10/23/2020 4:30:00 AM 15.77 60.386 0.607 7.54 1.89 8.41
10/23/2020 4:45:00 AM 15.77 60.386 0.608 7.54 1.97 8.4
10/23/2020 5:00:00 AM 15.77 60.386 0.608 7.54 1.8 8.38
10/23/2020 5:15:00 AM 15.78 60.404 0.608 7.54 1.86 8.38
10/23/2020 5:30:00 AM 15.78 60.404 0.608 7.54 4.21 8.38
10/23/2020 5:45:00 AM 15.79 60.422 0.609 7.54 1.92 8.38
10/23/2020 6:00:00 AM 15.79 60.422 0.609 7.54 1.8 8.37
10/23/2020 6:15:00 AM 15.8 60.44 0.609 7.54 1.86 8.35
10/23/2020 6:30:00 AM 15.81 60.458 0.61 7.54 1.93 8.34
10/23/2020 6:45:00 AM 15.81 60.458 0.61 7.54 2 8.33
10/23/2020 7:00:00 AM 15.82 60.476 0.61 7.54 1.86 8.35
10/23/2020 7:15:00 AM 15.83 60.494 0.61 7.54 1.81 8.35
10/23/2020 7:30:00 AM 15.84 60.512 0.611 7.54 1.83 8.36
10/23/2020 7:45:00 AM 15.85 60.53 0.611 7.54 1.77 8.38
10/23/2020 8:00:00 AM 15.87 60.566 0.612 7.54 1.82 8.4
10/23/2020 8:15:00 AM 15.89 60.602 0.612 7.55 1.71 8.43
10/23/2020 8:30:00 AM 15.91 60.638 0.612 7.56 1.78 8.47
10/23/2020 8:45:00 AM 15.94 60.692 0.613 7.56 1.73 8.52
10/23/2020 9:00:00 AM 15.97 60.746 0.613 7.57 1.79 8.6
10/23/2020 9:15:00 AM 16 60.8 0.614 7.58 1.68 8.62
10/23/2020 9:30:00 AM 16.05 60.89 0.614 7.59 1.75 8.69
10/23/2020 9:45:00 AM 16.09 60.962 0.614 7.6 1.71 8.79
10/23/2020 10:00:00 AM 16.13 61.034 0.614 7.61 1.72 8.8
10/23/2020 10:15:00 AM 16.18 61.124 0.615 7.61 1.72 8.81
10/23/2020 10:30:00 AM 16.23 61.214 0.615 7.63 1.95 8.89
10/23/2020 10:45:00 AM 16.27 61.286 0.615 7.63 1.73 8.89
10/23/2020 11:00:00 AM 16.31 61.358 0.615 7.64 5.33 8.89
10/23/2020 11:15:00 AM 16.4 61.52 0.615 7.64 1.84 8.95
10/23/2020 11:30:00 AM 16.47 61.646 0.615 7.66 2.11 9.09
10/23/2020 11:45:00 AM 16.53 61.754 0.614 7.67 3.45 9.11
10/23/2020 12:00:00 PM 16.59 61.862 0.614 7.68 1.87 9.11
10/23/2020 12:15:00 PM 16.73 62.114 0.613 7.69 5.27 9.13
10/23/2020 12:30:00 PM 16.74 62.132 0.613 7.69 1.76 9.02
10/23/2020 12:45:00 PM 16.82 62.276 0.614 7.7 2.05 9.02
10/23/2020 1:00:00 PM 16.84 62.312 0.613 7.7 2.36 8.98
10/23/2020 1:15:00 PM 16.94 62.492 0.613 7.71 2.71 9.03
10/23/2020 1:30:00 PM 17.04 62.672 0.613 7.73 1.75 9.02
10/23/2020 1:45:00 PM 17.08 62.744 0.612 7.73 1.73 8.98
10/23/2020 2:00:00 PM 17.12 62.816 0.612 7.73 1.77 8.92
10/23/2020 2:15:00 PM 17.19 62.942 0.612 7.74 1.81 8.9
10/23/2020 2:30:00 PM 17.24 63.032 0.611 7.75 1.8 8.87
10/23/2020 2:45:00 PM 17.27 63.086 0.611 7.75 1.98 8.84
10/23/2020 3:00:00 PM 17.28 63.104 0.611 7.76 1.8 8.85
10/23/2020 3:15:00 PM 17.25 63.05 0.611 7.76 2.11 8.8
10/23/2020 3:30:00 PM 17.24 63.032 0.611 7.76 2.29 8.74
10/23/2020 3:45:00 PM 17.23 63.014 0.611 7.76 4.28 8.69
10/23/2020 4:00:00 PM 17.19 62.942 0.611 7.76 2.59 8.66
10/23/2020 4:15:00 PM 17.18 62.924 0.61 7.76 2.77 8.62
10/23/2020 4:30:00 PM 17.17 62.906 0.61 7.76 5.99 8.55
10/23/2020 4:45:00 PM 17.15 62.87 0.61 7.75 4.1 8.42
10/23/2020 5:00:00 PM 17.14 62.852 0.609 7.76 2.5 8.59
10/23/2020 5:15:00 PM 17.13 62.834 0.609 7.77 3.96 8.55
10/23/2020 5:30:00 PM 17.11 62.798 0.609 7.76 3.74 8.62
10/23/2020 5:45:00 PM 17.08 62.744 0.608 7.76 3.84 8.59
10/23/2020 6:00:00 PM 17.03 62.654 0.608 7.75 3.64 8.56
10/23/2020 6:15:00 PM 16.99 62.582 0.608 7.75 3.58 8.56
10/23/2020 6:30:00 PM 16.94 62.492 0.608 7.75 3.22 8.56
10/23/2020 6:45:00 PM 16.9 62.42 0.607 7.75 2.76 8.56
10/23/2020 7:00:00 PM 16.86 62.348 0.606 7.75 6.97 8.57
10/23/2020 7:15:00 PM 16.82 62.276 0.607 7.74 9.5 8.6
10/23/2020 7:30:00 PM 16.78 62.204 0.607 7.74 2.99 8.64
10/23/2020 7:45:00 PM 16.75 62.15 0.607 7.74 2.9 8.65
10/23/2020 8:00:00 PM 16.71 62.078 0.607 7.74 4.91 8.66
10/23/2020 8:15:00 PM 16.68 62.024 0.607 7.74 7.77 8.68
10/23/2020 8:30:00 PM 16.65 61.97 0.607 7.73 3.34 8.7
10/23/2020 8:45:00 PM 16.63 61.934 0.607 7.73 2.83 8.71
10/23/2020 9:00:00 PM 16.61 61.898 0.607 7.73 3.84 8.73
10/23/2020 9:15:00 PM 16.6 61.88 0.607 7.73 2.95 8.73
10/23/2020 9:30:00 PM 16.58 61.844 0.607 7.73 4.42 8.71
10/23/2020 9:45:00 PM 16.56 61.808 0.607 7.72 4.43 8.71
10/23/2020 10:00:00 PM 16.55 61.79 0.607 7.72 4.33 8.7
10/23/2020 10:15:00 PM 16.53 61.754 0.607 7.71 2.85 8.68
10/23/2020 10:30:00 PM 16.51 61.718 0.607 7.71 4.5 8.66
10/23/2020 10:45:00 PM 16.5 61.7 0.608 7.71 7.69 8.64
10/23/2020 11:00:00 PM 16.49 61.682 0.608 7.7 8.24 8.63
10/23/2020 11:15:00 PM 16.47 61.646 0.608 7.7 4.62 8.6
10/23/2020 11:30:00 PM 16.45 61.61 0.608 7.7 6.2 8.57
10/23/2020 11:45:00 PM 16.42 61.556 0.609 7.69 8.11 8.54
10/24/2020 12:00:00 AM 16.39 61.502 0.609 7.68 4.82 8.5
10/24/2020 12:15:00 AM 16.36 61.448 0.61 7.67 6.55 8.48
10/24/2020 12:30:00 AM 16.34 61.412 0.61 7.66 3.21 8.45
10/24/2020 12:45:00 AM 16.31 61.358 0.61 7.66 5.38 8.43
10/24/2020 1:00:00 AM 16.29 61.322 0.611 7.65 4.79 8.42
10/24/2020 1:15:00 AM 16.27 61.286 0.611 7.65 5.09 8.4
10/24/2020 1:30:00 AM 16.25 61.25 0.611 7.64 6 8.38
10/24/2020 1:45:00 AM 16.23 61.214 0.611 7.64 8.71 8.38
10/24/2020 2:00:00 AM 16.21 61.178 0.611 7.63 8.65 8.37
10/24/2020 2:15:00 AM 16.19 61.142 0.612 7.63 9.9 8.35
10/24/2020 2:30:00 AM 16.17 61.106 0.612 7.62 4 8.35
10/24/2020 2:45:00 AM 16.14 61.052 0.613 7.61 1.73 8.32
10/24/2020 3:00:00 AM 16.13 61.034 0.613 7.61 1.73 8.3
10/24/2020 3:15:00 AM 16.11 60.998 0.614 7.6 4.48 8.27
10/24/2020 3:30:00 AM 16.09 60.962 0.615 7.6 1.98 8.29
10/24/2020 3:45:00 AM 16.08 60.944 0.615 7.59 1.68 8.25
10/24/2020 4:00:00 AM 16.08 60.944 0.616 7.59 1.62 8.26
10/24/2020 4:15:00 AM 16.08 60.944 0.616 7.59 2.49 8.25
10/24/2020 4:30:00 AM 16.08 60.944 0.616 7.59 1.76 8.24
10/24/2020 4:45:00 AM 16.09 60.962 0.616 7.58 2.45 8.23
10/24/2020 5:00:00 AM 16.09 60.962 0.617 7.59 1.75 8.21
10/24/2020 5:15:00 AM 16.09 60.962 0.617 7.58 1.79 8.21
10/24/2020 5:30:00 AM 16.1 60.98 0.617 7.58 6.05 8.2
10/24/2020 5:45:00 AM 16.11 60.998 0.618 7.58 2.45 8.21
10/24/2020 6:00:00 AM 16.12 61.016 0.618 7.58 1.78 8.21
10/24/2020 6:15:00 AM 16.13 61.034 0.619 7.58 2.06 8.22
10/24/2020 6:30:00 AM 16.14 61.052 0.619 7.58 5.96 8.18
10/24/2020 6:45:00 AM 16.16 61.088 0.62 7.58 30.33 8.17
10/24/2020 7:00:00 AM 16.17 61.106 0.62 7.58 7.98 8.23
10/24/2020 7:15:00 AM 16.19 61.142 0.621 7.58 57.35 8.23
10/24/2020 7:30:00 AM 16.2 61.16 0.621 7.58 30.9 8.23
10/24/2020 7:45:00 AM 16.22 61.196 0.621 7.59 30.24 8.23
10/24/2020 8:00:00 AM 16.24 61.232 0.622 7.59 78.6 8.25
10/24/2020 8:15:00 AM 16.26 61.268 0.622 7.59 8.72 8.26
10/24/2020 8:30:00 AM 16.27 61.286 0.622 7.6 66.8 8.27
10/24/2020 8:45:00 AM 16.3 61.34 0.622 7.61 87.99 8.34
10/24/2020 9:00:00 AM 16.33 61.394 0.623 7.61 121.87 8.4
10/24/2020 9:15:00 AM 16.37 61.466 0.623 7.62 4.73 8.45
10/24/2020 9:30:00 AM 16.39 61.502 0.623 7.62 5.88 8.44
10/24/2020 9:45:00 AM 16.43 61.574 0.623 7.63 7.38 8.48
10/24/2020 10:00:00 AM 16.51 61.718 0.623 7.64 6.92 8.62
10/24/2020 10:15:00 AM 16.59 61.862 0.623 7.66 67.95 8.81
10/24/2020 10:30:00 AM 16.63 61.934 0.623 7.66 1.78 8.82
10/24/2020 10:45:00 AM 16.63 61.934 0.623 7.67 1.86 8.69
10/24/2020 11:00:00 AM 16.65 61.97 0.623 7.67 1.87 8.62
10/24/2020 11:15:00 AM 16.66 61.988 0.623 7.67 1.88 8.64
10/24/2020 11:30:00 AM 16.68 62.024 0.623 7.67 1.85 8.66
10/24/2020 11:45:00 AM 16.73 62.114 0.623 7.67 1.94 8.56
10/24/2020 12:00:00 PM 16.81 62.258 0.622 7.69 1.86 8.8
10/24/2020 12:15:00 PM 16.86 62.348 0.622 7.69 1.92 8.77
10/24/2020 12:30:00 PM 16.89 62.402 0.622 7.69 1.95 8.78
10/24/2020 12:45:00 PM 16.86 62.348 0.622 7.69 1.81 8.58
10/24/2020 1:00:00 PM 16.81 62.258 0.621 7.67 1.92 8.4
10/24/2020 1:15:00 PM 16.79 62.222 0.621 7.67 1.78 8.37
10/24/2020 1:30:00 PM 16.79 62.222 0.621 7.67 1.86 8.45
10/24/2020 1:45:00 PM 16.78 62.204 0.62 7.66 1.88 8.34
10/24/2020 2:00:00 PM 16.79 62.222 0.62 7.66 1.96 8.32
10/24/2020 2:15:00 PM 16.85 62.33 0.619 7.67 1.9 8.48
10/24/2020 2:30:00 PM 16.88 62.384 0.619 7.68 1.97 8.54
10/24/2020 2:45:00 PM 16.89 62.402 0.619 7.68 1.92 8.5
10/24/2020 3:00:00 PM 16.88 62.384 0.619 7.68 1.89 8.43
10/24/2020 3:15:00 PM 16.87 62.366 0.618 7.68 1.86 8.41
10/24/2020 3:30:00 PM 16.87 62.366 0.618 7.68 1.91 8.49
10/24/2020 3:45:00 PM 16.87 62.366 0.617 7.69 2.01 8.52
10/24/2020 4:00:00 PM 16.85 62.33 0.617 7.69 1.76 8.46
10/24/2020 4:15:00 PM 16.84 62.312 0.617 7.69 1.83 8.44
10/24/2020 4:30:00 PM 16.84 62.312 0.617 7.69 1.75 8.47
10/24/2020 4:45:00 PM 16.81 62.258 0.616 7.69 1.84 8.44
10/24/2020 5:00:00 PM 16.8 62.24 0.616 7.69 1.77 8.48
10/24/2020 5:15:00 PM 16.78 62.204 0.615 7.69 1.92 8.36
10/24/2020 5:30:00 PM 16.76 62.168 0.615 7.68 2.96 8.32
10/24/2020 5:45:00 PM 16.73 62.114 0.615 7.68 1.91 8.33
10/24/2020 6:00:00 PM 16.71 62.078 0.614 7.68 1.71 8.33
10/24/2020 6:15:00 PM 16.69 62.042 0.614 7.68 1.81 8.25
10/24/2020 6:30:00 PM 16.67 62.006 0.614 7.67 2 8.27
10/24/2020 6:45:00 PM 16.65 61.97 0.613 7.67 1.65 8.16
10/24/2020 7:00:00 PM 16.63 61.934 0.613 7.66 1.85 8.1
10/24/2020 7:15:00 PM 16.6 61.88 0.612 7.66 1.72 8.07
10/24/2020 7:30:00 PM 16.57 61.826 0.612 7.66 1.93 8.13
10/24/2020 7:45:00 PM 16.53 61.754 0.612 7.65 2.69 8.1
10/24/2020 8:00:00 PM 16.49 61.682 0.612 7.65 1.95 8.16
10/24/2020 8:15:00 PM 16.46 61.628 0.612 7.64 1.93 8.06
10/24/2020 8:30:00 PM 16.42 61.556 0.612 7.64 1.94 8.16
10/24/2020 8:45:00 PM 16.38 61.484 0.612 7.63 1.76 8.15
10/24/2020 9:00:00 PM 16.34 61.412 0.612 7.63 1.8 8.12
10/24/2020 9:15:00 PM 16.3 61.34 0.612 7.62 1.98 8.15
10/24/2020 9:30:00 PM 16.26 61.268 0.612 7.62 1.86 8.13
10/24/2020 9:45:00 PM 16.21 61.178 0.611 7.61 1.91 8.11
10/24/2020 10:00:00 PM 16.17 61.106 0.611 7.61 1.91 8.12
10/24/2020 10:15:00 PM 16.11 60.998 0.61 7.6 1.95 8.12
10/24/2020 10:30:00 PM 16.06 60.908 0.609 7.6 2.02 8.16
10/24/2020 10:45:00 PM 16.02 60.836 0.609 7.59 2 8.03
10/24/2020 11:00:00 PM 15.98 60.764 0.609 7.59 1.89 8.12
10/24/2020 11:15:00 PM 15.95 60.71 0.608 7.59 1.97 8.15
10/24/2020 11:30:00 PM 15.91 60.638 0.608 7.58 1.95 8.06
10/24/2020 11:45:00 PM 15.87 60.566 0.608 7.57 2.06 8.02
10/25/2020 12:00:00 AM 15.83 60.494 0.607 7.57 1.96 8.16
10/25/2020 12:15:00 AM 15.8 60.44 0.607 7.57 2.13 8.12
10/25/2020 12:30:00 AM 15.75 60.35 0.607 7.56 2.16 8.19
10/25/2020 12:45:00 AM 15.71 60.278 0.607 7.55 2.24 8.05
10/25/2020 1:00:00 AM 15.66 60.188 0.606 7.55 2.19 8.14
10/25/2020 1:15:00 AM 15.62 60.116 0.606 7.54 2.27 8.15
10/25/2020 1:30:00 AM 15.58 60.044 0.606 7.54 2.26 8.04
10/25/2020 1:45:00 AM 15.53 59.954 0.606 7.53 2.22 8.16
10/25/2020 2:00:00 AM 15.49 59.882 0.605 7.53 2.23 8.09
10/25/2020 2:15:00 AM 15.44 59.792 0.606 7.52 2.04 8.1
10/25/2020 2:30:00 AM 15.39 59.702 0.605 7.52 2.14 8.11
10/25/2020 2:45:00 AM 15.34 59.612 0.605 7.51 2.16 8.14
10/25/2020 3:00:00 AM 15.3 59.54 0.605 7.5 2.07 8.11
10/25/2020 3:15:00 AM 15.27 59.486 0.605 7.5 2.18 8.08
10/25/2020 3:30:00 AM 15.23 59.414 0.605 7.5 2.13 8.12
10/25/2020 3:45:00 AM 15.2 59.36 0.605 7.48 2.25 8.09
10/25/2020 4:00:00 AM 15.16 59.288 0.605 7.48 2.7 8
10/25/2020 4:15:00 AM 15.12 59.216 0.605 7.47 2.2 8.06
10/25/2020 4:30:00 AM 15.09 59.162 0.605 7.47 2.13 8.04
10/25/2020 4:45:00 AM 15.05 59.09 0.605 7.46 2.38 8.06
10/25/2020 5:00:00 AM 15.02 59.036 0.605 7.46 2.21 7.98
10/25/2020 5:15:00 AM 14.99 58.982 0.605 7.45 2.24 7.96
10/25/2020 5:30:00 AM 14.97 58.946 0.605 7.45 2.15 8
10/25/2020 5:45:00 AM 14.94 58.892 0.605 7.44 2.16 7.98
10/25/2020 6:00:00 AM 14.93 58.874 0.605 7.44 2.22 8.05
10/25/2020 6:15:00 AM 14.91 58.838 0.606 7.44 2.2 7.97
10/25/2020 6:30:00 AM 14.88 58.784 0.606 7.44 2.26 8
10/25/2020 6:45:00 AM 14.87 58.766 0.606 7.43 2.27 8
10/25/2020 7:00:00 AM 14.85 58.73 0.606 7.43 2.18 7.97
10/25/2020 7:15:00 AM 14.83 58.694 0.606 7.43 2.49 7.95
10/25/2020 7:30:00 AM 14.81 58.658 0.606 7.43 4.65 7.98
10/25/2020 7:45:00 AM 14.79 58.622 0.606 7.43 2.13 8.03
10/25/2020 8:00:00 AM 14.76 58.568 0.607 7.42 1.97 8.03
10/25/2020 8:15:00 AM 14.75 58.55 0.607 7.42 1.97 8.06
10/25/2020 8:30:00 AM 14.74 58.532 0.607 7.42 2.06 8.06
10/25/2020 8:45:00 AM 14.74 58.532 0.608 7.43 2.06 8.16
10/25/2020 9:00:00 AM 14.73 58.514 0.608 7.43 4.74 8.14
10/25/2020 9:15:00 AM 14.73 58.514 0.608 7.43 2.03 8.28
10/25/2020 9:30:00 AM 14.74 58.532 0.609 7.43 1.94 8.32
10/25/2020 9:45:00 AM 14.75 58.55 0.61 7.46 2.07 8.46
10/25/2020 10:00:00 AM 14.76 58.568 0.61 7.45 2.13 8.53
10/25/2020 10:15:00 AM 14.75 58.55 0.611 7.45 1.98 8.48
10/25/2020 10:30:00 AM 14.77 58.586 0.611 7.45 1.91 8.52
10/25/2020 10:45:00 AM 14.77 58.586 0.612 7.46 2.11 8.55
10/25/2020 11:00:00 AM 14.77 58.586 0.613 7.46 2.03 8.59
10/25/2020 11:15:00 AM 14.77 58.586 0.614 7.46 2.02 8.55
10/25/2020 11:30:00 AM 14.77 58.586 0.614 7.46 1.94 8.61
10/25/2020 11:45:00 AM 14.78 58.604 0.615 7.46 2.04 8.66
10/25/2020 12:00:00 PM 14.8 58.64 0.616 7.47 5.5 8.69
10/25/2020 12:15:00 PM 14.8 58.64 0.616 7.47 4.63 8.58
10/25/2020 12:30:00 PM 14.79 58.622 0.618 7.47 2.12 8.55
10/25/2020 12:45:00 PM 14.78 58.604 0.618 7.46 2.09 8.55
10/25/2020 1:00:00 PM 14.76 58.568 0.619 7.46 4.61 8.54
10/25/2020 1:15:00 PM 14.75 58.55 0.619 7.47 5.02 8.53
10/25/2020 1:30:00 PM 14.75 58.55 0.62 7.46 2.06 8.56
10/25/2020 1:45:00 PM 14.73 58.514 0.621 7.46 2.32 8.51
10/25/2020 2:00:00 PM 14.73 58.514 0.621 7.47 2.12 8.54
10/25/2020 2:15:00 PM 14.72 58.496 0.621 7.47 2.2 8.55
10/25/2020 2:30:00 PM 14.71 58.478 0.622 7.46 2.13 8.54
10/25/2020 2:45:00 PM 14.69 58.442 0.622 7.46 2.11 8.51
10/25/2020 3:00:00 PM 14.67 58.406 0.622 7.47 2.16 8.53
10/25/2020 3:15:00 PM 14.65 58.37 0.622 7.46 2.2 8.51
10/25/2020 3:30:00 PM 14.65 58.37 0.624 7.46 2.14 8.45
10/25/2020 3:45:00 PM 14.64 58.352 0.624 7.46 2.1 8.49
10/25/2020 4:00:00 PM 14.63 58.334 0.625 7.46 2.24 8.51
10/25/2020 4:15:00 PM 14.64 58.352 0.625 7.47 2.4 8.53
10/25/2020 4:30:00 PM 14.62 58.316 0.625 7.46 2.21 8.48
10/25/2020 4:45:00 PM 14.61 58.298 0.626 7.46 2.17 8.51
10/25/2020 5:00:00 PM 14.6 58.28 0.626 7.46 2.31 8.49
10/25/2020 5:15:00 PM 14.57 58.226 0.626 7.46 13.85 8.42
10/25/2020 5:30:00 PM 14.55 58.19 0.626 7.45 2.23 8.43
10/25/2020 5:45:00 PM 14.53 58.154 0.626 7.45 2.16 8.44
10/25/2020 6:00:00 PM 14.51 58.118 0.626 7.45 2.21 8.46
10/25/2020 6:15:00 PM 14.49 58.082 0.626 7.46 2.15 8.42
10/25/2020 6:30:00 PM 14.46 58.028 0.626 7.45 2.09 8.28
10/25/2020 6:45:00 PM 14.45 58.01 0.626 7.45 2.18 8.31
10/25/2020 7:00:00 PM 14.42 57.956 0.626 7.45 3.91 8.47
10/25/2020 7:15:00 PM 14.4 57.92 0.626 7.45 2.34 8.5
10/25/2020 7:30:00 PM 14.37 57.866 0.625 7.45 2.14 8.46
10/25/2020 7:45:00 PM 14.33 57.794 0.624 7.46 2.26 8.48
10/25/2020 8:00:00 PM 14.3 57.74 0.624 7.45 2.47 8.56
10/25/2020 8:15:00 PM 14.26 57.668 0.623 7.45 2.96 8.47
10/25/2020 8:30:00 PM 14.23 57.614 0.623 7.45 2.24 8.54
10/25/2020 8:45:00 PM 14.2 57.56 0.623 7.45 2.35 8.61
10/25/2020 9:00:00 PM 14.16 57.488 0.623 7.45 2.33 8.49
10/25/2020 9:15:00 PM 14.13 57.434 0.622 7.45 5.1 8.55
10/25/2020 9:30:00 PM 14.09 57.362 0.621 7.45 2.07 8.6
10/25/2020 9:45:00 PM 14.05 57.29 0.621 7.44 2.1 8.63
10/25/2020 10:00:00 PM 14.01 57.218 0.62 7.44 2.05 8.6
10/25/2020 10:15:00 PM 13.96 57.128 0.619 7.44 2.14 8.65
10/25/2020 10:30:00 PM 13.91 57.038 0.618 7.43 2.01 8.65
10/25/2020 10:45:00 PM 13.87 56.966 0.618 7.43 2.08 8.67
10/25/2020 11:00:00 PM 13.82 56.876 0.617 7.43 2.14 8.66
10/25/2020 11:15:00 PM 13.78 56.804 0.617 7.42 2.23 8.64
10/25/2020 11:30:00 PM 13.73 56.714 0.616 7.42 2.23 8.55
10/25/2020 11:45:00 PM 13.68 56.624 0.614 7.41 1.99 8.6
10/26/2020 12:00:00 AM 13.64 56.552 0.614 7.41 1.98 8.62
10/26/2020 12:15:00 AM 13.59 56.462 0.613 7.4 2.08 8.59
10/26/2020 12:30:00 AM 13.55 56.39 0.611 7.4 1.97 8.55
10/26/2020 12:45:00 AM 13.5 56.3 0.611 7.39 2.05 8.55
10/26/2020 1:00:00 AM 13.46 56.228 0.61 7.39 2.02 8.57
10/26/2020 1:15:00 AM 13.41 56.138 0.61 7.38 2.04 8.53
10/26/2020 1:30:00 AM 13.37 56.066 0.608 7.38 2.05 8.52
10/26/2020 1:45:00 AM 13.32 55.976 0.608 7.37 2.02 8.54
10/26/2020 2:00:00 AM 13.28 55.904 0.608 7.37 2.04 8.54
10/26/2020 2:15:00 AM 13.24 55.832 0.607 7.36 2.83 8.56
10/26/2020 2:30:00 AM 13.2 55.76 0.606 7.35 2.07 8.5
10/26/2020 2:45:00 AM 13.15 55.67 0.606 7.35 2.08 8.51
10/26/2020 3:00:00 AM 13.11 55.598 0.605 7.34 2.02 8.47
10/26/2020 3:15:00 AM 13.07 55.526 0.605 7.34 2.15 8.46
10/26/2020 3:30:00 AM 13.03 55.454 0.604 7.33 2.28 8.43
10/26/2020 3:45:00 AM 12.99 55.382 0.604 7.33 2.01 8.44
10/26/2020 4:00:00 AM 12.95 55.31 0.603 7.33 2.28 8.43
10/26/2020 4:15:00 AM 12.91 55.238 0.602 7.32 2.14 8.45
10/26/2020 4:30:00 AM 12.87 55.166 0.601 7.32 2.17 8.47
10/26/2020 4:45:00 AM 12.83 55.094 0.601 7.32 2.3 8.44
10/26/2020 5:00:00 AM 12.8 55.04 0.601 7.31 2.13 8.46
10/26/2020 5:15:00 AM 12.76 54.968 0.601 7.31 2.28 8.41
10/26/2020 5:30:00 AM 12.73 54.914 0.601 7.3 2.39 8.46
10/26/2020 5:45:00 AM 12.7 54.86 0.601 7.3 2.17 8.31
10/26/2020 6:00:00 AM 12.67 54.806 0.601 7.3 2.27 8.48
10/26/2020 6:15:00 AM 12.64 54.752 0.6 7.29 2.83 8.52
10/26/2020 6:30:00 AM 12.61 54.698 0.601 7.29 2.13 8.56
10/26/2020 6:45:00 AM 12.59 54.662 0.6 7.29 2.2 8.59
10/26/2020 7:00:00 AM 12.56 54.608 0.601 7.29 2.2 8.56
10/26/2020 7:15:00 AM 12.53 54.554 0.6 7.29 2.13 8.62
10/26/2020 7:30:00 AM 12.51 54.518 0.601 7.28 2.26 8.57
10/26/2020 7:45:00 AM 12.48 54.464 0.601 7.28 2.17 8.62
10/26/2020 8:00:00 AM 12.46 54.428 0.601 7.28 2.17 8.61
10/26/2020 8:15:00 AM 12.44 54.392 0.602 7.28 2.1 8.67
10/26/2020 8:30:00 AM 12.42 54.356 0.602 7.28 2.23 8.67
10/26/2020 8:45:00 AM 12.4 54.32 0.602 7.28 2.2 8.74
10/26/2020 9:00:00 AM 12.39 54.302 0.603 7.29 2.17 8.75
10/26/2020 9:15:00 AM 12.39 54.302 0.603 7.29 2.04 8.86
10/26/2020 9:30:00 AM 12.4 54.32 0.604 7.3 2.21 8.88
10/26/2020 9:45:00 AM 12.42 54.356 0.604 7.3 2.16 9.05
10/26/2020 10:00:00 AM 12.46 54.428 0.605 7.32 2.26 9.13
10/26/2020 10:15:00 AM 12.45 54.41 0.605 7.32 2.12 9.17
10/26/2020 10:30:00 AM 12.46 54.428 0.606 7.32 2.21 9.11
10/26/2020 10:45:00 AM 12.47 54.446 0.606 7.33 2.11 9.17
10/26/2020 11:00:00 AM 12.46 54.428 0.607 7.32 2.08 9.18
10/26/2020 11:15:00 AM 12.45 54.41 0.607 7.32 2.16 9.12
10/26/2020 11:30:00 AM 12.44 54.392 0.608 7.32 2.14 9.15
10/26/2020 11:45:00 AM 12.43 54.374 0.609 7.32 2.03 9.16
10/26/2020 12:00:00 PM 12.43 54.374 0.609 7.33 1.99 9.23
10/26/2020 12:15:00 PM 12.42 54.356 0.61 7.33 1.8 9.28
10/26/2020 12:30:00 PM 12.41 54.338 0.611 7.33 1.81 9.26
10/26/2020 12:45:00 PM 12.41 54.338 0.611 7.33 1.85 9.28
10/26/2020 1:00:00 PM 12.41 54.338 0.612 7.33 1.8 9.33
10/26/2020 1:15:00 PM 12.41 54.338 0.612 7.34 1.88 9.36
10/26/2020 1:30:00 PM 12.41 54.338 0.612 7.34 1.79 9.36
10/26/2020 1:45:00 PM 12.42 54.356 0.613 7.34 1.74 9.38
10/26/2020 2:00:00 PM 12.42 54.356 0.613 7.34 1.77 9.34
10/26/2020 2:15:00 PM 12.43 54.374 0.613 7.34 1.68 9.37
10/26/2020 2:30:00 PM 12.42 54.356 0.613 7.34 1.91 9.3
10/26/2020 2:45:00 PM 12.42 54.356 0.614 7.34 2.31 9.23
10/26/2020 3:00:00 PM 12.42 54.356 0.614 7.34 2.21 9.16
10/26/2020 3:15:00 PM 12.42 54.356 0.614 7.34 1.91 9.32
10/26/2020 3:30:00 PM 12.43 54.374 0.614 7.35 2.1 9.34
10/26/2020 3:45:00 PM 12.43 54.374 0.614 7.35 2.24 9.3
10/26/2020 4:00:00 PM 12.43 54.374 0.614 7.35 2.33 9.23
10/26/2020 4:15:00 PM 12.43 54.374 0.614 7.35 2.1 9.34
10/26/2020 4:30:00 PM 12.43 54.374 0.614 7.35 2.12 9.24
10/26/2020 4:45:00 PM 12.42 54.356 0.614 7.35 2.49 9.29
10/26/2020 5:00:00 PM 12.42 54.356 0.614 7.35 2.26 9.22
10/26/2020 5:15:00 PM 12.41 54.338 0.614 7.35 2.81 9.27
10/26/2020 5:30:00 PM 12.41 54.338 0.614 7.35 2.39 9.22
10/26/2020 5:45:00 PM 12.4 54.32 0.614 7.35 2.37 9.26
10/26/2020 6:00:00 PM 12.39 54.302 0.614 7.35 2.27 9.26
10/26/2020 6:15:00 PM 12.38 54.284 0.613 7.35 2.34 9.23
10/26/2020 6:30:00 PM 12.38 54.284 0.612 7.34 2.2 9.21
10/26/2020 6:45:00 PM 12.37 54.266 0.613 7.35 2.36 9.23
10/26/2020 7:00:00 PM 12.37 54.266 0.613 7.35 2.49 9.19
10/26/2020 7:15:00 PM 12.36 54.248 0.612 7.34 2.39 9.23
10/26/2020 7:30:00 PM 12.36 54.248 0.612 7.34 2.49 9.18
10/26/2020 7:45:00 PM 12.34 54.212 0.612 7.34 2.49 9.23
10/26/2020 8:00:00 PM 12.33 54.194 0.611 7.34 2.64 9.23
10/26/2020 8:15:00 PM 12.32 54.176 0.611 7.34 2.5 9.22
10/26/2020 8:30:00 PM 12.31 54.158 0.611 7.34 2.42 9.26
10/26/2020 8:45:00 PM 12.3 54.14 0.61 7.33 2.67 9.22
10/26/2020 9:00:00 PM 12.29 54.122 0.61 7.33 2.55 9.21
10/26/2020 9:15:00 PM 12.28 54.104 0.61 7.33 2.36 9.19
10/26/2020 9:30:00 PM 12.26 54.068 0.609 7.33 2.63 9.24
10/26/2020 9:45:00 PM 12.25 54.05 0.609 7.32 2.5 9.23
10/26/2020 10:00:00 PM 12.23 54.014 0.609 7.32 2.49 9.24
10/26/2020 10:15:00 PM 12.22 53.996 0.608 7.32 2.48 9.23
10/26/2020 10:30:00 PM 12.21 53.978 0.608 7.31 2.37 9.22
10/26/2020 10:45:00 PM 12.2 53.96 0.607 7.31 2.84 9.16
10/26/2020 11:00:00 PM 12.18 53.924 0.607 7.31 2.23 9.17
10/26/2020 11:15:00 PM 12.17 53.906 0.606 7.3 2.51 9.13
10/26/2020 11:30:00 PM 12.16 53.888 0.606 7.3 2.7 9.15
10/26/2020 11:45:00 PM 12.15 53.87 0.606 7.3 2.27 9.15
10/27/2020 12:00:00 AM 12.13 53.834 0.605 7.3 2.49 9.12
10/27/2020 12:15:00 AM 12.13 53.834 0.605 7.29 2.28 9.11
10/27/2020 12:30:00 AM 12.12 53.816 0.605 7.29 2.78 9.12
10/27/2020 12:45:00 AM 12.11 53.798 0.605 7.28 2.52 9.1
10/27/2020 1:00:00 AM 12.1 53.78 0.604 7.28 2.59 9.09
10/27/2020 1:15:00 AM 12.09 53.762 0.604 7.28 2.68 9.06
10/27/2020 1:30:00 AM 12.07 53.726 0.604 7.27 2.5 9.08
10/27/2020 1:45:00 AM 12.06 53.708 0.604 7.27 2.66 9.05
10/27/2020 2:00:00 AM 12.04 53.672 0.604 7.27 2.43 9.04
10/27/2020 2:15:00 AM 12.03 53.654 0.604 7.27 2.57 9.03
10/27/2020 2:30:00 AM 12.03 53.654 0.604 7.26 2.5 9.05
10/27/2020 2:45:00 AM 12.03 53.654 0.604 7.26 2.56 9.02
10/27/2020 3:00:00 AM 12.03 53.654 0.604 7.26 2.49 9.01
10/27/2020 3:15:00 AM 12.03 53.654 0.604 7.26 2.85 9
10/27/2020 3:30:00 AM 12.03 53.654 0.604 7.26 2.86 9.01
10/27/2020 3:45:00 AM 12.03 53.654 0.604 7.25 2.73 9.02
10/27/2020 4:00:00 AM 12.03 53.654 0.605 7.25 2.79 9.02
10/27/2020 4:15:00 AM 12.03 53.654 0.605 7.25 2.69 9
10/27/2020 4:30:00 AM 12.03 53.654 0.605 7.25 2.78 9.01
10/27/2020 4:45:00 AM 12.02 53.636 0.605 7.25 2.83 9.01
10/27/2020 5:00:00 AM 12.03 53.654 0.606 7.25 3.06 8.94
10/27/2020 5:15:00 AM 12.03 53.654 0.606 7.25 3.67 8.99
10/27/2020 5:30:00 AM 12.04 53.672 0.606 7.25 2.78 9.01
10/27/2020 5:45:00 AM 12.04 53.672 0.607 7.25 3.1 8.98
10/27/2020 6:00:00 AM 12.05 53.69 0.607 7.25 2.94 9.01
10/27/2020 6:15:00 AM 12.05 53.69 0.607 7.25 2.84 9.03
10/27/2020 6:30:00 AM 12.06 53.708 0.608 7.25 2.92 9.04
10/27/2020 6:45:00 AM 12.07 53.726 0.609 7.25 2.62 9.05
10/27/2020 7:00:00 AM 12.08 53.744 0.609 7.25 2.64 9.05
10/27/2020 7:15:00 AM 12.09 53.762 0.609 7.25 2.78 9.06
10/27/2020 7:30:00 AM 12.09 53.762 0.61 7.25 3.02 9.08
10/27/2020 7:45:00 AM 12.1 53.78 0.61 7.26 2.95 9.07
10/27/2020 8:00:00 AM 12.1 53.78 0.61 7.26 2.47 9.1
10/27/2020 8:15:00 AM 12.11 53.798 0.611 7.26 2.77 9.14
10/27/2020 8:30:00 AM 12.12 53.816 0.611 7.26 2.81 9.16
10/27/2020 8:45:00 AM 12.12 53.816 0.612 7.27 2.64 9.18
10/27/2020 9:00:00 AM 12.14 53.852 0.612 7.28 2.49 9.3
10/27/2020 9:15:00 AM 12.19 53.942 0.612 7.28 2.54 9.38
10/27/2020 9:30:00 AM 12.23 54.014 0.613 7.29 2.69 9.44
10/27/2020 9:45:00 AM 12.28 54.104 0.613 7.3 2.38 9.5
10/27/2020 10:00:00 AM 12.35 54.23 0.613 7.31 2.56 9.57
10/27/2020 10:15:00 AM 12.44 54.392 0.613 7.32 2.9 9.65
10/27/2020 10:30:00 AM 12.47 54.446 0.614 7.33 2.61 9.64
10/27/2020 10:45:00 AM 12.54 54.572 0.614 7.33 2.46 9.65
10/27/2020 11:00:00 AM 12.56 54.608 0.615 7.34 2.39 9.65
10/27/2020 11:15:00 AM 12.58 54.644 0.614 7.34 2.69 9.61
10/27/2020 11:30:00 AM 12.6 54.68 0.614 7.34 2.4 9.59
10/27/2020 11:45:00 AM 12.68 54.824 0.614 7.34 2.84 9.6
10/27/2020 12:00:00 PM 12.74 54.932 0.615 7.35 2.48 9.7
10/27/2020 12:15:00 PM 12.83 55.094 0.614 7.36 3.55 9.74
10/27/2020 12:30:00 PM 12.85 55.13 0.614 7.36 2.44 9.76
10/27/2020 12:45:00 PM 12.85 55.13 0.614 7.36 2.41 9.73
10/27/2020 1:00:00 PM 12.85 55.13 0.614 7.36 2.49 9.67
10/27/2020 1:15:00 PM 12.83 55.094 0.613 7.36 2.46 9.71
10/27/2020 1:30:00 PM 12.87 55.166 0.613 7.37 2.35 9.7
10/27/2020 1:45:00 PM 12.89 55.202 0.613 7.36 2.32 9.63
10/27/2020 2:00:00 PM 12.95 55.31 0.612 7.37 2.38 9.68
10/27/2020 2:15:00 PM 12.96 55.328 0.611 7.37 2.42 9.64
10/27/2020 2:30:00 PM 12.94 55.292 0.611 7.37 2.36 9.63
10/27/2020 2:45:00 PM 12.95 55.31 0.61 7.37 2.38 9.63
10/27/2020 3:00:00 PM 12.94 55.292 0.61 7.37 2.38 9.5
10/27/2020 3:15:00 PM 12.99 55.382 0.609 7.37 2.76 9.6
10/27/2020 3:30:00 PM 13 55.4 0.609 7.36 2.21 9.48
10/27/2020 3:45:00 PM 13.02 55.436 0.608 7.36 2.48 9.47
10/27/2020 4:00:00 PM 13.06 55.508 0.608 7.36 2.98 9.38
10/27/2020 4:15:00 PM 13.1 55.58 0.607 7.36 2.61 9.4
10/27/2020 4:30:00 PM 13.11 55.598 0.606 7.37 2.52 9.45
10/27/2020 4:45:00 PM 13.12 55.616 0.605 7.36 2.79 9.39
10/27/2020 5:00:00 PM 13.14 55.652 0.604 7.36 2.72 9.33
10/27/2020 5:15:00 PM 13.15 55.67 0.604 7.37 2.62 9.37
10/27/2020 5:30:00 PM 13.17 55.706 0.603 7.37 2.79 9.33
10/27/2020 5:45:00 PM 13.18 55.724 0.602 7.37 2.85 9.36
10/27/2020 6:00:00 PM 13.19 55.742 0.601 7.37 2.68 9.35
10/27/2020 6:15:00 PM 13.2 55.76 0.6 7.38 2.35 9.34
10/27/2020 6:30:00 PM 13.21 55.778 0.6 7.38 2.25 9.32
10/27/2020 6:45:00 PM 13.21 55.778 0.599 7.38 2.32 9.4
10/27/2020 7:00:00 PM 13.22 55.796 0.599 7.38 3.28 9.33
10/27/2020 7:15:00 PM 13.22 55.796 0.599 7.38 3.12 9.4
10/27/2020 7:30:00 PM 13.21 55.778 0.599 7.38 2.78 9.39
10/27/2020 7:45:00 PM 13.21 55.778 0.599 7.38 2.85 9.37
10/27/2020 8:00:00 PM 13.2 55.76 0.599 7.38 2.69 9.4
10/27/2020 8:15:00 PM 13.2 55.76 0.599 7.38 2.26 9.37
10/27/2020 8:30:00 PM 13.19 55.742 0.6 7.38 2.21 9.4
10/27/2020 8:45:00 PM 13.18 55.724 0.6 7.38 2.08 9.39
10/27/2020 9:00:00 PM 13.17 55.706 0.6 7.38 2.24 9.39
10/27/2020 9:15:00 PM 13.17 55.706 0.6 7.38 2.33 9.38
10/27/2020 9:30:00 PM 13.16 55.688 0.6 7.38 2.09 9.33
10/27/2020 9:45:00 PM 13.15 55.67 0.6 7.37 2.05 9.33
10/27/2020 10:00:00 PM 13.14 55.652 0.6 7.36 2.28 9.38
10/27/2020 10:15:00 PM 13.13 55.634 0.6 7.36 2.12 9.34
10/27/2020 10:30:00 PM 13.12 55.616 0.601 7.36 2.19 9.32
10/27/2020 10:45:00 PM 13.11 55.598 0.601 7.36 2.24 9.32
10/27/2020 11:00:00 PM 13.1 55.58 0.601 7.35 2.45 9.32
10/27/2020 11:15:00 PM 13.09 55.562 0.602 7.35 2.41 9.32
10/27/2020 11:30:00 PM 13.08 55.544 0.602 7.34 2.28 9.28
10/27/2020 11:45:00 PM 13.07 55.526 0.602 7.34 2.46 9.26
10/28/2020 12:00:00 AM 13.06 55.508 0.602 7.34 2.3 9.25
10/28/2020 12:15:00 AM 13.06 55.508 0.603 7.33 2.2 9.24
10/28/2020 12:30:00 AM 13.05 55.49 0.604 7.33 2.2 9.2
10/28/2020 12:45:00 AM 13.04 55.472 0.604 7.33 2.09 9.18
10/28/2020 1:00:00 AM 13.03 55.454 0.604 7.32 2.2 9.14
10/28/2020 1:15:00 AM 13.02 55.436 0.605 7.32 2.24 9.14
10/28/2020 1:30:00 AM 13.02 55.436 0.605 7.31 2.42 9.11
10/28/2020 1:45:00 AM 13.01 55.418 0.606 7.31 2.87 9.03
10/28/2020 2:00:00 AM 13 55.4 0.606 7.31 2.43 9.1
10/28/2020 2:15:00 AM 13 55.4 0.607 7.31 2.11 8.82
10/28/2020 2:30:00 AM 12.99 55.382 0.608 7.3 2.13 8.96
10/28/2020 2:45:00 AM 12.99 55.382 0.609 7.3 2.06 9.06
10/28/2020 3:00:00 AM 12.99 55.382 0.609 7.3 2.21 9.05
10/28/2020 3:15:00 AM 12.98 55.364 0.61 7.3 2.19 9.04
10/28/2020 3:30:00 AM 12.98 55.364 0.611 7.3 2.2 9.07
10/28/2020 3:45:00 AM 12.98 55.364 0.611 7.3 2.28 9.07
10/28/2020 4:00:00 AM 12.98 55.364 0.611 7.29 2.26 9.03
10/28/2020 4:15:00 AM 12.99 55.382 0.612 7.29 2.24 9
10/28/2020 4:30:00 AM 12.99 55.382 0.612 7.29 2.33 8.99
10/28/2020 4:45:00 AM 12.99 55.382 0.613 7.29 2.2 9.01
10/28/2020 5:00:00 AM 12.99 55.382 0.613 7.29 2.21 9.02
10/28/2020 5:15:00 AM 13 55.4 0.614 7.29 2.16 9
10/28/2020 5:30:00 AM 13 55.4 0.614 7.29 2.23 9.03
10/28/2020 5:45:00 AM 13.01 55.418 0.614 7.29 2.43 9.01
10/28/2020 6:00:00 AM 13.02 55.436 0.614 7.29 2.03 9.04
10/28/2020 6:15:00 AM 13.03 55.454 0.615 7.29 1.97 9.02
10/28/2020 6:30:00 AM 13.04 55.472 0.616 7.29 2.83 9.01
10/28/2020 6:45:00 AM 13.05 55.49 0.616 7.3 1.88 9.02
10/28/2020 7:00:00 AM 13.07 55.526 0.615 7.31 2.22 9.05
10/28/2020 7:15:00 AM 13.08 55.544 0.616 7.31 5.64 9.03
10/28/2020 7:30:00 AM 13.1 55.58 0.616 7.32 2 9.06
10/28/2020 7:45:00 AM 13.11 55.598 0.616 7.32 1.94 9.11
10/28/2020 8:00:00 AM 13.13 55.634 0.616 7.32 1.84 9.17
10/28/2020 8:15:00 AM 13.15 55.67 0.616 7.33 1.99 9.18
10/28/2020 8:30:00 AM 13.17 55.706 0.615 7.33 1.93 9.22
10/28/2020 8:45:00 AM 13.19 55.742 0.615 7.34 1.76 9.15
10/28/2020 9:00:00 AM 13.21 55.778 0.614 7.34 1.86 9.22
10/28/2020 9:15:00 AM 13.23 55.814 0.614 7.34 1.91 9.3
10/28/2020 9:30:00 AM 13.27 55.886 0.613 7.36 1.9 9.38
10/28/2020 9:45:00 AM 13.29 55.922 0.613 7.36 1.9 9.31
10/28/2020 10:00:00 AM 13.32 55.976 0.612 7.37 1.87 9.4
10/28/2020 10:15:00 AM 13.33 55.994 0.611 7.37 1.86 9.31
10/28/2020 10:30:00 AM 13.35 56.03 0.611 7.37 1.95 9.35
10/28/2020 10:45:00 AM 13.38 56.084 0.61 7.38 1.94 9.4
10/28/2020 11:00:00 AM 13.4 56.12 0.609 7.38 1.89 9.39
10/28/2020 11:15:00 AM 13.41 56.138 0.608 7.38 1.96 9.35
10/28/2020 11:30:00 AM 13.44 56.192 0.607 7.38 2.01 9.38
10/28/2020 11:45:00 AM 13.46 56.228 0.606 7.39 13.36 9.46
10/28/2020 12:00:00 PM 13.47 56.246 0.606 7.4 1.87 9.41
10/28/2020 12:15:00 PM 13.48 56.264 0.605 7.4 5.59 9.33
10/28/2020 12:30:00 PM 13.5 56.3 0.604 7.4 1.87 9.37
10/28/2020 12:45:00 PM 13.51 56.318 0.604 7.4 1.93 9.37
10/28/2020 1:00:00 PM 13.51 56.318 0.603 7.4 1.87 9.36
10/28/2020 1:15:00 PM 13.51 56.318 0.602 7.4 2.08 9.3
10/28/2020 1:30:00 PM 13.52 56.336 0.601 7.38 1.95 9.25
10/28/2020 1:45:00 PM 13.53 56.354 0.601 7.4 1.87 9.26
10/28/2020 2:00:00 PM 13.54 56.372 0.601 7.41 1.96 9.29
10/28/2020 2:15:00 PM 13.55 56.39 0.6 7.4 1.89 9.29
10/28/2020 2:30:00 PM 13.57 56.426 0.599 7.4 1.81 9.38
10/28/2020 2:45:00 PM 13.59 56.462 0.598 7.41 1.8 9.39
10/28/2020 3:00:00 PM 13.59 56.462 0.598 7.41 1.81 9.32
10/28/2020 3:15:00 PM 13.59 56.462 0.598 7.4 1.91 9.27
10/28/2020 3:30:00 PM 13.58 56.444 0.597 7.39 1.81 9.21
10/28/2020 3:45:00 PM 13.58 56.444 0.597 7.4 1.92 9.2
10/28/2020 4:00:00 PM 13.57 56.426 0.597 7.39 1.97 9.16
10/28/2020 4:15:00 PM 13.57 56.426 0.596 7.39 1.94 9.13
10/28/2020 4:30:00 PM 13.57 56.426 0.596 7.39 1.88 9.12
10/28/2020 4:45:00 PM 13.57 56.426 0.596 7.39 2.01 9.1
10/28/2020 5:00:00 PM 13.58 56.444 0.595 7.39 1.95 9.13
10/28/2020 5:15:00 PM 13.58 56.444 0.595 7.39 1.93 8.98
10/28/2020 5:30:00 PM 13.57 56.426 0.595 7.39 1.93 9.01
10/28/2020 5:45:00 PM 13.56 56.408 0.595 7.38 1.92 8.97
10/28/2020 6:00:00 PM 13.56 56.408 0.595 7.38 1.96 8.97
10/28/2020 6:15:00 PM 13.55 56.39 0.594 7.38 2.02 9
10/28/2020 6:30:00 PM 13.54 56.372 0.594 7.38 2.7 9
10/28/2020 6:45:00 PM 13.54 56.372 0.594 7.37 2.29 8.97
10/28/2020 7:00:00 PM 13.53 56.354 0.593 7.37 1.96 8.99
10/28/2020 7:15:00 PM 13.52 56.336 0.593 7.37 2.41 8.99
10/28/2020 7:30:00 PM 13.51 56.318 0.593 7.37 2.12 8.97
10/28/2020 7:45:00 PM 13.5 56.3 0.593 7.37 2.08 8.94
10/28/2020 8:00:00 PM 13.49 56.282 0.593 7.36 2.34 8.97
10/28/2020 8:15:00 PM 13.48 56.264 0.593 7.36 1.99 8.93
10/28/2020 8:30:00 PM 13.47 56.246 0.593 7.36 2.15 8.94
10/28/2020 8:45:00 PM 13.47 56.246 0.594 7.36 2 8.94
10/28/2020 9:00:00 PM 13.46 56.228 0.593 7.36 2.13 8.96
10/28/2020 9:15:00 PM 13.45 56.21 0.593 7.35 2.19 8.91
10/28/2020 9:30:00 PM 13.45 56.21 0.595 7.35 2.04 8.89
10/28/2020 9:45:00 PM 13.43 56.174 0.595 7.35 2.07 8.91
10/28/2020 10:00:00 PM 13.42 56.156 0.595 7.35 2.13 8.91
10/28/2020 10:15:00 PM 13.41 56.138 0.595 7.34 2.14 8.89
10/28/2020 10:30:00 PM 13.4 56.12 0.596 7.36 2.04 8.9
10/28/2020 10:45:00 PM 13.39 56.102 0.596 7.34 2.15 8.89
10/28/2020 11:00:00 PM 13.38 56.084 0.597 7.34 2.2 8.88
10/28/2020 11:15:00 PM 13.37 56.066 0.597 7.33 2.17 8.87
10/28/2020 11:30:00 PM 13.36 56.048 0.597 7.33 2.19 8.84
10/28/2020 11:45:00 PM 13.35 56.03 0.598 7.33 2.15 8.81
10/29/2020 12:00:00 AM 13.34 56.012 0.598 7.32 2.17 8.82
10/29/2020 12:15:00 AM 13.32 55.976 0.599 7.32 2.15 8.81
10/29/2020 12:30:00 AM 13.32 55.976 0.6 7.32 2.5 8.81
10/29/2020 12:45:00 AM 13.31 55.958 0.6 7.32 2.19 8.79
10/29/2020 1:00:00 AM 13.3 55.94 0.601 7.31 2.34 8.77
10/29/2020 1:15:00 AM 13.3 55.94 0.602 7.31 2.41 8.76
10/29/2020 1:30:00 AM 13.29 55.922 0.602 7.3 2.26 8.71
10/29/2020 1:45:00 AM 13.28 55.904 0.603 7.3 2.08 8.67
10/29/2020 2:00:00 AM 13.28 55.904 0.604 7.3 2.06 8.71
10/29/2020 2:15:00 AM 13.27 55.886 0.604 7.3 2.32 8.7
10/29/2020 2:30:00 AM 13.26 55.868 0.605 7.29 2.33 8.64
10/29/2020 2:45:00 AM 13.26 55.868 0.606 7.29 2.17 8.65
10/29/2020 3:00:00 AM 13.25 55.85 0.606 7.29 2.38 8.64
10/29/2020 3:15:00 AM 13.25 55.85 0.608 7.29 2.12 8.53
10/29/2020 3:30:00 AM 13.25 55.85 0.608 7.29 2.24 8.63
10/29/2020 3:45:00 AM 13.24 55.832 0.608 7.28 2.28 8.51
10/29/2020 4:00:00 AM 13.24 55.832 0.609 7.28 2.29 8.5
10/29/2020 4:15:00 AM 13.23 55.814 0.61 7.28 2.32 8.57
10/29/2020 4:30:00 AM 13.23 55.814 0.61 7.28 2.32 8.48
10/29/2020 4:45:00 AM 13.22 55.796 0.611 7.28 2.3 8.45
10/29/2020 5:00:00 AM 13.22 55.796 0.612 7.27 2.06 8.37
10/29/2020 5:15:00 AM 13.21 55.778 0.612 7.26 1.99 8.38
10/29/2020 5:30:00 AM 13.21 55.778 0.612 7.27 2.06 8.45
10/29/2020 5:45:00 AM 13.2 55.76 0.613 7.28 1.97 8.41
10/29/2020 6:00:00 AM 13.2 55.76 0.613 7.28 2.07 8.43
10/29/2020 6:15:00 AM 13.19 55.742 0.613 7.28 2.02 8.41
10/29/2020 6:30:00 AM 13.18 55.724 0.613 7.28 2.05 8.38
10/29/2020 6:45:00 AM 13.18 55.724 0.614 7.28 2.16 8.36
10/29/2020 7:00:00 AM 13.17 55.706 0.614 7.28 2.14 8.35
10/29/2020 7:15:00 AM 13.16 55.688 0.614 7.28 2.45 8.5
10/29/2020 7:30:00 AM 13.15 55.67 0.614 7.28 1.98 8.39
10/29/2020 7:45:00 AM 13.14 55.652 0.615 7.28 1.96 8.39
10/29/2020 8:00:00 AM 13.13 55.634 0.614 7.29 1.95 8.45
10/29/2020 8:15:00 AM 13.13 55.634 0.613 7.29 1.97 8.42
10/29/2020 8:30:00 AM 13.12 55.616 0.613 7.28 1.92 8.49
10/29/2020 8:45:00 AM 13.11 55.598 0.612 7.28 2.05 8.43
10/29/2020 9:00:00 AM 13.1 55.58 0.611 7.28 1.95 8.53
10/29/2020 9:15:00 AM 13.09 55.562 0.611 7.29 2.02 8.49
10/29/2020 9:30:00 AM 13.08 55.544 0.61 7.29 2.11 8.53
10/29/2020 9:45:00 AM 13.07 55.526 0.609 7.3 1.96 8.57
10/29/2020 10:00:00 AM 13.07 55.526 0.608 7.29 2.02 8.55
10/29/2020 10:15:00 AM 13.06 55.508 0.608 7.3 1.97 8.54
10/29/2020 10:30:00 AM 13.06 55.508 0.606 7.3 2.06 8.58
10/29/2020 10:45:00 AM 13.06 55.508 0.606 7.3 2 8.63
10/29/2020 11:00:00 AM 13.06 55.508 0.605 7.3 2.01 8.54
10/29/2020 11:15:00 AM 13.06 55.508 0.604 7.3 1.98 8.62
10/29/2020 11:30:00 AM 13.06 55.508 0.603 7.31 2.03 8.69
10/29/2020 11:45:00 AM 13.07 55.526 0.602 7.31 2.3 8.71
10/29/2020 12:00:00 PM 13.07 55.526 0.601 7.31 2.29 8.79
10/29/2020 12:15:00 PM 13.07 55.526 0.6 7.32 2.39 8.88
10/29/2020 12:30:00 PM 13.07 55.526 0.598 7.33 2.42 8.81
10/29/2020 12:45:00 PM 13.07 55.526 0.597 7.33 3.62 8.85
10/29/2020 1:00:00 PM 13.07 55.526 0.596 7.34 2.11 8.82
10/29/2020 1:15:00 PM 13.07 55.526 0.594 7.34 2.4 8.85
10/29/2020 1:30:00 PM 13.08 55.544 0.593 7.34 2.46 8.9
10/29/2020 1:45:00 PM 13.07 55.526 0.591 7.34 2.43 8.84
10/29/2020 2:00:00 PM 13.08 55.544 0.59 7.34 2.59 8.85
10/29/2020 2:15:00 PM 13.08 55.544 0.589 7.34 2.18 8.78
10/29/2020 2:30:00 PM 13.08 55.544 0.588 7.34 2.19 8.82
10/29/2020 2:45:00 PM 13.07 55.526 0.587 7.34 2.23 8.81
10/29/2020 3:00:00 PM 13.06 55.508 0.585 7.34 2.14 8.75
10/29/2020 3:15:00 PM 13.06 55.508 0.584 7.35 2.13 8.77
10/29/2020 3:30:00 PM 13.06 55.508 0.583 7.35 2.13 8.8
10/29/2020 3:45:00 PM 13.06 55.508 0.583 7.34 2.44 8.86
10/29/2020 4:00:00 PM 13.05 55.49 0.582 7.34 2.14 8.78
10/29/2020 4:15:00 PM 13.03 55.454 0.582 7.34 2.41 8.81
10/29/2020 4:30:00 PM 13.02 55.436 0.581 7.34 2.41 8.85
10/29/2020 4:45:00 PM 13 55.4 0.58 7.35 3.01 8.89
10/29/2020 5:00:00 PM 13 55.4 0.58 7.34 4.26 8.91
10/29/2020 5:15:00 PM 12.98 55.364 0.579 7.33 5.61 9.02
10/29/2020 5:30:00 PM 12.96 55.328 0.578 7.33 6.55 8.94
10/29/2020 5:45:00 PM 12.94 55.292 0.577 7.33 5.79 9.1
10/29/2020 6:00:00 PM 12.92 55.256 0.576 7.32 7.78 9.14
10/29/2020 6:15:00 PM 12.89 55.202 0.575 7.32 6.09 9.15
10/29/2020 6:30:00 PM 12.86 55.148 0.574 7.32 4.5 9.11
10/29/2020 6:45:00 PM 12.83 55.094 0.574 7.31 4.1 9.02
10/29/2020 7:00:00 PM 12.79 55.022 0.574 7.31 3.52 9.09
10/29/2020 7:15:00 PM 12.77 54.986 0.574 7.3 3.36 9.02
10/29/2020 7:30:00 PM 12.74 54.932 0.575 7.29 3.16 9.02
10/29/2020 7:45:00 PM 12.7 54.86 0.575 7.3 3.48 9.23
10/29/2020 8:00:00 PM 12.67 54.806 0.576 7.3 3.43 9.17
10/29/2020 8:15:00 PM 12.65 54.77 0.576 7.29 3.09 8.97
10/29/2020 8:30:00 PM 12.62 54.716 0.576 7.29 2.94 8.91
10/29/2020 8:45:00 PM 12.58 54.644 0.575 7.29 3.04 8.85
10/29/2020 9:00:00 PM 12.55 54.59 0.573 7.29 3.31 9.12
10/29/2020 9:15:00 PM 12.53 54.554 0.569 7.29 3.64 8.88
10/29/2020 9:30:00 PM 12.51 54.518 0.565 7.3 3.87 9.07
10/29/2020 9:45:00 PM 12.49 54.482 0.559 7.3 4.79 9.03
10/29/2020 10:00:00 PM 12.47 54.446 0.554 7.3 4.39 9.01
10/29/2020 10:15:00 PM 12.45 54.41 0.547 7.3 4.67 9.09
10/29/2020 10:30:00 PM 12.43 54.374 0.542 7.3 4.32 9.08
10/29/2020 10:45:00 PM 12.41 54.338 0.539 7.3 4.5 9.15
10/29/2020 11:00:00 PM 12.39 54.302 0.536 7.31 4.19 9.24
10/29/2020 11:15:00 PM 12.36 54.248 0.533 7.31 8.5 9.41
10/29/2020 11:30:00 PM 12.35 54.23 0.533 7.3 6.26 9.4
10/29/2020 11:45:00 PM 12.33 54.194 0.532 7.3 5.93 9.46
10/30/2020 12:00:00 AM 12.31 54.158 0.53 7.3 4.9 9.39
10/30/2020 12:15:00 AM 12.29 54.122 0.529 7.3 9.3 9.36
10/30/2020 12:30:00 AM 12.27 54.086 0.528 7.3 5.1 9.39
10/30/2020 12:45:00 AM 12.24 54.032 0.528 7.3 6.18 9.43
10/30/2020 1:00:00 AM 12.22 53.996 0.528 7.29 5.45 9.56
10/30/2020 1:15:00 AM 12.21 53.978 0.529 7.29 9.7 9.42
10/30/2020 1:30:00 AM 12.18 53.924 0.531 7.29 5784.83 9.5
10/30/2020 1:45:00 AM 12.15 53.87 0.53 7.29 5.73 9.53
10/30/2020 2:00:00 AM 12.13 53.834 0.531 7.29 6.78 9.56
10/30/2020 2:15:00 AM 12.11 53.798 0.531 7.29 6.71 9.57
10/30/2020 2:30:00 AM 12.09 53.762 0.531 7.29 6.54 9.59
10/30/2020 2:45:00 AM 12.08 53.744 0.532 7.3 5 9.59
10/30/2020 3:00:00 AM 12.06 53.708 0.532 7.29 4.89 9.59
10/30/2020 3:15:00 AM 12.05 53.69 0.533 7.29 6.05 9.6
10/30/2020 3:30:00 AM 12.03 53.654 0.532 7.29 6.03 9.61
10/30/2020 3:45:00 AM 12.02 53.636 0.532 7.29 5.76 9.61
10/30/2020 4:00:00 AM 12 53.6 0.532 7.29 5.31 9.63
10/30/2020 4:15:00 AM 11.99 53.582 0.532 7.29 7.04 9.61
10/30/2020 4:30:00 AM 11.97 53.546 0.531 7.29 5.17 9.6
10/30/2020 4:45:00 AM 11.95 53.51 0.53 7.29 5.23 9.54
10/30/2020 5:00:00 AM 11.94 53.492 0.53 7.29 5.4 9.47
10/30/2020 5:15:00 AM 11.94 53.492 0.529 7.29 4.96 9.48
10/30/2020 5:30:00 AM 11.92 53.456 0.529 7.29 5.39 9.64
10/30/2020 5:45:00 AM 11.91 53.438 0.529 7.28 5.76 9.61
10/30/2020 6:00:00 AM 11.9 53.42 0.528 7.28 5.46 9.64
10/30/2020 6:15:00 AM 11.88 53.384 0.527 7.28 6.13 9.68
10/30/2020 6:30:00 AM 11.87 53.366 0.527 7.28 5.85 9.71
10/30/2020 6:45:00 AM 11.85 53.33 0.526 7.28 5.6 9.71
10/30/2020 7:00:00 AM 11.84 53.312 0.526 7.28 5.92 9.72
10/30/2020 7:15:00 AM 11.83 53.294 0.525 7.27 16.52 9.72
10/30/2020 7:30:00 AM 11.82 53.276 0.524 7.27 11.28 9.74
10/30/2020 7:45:00 AM 11.8 53.24 0.523 7.28 16.14 9.72
10/30/2020 8:00:00 AM 11.79 53.222 0.521 7.27 8.01 9.73
10/30/2020 8:15:00 AM 11.77 53.186 0.519 7.27 12.56 9.74
10/30/2020 8:30:00 AM 11.75 53.15 0.516 7.27 9.35 9.76
10/30/2020 8:45:00 AM 11.74 53.132 0.513 7.27 11.35 9.76
10/30/2020 9:00:00 AM 11.73 53.114 0.509 7.27 202 9.76
10/30/2020 9:15:00 AM 11.71 53.078 0.506 7.27 17.5 9.81
10/30/2020 9:30:00 AM 11.7 53.06 0.501 7.27 11.21 9.83
10/30/2020 9:45:00 AM 11.69 53.042 0.496 7.26 12.13 9.82
10/30/2020 10:00:00 AM 11.68 53.024 0.489 7.26 5.5 9.86
10/30/2020 10:15:00 AM 11.67 53.006 0.485 7.26 5.82 9.89
10/30/2020 10:30:00 AM 11.67 53.006 0.479 7.26 5.64 9.9
10/30/2020 10:45:00 AM 11.67 53.006 0.473 7.26 5.63 9.92
10/30/2020 11:00:00 AM 11.66 52.988 0.467 7.26 5.81 9.94
10/30/2020 11:15:00 AM 11.65 52.97 0.462 7.26 5.93 9.93
10/30/2020 11:30:00 AM 11.64 52.952 0.456 7.26 5.82 9.97
10/30/2020 11:45:00 AM 11.63 52.934 0.452 7.26 5.77 9.97
10/30/2020 12:00:00 PM 11.64 52.952 0.447 7.26 5.81 10.01
10/30/2020 12:15:00 PM 11.64 52.952 0.443 7.26 5.96 10
10/30/2020 12:30:00 PM 11.65 52.97 0.439 7.26 7.15 10.04
10/30/2020 12:45:00 PM 11.66 52.988 0.435 7.26 5.98 10.06
10/30/2020 1:00:00 PM 11.66 52.988 0.427 7.27 5.94 10.07
10/30/2020 1:15:00 PM 11.65 52.97 0.426 7.27 5.77 10.07
10/30/2020 1:30:00 PM 11.62 52.916 0.429 7.26 5.84 10.06
10/30/2020 1:45:00 PM 11.61 52.898 0.427 7.26 5.93 10.09
10/30/2020 2:00:00 PM 11.62 52.916 0.426 7.27 6.48 10.11
10/30/2020 2:15:00 PM 11.6 52.88 0.425 7.27 5.41 10.12
10/30/2020 2:30:00 PM 11.58 52.844 0.424 7.27 5.6 10.13
10/30/2020 2:45:00 PM 11.58 52.844 0.424 7.27 5.19 10.16
10/30/2020 3:00:00 PM 11.56 52.808 0.424 7.27 5.46 10.16
10/30/2020 3:15:00 PM 11.54 52.772 0.424 7.27 5.41 10.17
10/30/2020 3:30:00 PM 11.52 52.736 0.424 7.27 5.23 10.19
10/30/2020 3:45:00 PM 11.51 52.718 0.424 7.27 5.14 10.21
10/30/2020 4:00:00 PM 11.51 52.718 0.424 7.28 5.19 10.23
10/30/2020 4:15:00 PM 11.49 52.682 0.423 7.27 5.48 10.22
10/30/2020 4:30:00 PM 11.47 52.646 0.423 7.28 5.39 10.22
10/30/2020 4:45:00 PM 11.47 52.646 0.423 7.28 5.34 10.23
10/30/2020 5:00:00 PM 11.45 52.61 0.423 7.28 5.21 10.25
10/30/2020 5:15:00 PM 11.44 52.592 0.422 7.28 5.54 10.25
10/30/2020 5:30:00 PM 11.42 52.556 0.421 7.28 5.51 10.23
10/30/2020 5:45:00 PM 11.41 52.538 0.421 7.28 6.09 10.27
10/30/2020 6:00:00 PM 11.41 52.538 0.42 7.28 6.89 10.28
10/30/2020 6:15:00 PM 11.4 52.52 0.42 7.28 5.71 10.3
10/30/2020 6:30:00 PM 11.4 52.52 0.419 7.28 5.53 10.31
10/30/2020 6:45:00 PM 11.39 52.502 0.419 7.28 5.68 10.31
10/30/2020 7:00:00 PM 11.38 52.484 0.418 7.28 5.72 10.33
10/30/2020 7:15:00 PM 11.37 52.466 0.417 7.29 10.2 10.33
10/30/2020 7:30:00 PM 11.35 52.43 0.417 7.29 6.07 10.34
10/30/2020 7:45:00 PM 11.35 52.43 0.416 7.28 5.64 10.33
10/30/2020 8:00:00 PM 11.34 52.412 0.416 7.28 5.9 10.34
10/30/2020 8:15:00 PM 11.33 52.394 0.416 7.29 6.03 10.36
10/30/2020 8:30:00 PM 11.31 52.358 0.415 7.28 5.84 10.37
10/30/2020 8:45:00 PM 11.29 52.322 0.415 7.28 6.54 10.37
10/30/2020 9:00:00 PM 11.28 52.304 0.415 7.28 5.18 10.37
10/30/2020 9:15:00 PM 11.27 52.286 0.415 7.28 5.44 10.32
10/30/2020 9:30:00 PM 11.26 52.268 0.414 7.28 5.36 10.38
10/30/2020 9:45:00 PM 11.25 52.25 0.414 7.28 5.65 10.37
10/30/2020 10:00:00 PM 11.23 52.214 0.413 7.28 10.77 10.39
10/30/2020 10:15:00 PM 11.21 52.178 0.413 7.28 5.67 10.38
10/30/2020 10:30:00 PM 11.2 52.16 0.413 7.27 5.41 10.38
10/30/2020 10:45:00 PM 11.18 52.124 0.412 7.27 5.55 10.4
10/30/2020 11:00:00 PM 11.17 52.106 0.412 7.27 6.31 10.37
10/30/2020 11:15:00 PM 11.14 52.052 0.411 7.27 5.59 10.4
10/30/2020 11:30:00 PM 11.11 51.998 0.411 7.27 8.85 10.4
10/30/2020 11:45:00 PM 11.08 51.944 0.411 7.26 6.45 10.39
10/31/2020 12:00:00 AM 11.06 51.908 0.411 7.26 7.13 10.41
10/31/2020 12:15:00 AM 11.05 51.89 0.411 7.26 5.75 10.41
10/31/2020 12:30:00 AM 11.03 51.854 0.411 7.25 5.98 10.41
10/31/2020 12:45:00 AM 11.01 51.818 0.411 7.25 6.13 10.39
10/31/2020 1:00:00 AM 10.98 51.764 0.412 7.25 6.07 10.4
10/31/2020 1:15:00 AM 10.96 51.728 0.412 7.25 6.31 10.39
10/31/2020 1:30:00 AM 10.93 51.674 0.413 7.24 6.36 10.39
10/31/2020 1:45:00 AM 10.91 51.638 0.413 7.24 6.36 10.36
10/31/2020 2:00:00 AM 10.88 51.584 0.413 7.23 6.3 10.38
10/31/2020 2:15:00 AM 10.86 51.548 0.414 7.23 6.67 10.37
10/31/2020 2:30:00 AM 10.84 51.512 0.414 7.23 6.5 10.34
10/31/2020 2:45:00 AM 10.81 51.458 0.414 7.22 6.65 10.36
10/31/2020 3:00:00 AM 10.79 51.422 0.414 7.22 7.34 10.35
10/31/2020 3:15:00 AM 10.77 51.386 0.414 7.22 6.72 10.33
10/31/2020 3:30:00 AM 10.74 51.332 0.414 7.21 6.59 10.35
10/31/2020 3:45:00 AM 10.72 51.296 0.414 7.21 6.85 10.34
10/31/2020 4:00:00 AM 10.69 51.242 0.414 7.21 7.12 10.34
10/31/2020 4:15:00 AM 10.67 51.206 0.413 7.2 6.91 10.31
10/31/2020 4:30:00 AM 10.63 51.134 0.414 7.2 6.63 10.31
10/31/2020 4:45:00 AM 10.6 51.08 0.413 7.2 6.94 10.32
10/31/2020 5:00:00 AM 10.57 51.026 0.413 7.19 7.16 10.29
10/31/2020 5:15:00 AM 10.53 50.954 0.413 7.19 6.86 10.3
10/31/2020 5:30:00 AM 10.5 50.9 0.414 7.18 7.14 10.33
10/31/2020 5:45:00 AM 10.47 50.846 0.414 7.18 7.7 10.34
10/31/2020 6:00:00 AM 10.44 50.792 0.414 7.18 7.85 10.34
10/31/2020 6:15:00 AM 10.4 50.72 0.415 7.18 7.29 10.33
10/31/2020 6:30:00 AM 10.37 50.666 0.416 7.17 7.75 10.33
10/31/2020 6:45:00 AM 10.33 50.594 0.416 7.17 7.21 10.34
10/31/2020 7:00:00 AM 10.3 50.54 0.417 7.17 7.15 10.34
10/31/2020 7:15:00 AM 10.26 50.468 0.418 7.17 7.72 10.36
10/31/2020 7:30:00 AM 10.22 50.396 0.419 7.16 8.97 10.36
10/31/2020 7:45:00 AM 10.2 50.36 0.42 7.16 7.91 10.37
10/31/2020 8:00:00 AM 10.18 50.324 0.421 7.16 7.77 10.38
10/31/2020 8:15:00 AM 10.16 50.288 0.422 7.16 8.1 10.39
10/31/2020 8:30:00 AM 10.15 50.27 0.423 7.16 7.89 10.41
10/31/2020 8:45:00 AM 10.13 50.234 0.424 7.16 8.1 10.42
10/31/2020 9:00:00 AM 10.12 50.216 0.426 7.16 7.75 10.42
10/31/2020 9:15:00 AM 10.11 50.198 0.426 7.16 7.84 10.44
10/31/2020 9:30:00 AM 10.09 50.162 0.427 7.17 7.66 10.45
10/31/2020 9:45:00 AM 10.08 50.144 0.428 7.17 8.73 10.46
10/31/2020 10:00:00 AM 10.08 50.144 0.429 7.17 9.22 10.47
10/31/2020 10:15:00 AM 10.08 50.144 0.43 7.17 7.14 10.48
10/31/2020 10:30:00 AM 10.08 50.144 0.43 7.17 7.68 10.4
10/31/2020 10:45:00 AM 10.1 50.18 0.431 7.18 7.63 10.51
10/31/2020 11:00:00 AM 10.12 50.216 0.432 7.18 7.15 10.53
10/31/2020 11:15:00 AM 10.15 50.27 0.432 7.18 9.98 10.52
10/31/2020 11:30:00 AM 10.16 50.288 0.433 7.19 7.54 10.54
10/31/2020 11:45:00 AM 10.17 50.306 0.433 7.19 7.61 10.55
10/31/2020 12:00:00 PM 10.16 50.288 0.434 7.19 7.55 10.54
10/31/2020 12:15:00 PM 10.15 50.27 0.435 7.19 7.64 10.52
10/31/2020 12:30:00 PM 10.14 50.252 0.435 7.2 8.04 10.53
10/31/2020 12:45:00 PM 10.14 50.252 0.436 7.2 7.62 10.54
10/31/2020 1:00:00 PM 10.13 50.234 0.436 7.2 7.69 10.53
10/31/2020 1:15:00 PM 10.13 50.234 0.437 7.2 7.31 10.55
10/31/2020 1:30:00 PM 10.13 50.234 0.437 7.21 7.89 10.57
10/31/2020 1:45:00 PM 10.14 50.252 0.438 7.21 7.41 10.57
10/31/2020 2:00:00 PM 10.14 50.252 0.439 7.21 8.29 10.59
10/31/2020 2:15:00 PM 10.15 50.27 0.439 7.22 7.23 10.6
10/31/2020 2:30:00 PM 10.16 50.288 0.44 7.22 10.61 10.63
10/31/2020 2:45:00 PM 10.16 50.288 0.44 7.22 10.17 10.64
10/31/2020 3:00:00 PM 10.16 50.288 0.441 7.22 8.62 10.65
10/31/2020 3:15:00 PM 10.15 50.27 0.442 7.23 10.64 10.63
10/31/2020 3:30:00 PM 10.13 50.234 0.442 7.23 7.79 10.6
10/31/2020 3:45:00 PM 10.11 50.198 0.443 7.22 8.74 10.62
10/31/2020 4:00:00 PM 10.09 50.162 0.444 7.22 8.77 10.63
10/31/2020 4:15:00 PM 10.08 50.144 0.444 7.22 10.84 10.65
10/31/2020 4:30:00 PM 10.06 50.108 0.445 7.22 11.66 10.62
10/31/2020 4:45:00 PM 10.05 50.09 0.446 7.22 8.2 10.62
10/31/2020 5:00:00 PM 10.03 50.054 0.446 7.23 7.13 10.62
10/31/2020 5:15:00 PM 10.01 50.018 0.447 7.22 7.19 10.63
10/31/2020 5:30:00 PM 10 50 0.447 7.22 7.26 10.63
10/31/2020 5:45:00 PM 9.98 49.964 0.448 7.22 7.97 10.61
10/31/2020 6:00:00 PM 9.97 49.946 0.448 7.22 7.16 10.63
10/31/2020 6:15:00 PM 9.96 49.928 0.448 7.22 7.39 10.6
10/31/2020 6:30:00 PM 9.95 49.91 0.448 7.22 7.85 10.62
10/31/2020 6:45:00 PM 9.94 49.892 0.449 7.22 7.27 10.63
10/31/2020 7:00:00 PM 9.92 49.856 0.449 7.22 7.29 10.64
10/31/2020 7:15:00 PM 9.91 49.838 0.449 7.22 7.21 10.63
10/31/2020 7:30:00 PM 9.9 49.82 0.45 7.22 7.26 10.64
10/31/2020 7:45:00 PM 9.89 49.802 0.45 7.22 7.24 10.64
10/31/2020 8:00:00 PM 9.89 49.802 0.449 7.22 6.84 10.66
10/31/2020 8:15:00 PM 9.88 49.784 0.449 7.22 7.51 10.63
10/31/2020 8:30:00 PM 9.88 49.784 0.449 7.22 7.11 10.66
10/31/2020 8:45:00 PM 9.87 49.766 0.448 7.22 7.45 10.65
10/31/2020 9:00:00 PM 9.86 49.748 0.448 7.22 7.16 10.67
10/31/2020 9:15:00 PM 9.86 49.748 0.448 7.22 6.85 10.67
10/31/2020 9:30:00 PM 9.85 49.73 0.448 7.22 7.07 10.67
10/31/2020 9:45:00 PM 9.85 49.73 0.448 7.22 6.96 10.67
10/31/2020 10:00:00 PM 9.85 49.73 0.448 7.22 7 10.68
10/31/2020 10:15:00 PM 9.84 49.712 0.447 7.22 6.76 10.68
10/31/2020 10:30:00 PM 9.83 49.694 0.447 7.22 6.74 10.68
10/31/2020 10:45:00 PM 9.82 49.676 0.447 7.22 7.44 10.66
10/31/2020 11:00:00 PM 9.82 49.676 0.447 7.22 6.72 10.67
10/31/2020 11:15:00 PM 9.82 49.676 0.447 7.22 6.75 10.7
10/31/2020 11:30:00 PM 9.82 49.676 0.446 7.22 7.2 10.68
10/31/2020 11:45:00 PM 9.82 49.676 0.446 7.22 7.29 10.71
11/1/2020 12:00:00 AM 9.82 49.676 0.446 7.22 6.69 10.7
11/1/2020 12:15:00 AM 9.82 49.676 0.446 7.23 6.78 10.68
11/1/2020 12:30:00 AM 9.82 49.676 0.446 7.23 6.71 10.66
11/1/2020 12:45:00 AM 9.83 49.694 0.446 7.23 6.47 10.71
11/1/2020 1:00:00 AM 9.83 49.694 0.446 7.23 6.38 10.72
11/1/2020 1:15:00 AM 9.83 49.694 0.446 7.23 6.7 10.69
11/1/2020 1:30:00 AM 9.82 49.676 0.446 7.23 6.64 10.72
11/1/2020 1:45:00 AM 9.82 49.676 0.446 7.23 6.5 10.73
11/1/2020 2:00:00 AM 9.81 49.658 0.446 7.23 6.28 10.72
11/1/2020 2:15:00 AM 9.81 49.658 0.446 7.24 6.22 10.72
11/1/2020 2:30:00 AM 9.81 49.658 0.446 7.24 6.32 10.72
11/1/2020 2:45:00 AM 9.8 49.64 0.446 7.24 6.27 10.71
11/1/2020 3:00:00 AM 9.8 49.64 0.446 7.24 6.27 10.71
11/1/2020 3:15:00 AM 9.79 49.622 0.446 7.23 13.64 10.67
11/1/2020 3:30:00 AM 9.79 49.622 0.446 7.24 6.74 10.65
11/1/2020 3:45:00 AM 9.79 49.622 0.446 7.24 6.26 10.66
11/1/2020 4:00:00 AM 9.78 49.604 0.446 7.23 6.45 10.61
11/1/2020 4:15:00 AM 9.77 49.586 0.446 7.23 6.37 10.6
11/1/2020 4:30:00 AM 9.77 49.586 0.446 7.23 8.28 10.59
11/1/2020 4:45:00 AM 9.76 49.568 0.446 7.23 6.78 10.6
11/1/2020 5:00:00 AM 9.75 49.55 0.447 7.22 6.44 10.56
11/1/2020 5:15:00 AM 9.74 49.532 0.447 7.22 6.44 10.58
11/1/2020 5:30:00 AM 9.73 49.514 0.446 7.22 6.33 10.58
11/1/2020 5:45:00 AM 9.72 49.496 0.447 7.22 6.39 10.52
11/1/2020 6:00:00 AM 9.71 49.478 0.447 7.21 6.52 10.54
11/1/2020 6:15:00 AM 9.7 49.46 0.447 7.21 6.27 10.54
11/1/2020 6:30:00 AM 9.69 49.442 0.447 7.21 6.26 10.53
11/1/2020 6:45:00 AM 9.68 49.424 0.447 7.21 6.48 10.49
11/1/2020 7:00:00 AM 9.66 49.388 0.448 7.21 6.71 10.52
11/1/2020 7:15:00 AM 9.65 49.37 0.448 7.2 7.23 10.53
11/1/2020 7:30:00 AM 9.64 49.352 0.449 7.2 6.77 10.51
11/1/2020 7:45:00 AM 9.64 49.352 0.449 7.2 7.11 10.49
11/1/2020 8:00:00 AM 9.64 49.352 0.449 7.2 6.85 10.46
11/1/2020 8:15:00 AM 9.65 49.37 0.449 7.2 6.82 10.52
11/1/2020 8:30:00 AM 9.66 49.388 0.45 7.2 6.79 10.56
11/1/2020 8:45:00 AM 9.68 49.424 0.45 7.2 7.29 10.57
11/1/2020 9:00:00 AM 9.69 49.442 0.45 7.2 6.72 10.57
11/1/2020 9:15:00 AM 9.7 49.46 0.451 7.2 8.11 10.56
11/1/2020 9:30:00 AM 9.72 49.496 0.451 7.2 6.88 10.51
11/1/2020 9:45:00 AM 9.74 49.532 0.451 7.2 6.62 10.46
11/1/2020 10:00:00 AM 9.73 49.514 0.451 7.2 6.86 10.49
11/1/2020 10:15:00 AM 9.72 49.496 0.452 7.2 8.04 10.44
11/1/2020 10:30:00 AM 9.69 49.442 0.452 7.19 6.71 10.39
11/1/2020 10:45:00 AM 9.68 49.424 0.452 7.19 6.61 10.4
11/1/2020 11:00:00 AM 9.66 49.388 0.452 7.19 7.16 10.39
11/1/2020 11:15:00 AM 9.66 49.388 0.452 7.19 6.83 10.37
11/1/2020 11:30:00 AM 9.65 49.37 0.452 7.19 6.69 10.4
11/1/2020 11:45:00 AM 9.65 49.37 0.452 7.19 6.66 10.39
11/1/2020 12:00:00 PM 9.65 49.37 0.452 7.19 6.56 10.41
11/1/2020 12:15:00 PM 9.66 49.388 0.452 7.19 6.8 10.42
11/1/2020 12:30:00 PM 9.66 49.388 0.452 7.19 6.73 10.4
11/1/2020 12:45:00 PM 9.67 49.406 0.452 7.2 6.73 10.43
11/1/2020 1:00:00 PM 9.67 49.406 0.452 7.2 6.68 10.4
11/1/2020 1:15:00 PM 9.67 49.406 0.453 7.19 6.68 10.42
11/1/2020 1:30:00 PM 9.69 49.442 0.453 7.19 6.83 10.45
11/1/2020 1:45:00 PM 9.7 49.46 0.453 7.2 6.63 10.47
11/1/2020 2:00:00 PM 9.71 49.478 0.454 7.2 6.57 10.44
11/1/2020 2:15:00 PM 9.71 49.478 0.454 7.2 6.85 10.38
11/1/2020 2:30:00 PM 9.72 49.496 0.454 7.2 6.62 10.4
11/1/2020 2:45:00 PM 9.73 49.514 0.454 7.2 6.6 10.42
11/1/2020 3:00:00 PM 9.73 49.514 0.455 7.2 6.61 10.39
11/1/2020 3:15:00 PM 9.74 49.532 0.455 7.2 6.48 10.41
11/1/2020 3:30:00 PM 9.75 49.55 0.455 7.2 6.41 10.4
11/1/2020 3:45:00 PM 9.74 49.532 0.455 7.19 6.66 10.35
11/1/2020 4:00:00 PM 9.74 49.532 0.455 7.19 6.52 10.34
11/1/2020 4:15:00 PM 9.73 49.514 0.456 7.19 6.62 10.33
11/1/2020 4:30:00 PM 9.72 49.496 0.456 7.19 6.54 10.31
11/1/2020 4:45:00 PM 9.72 49.496 0.456 7.18 6.33 10.32
11/1/2020 5:00:00 PM 9.72 49.496 0.456 7.18 6.46 10.3
11/1/2020 5:15:00 PM 9.72 49.496 0.457 7.18 6.35 10.29
11/1/2020 5:30:00 PM 9.72 49.496 0.457 7.18 6.22 10.28
11/1/2020 5:45:00 PM 9.71 49.478 0.457 7.18 6.22 10.26
11/1/2020 6:00:00 PM 9.7 49.46 0.458 7.18 6.52 10.28
11/1/2020 6:15:00 PM 9.68 49.424 0.458 7.18 6.54 10.27
11/1/2020 6:30:00 PM 9.67 49.406 0.458 7.18 6.67 10.29
11/1/2020 6:45:00 PM 9.66 49.388 0.458 7.18 6.36 10.29
11/1/2020 7:00:00 PM 9.65 49.37 0.459 7.19 6.6 10.23
11/1/2020 7:15:00 PM 9.64 49.352 0.459 7.19 6.32 10.29
11/1/2020 7:30:00 PM 9.63 49.334 0.46 7.2 6.5 10.29
11/1/2020 7:45:00 PM 9.61 49.298 0.46 7.2 6.47 10.27
11/1/2020 8:00:00 PM 9.6 49.28 0.46 7.19 6.36 10.3
11/1/2020 8:15:00 PM 9.58 49.244 0.461 7.2 6.17 10.19
11/1/2020 8:30:00 PM 9.57 49.226 0.461 7.19 6.47 10.31
11/1/2020 8:45:00 PM 9.54 49.172 0.462 7.19 6.7 10.25
11/1/2020 9:00:00 PM 9.52 49.136 0.462 7.2 6.7 10.3
11/1/2020 9:15:00 PM 9.51 49.118 0.462 7.19 6.61 10.32
11/1/2020 9:30:00 PM 9.49 49.082 0.463 7.2 6.46 10.32
11/1/2020 9:45:00 PM 9.47 49.046 0.463 7.2 6.54 10.36
11/1/2020 10:00:00 PM 9.46 49.028 0.464 7.2 6.48 10.37
11/1/2020 10:15:00 PM 9.45 49.01 0.464 7.2 6.64 10.39
11/1/2020 10:30:00 PM 9.44 48.992 0.464 7.2 6.54 10.42
11/1/2020 10:45:00 PM 9.43 48.974 0.465 7.2 6.51 10.42
11/1/2020 11:00:00 PM 9.42 48.956 0.465 7.2 6.49 10.38
11/1/2020 11:15:00 PM 9.42 48.956 0.466 7.2 6.54 10.42
11/1/2020 11:30:00 PM 9.43 48.974 0.466 7.21 6.59 10.42
11/1/2020 11:45:00 PM 9.41 48.938 0.466 7.21 6.43 10.43
11/2/2020 12:00:00 AM 9.4 48.92 0.467 7.21 6.3 10.43
11/2/2020 12:15:00 AM 9.4 48.92 0.468 7.21 6.89 10.37
11/2/2020 12:30:00 AM 9.42 48.956 0.468 7.22 6.21 10.47
11/2/2020 12:45:00 AM 9.43 48.974 0.468 7.22 6.24 10.46
11/2/2020 1:00:00 AM 9.43 48.974 0.469 7.22 6.3 10.45
11/2/2020 1:15:00 AM 9.43 48.974 0.47 7.22 6.4 10.46
11/2/2020 1:30:00 AM 9.43 48.974 0.47 7.22 6.22 10.46
11/2/2020 1:45:00 AM 9.42 48.956 0.471 7.23 6.45 10.46
11/2/2020 2:00:00 AM 9.42 48.956 0.471 7.23 6.43 10.42
11/2/2020 2:15:00 AM 9.42 48.956 0.472 7.23 6.52 10.45
11/2/2020 2:30:00 AM 9.43 48.974 0.473 7.24 6.56 10.44
11/2/2020 2:45:00 AM 9.45 49.01 0.473 7.24 6.4 10.43
11/2/2020 3:00:00 AM 9.45 49.01 0.474 7.24 6.43 10.4
11/2/2020 3:15:00 AM 9.44 48.992 0.474 7.24 6.49 10.43
11/2/2020 3:30:00 AM 9.44 48.992 0.474 7.24 6.65 10.42
11/2/2020 3:45:00 AM 9.44 48.992 0.475 7.24 6.48 10.43
11/2/2020 4:00:00 AM 9.43 48.974 0.475 7.24 6.59 10.42
11/2/2020 4:15:00 AM 9.41 48.938 0.475 7.24 6.69 10.41
11/2/2020 4:30:00 AM 9.4 48.92 0.475 7.24 6.71 10.4
11/2/2020 4:45:00 AM 9.37 48.866 0.475 7.24 6.83 10.42
11/2/2020 5:00:00 AM 9.34 48.812 0.475 7.24 6.65 10.42
11/2/2020 5:15:00 AM 9.31 48.758 0.475 7.24 6.98 10.43
11/2/2020 5:30:00 AM 9.27 48.686 0.474 7.23 7.03 10.4
11/2/2020 5:45:00 AM 9.22 48.596 0.475 7.23 6.96 10.42
11/2/2020 6:00:00 AM 9.16 48.488 0.475 7.23 6.7 10.42
11/2/2020 6:15:00 AM 9.11 48.398 0.475 7.23 6.73 10.43
11/2/2020 6:30:00 AM 9.05 48.29 0.475 7.22 6.82 10.44
11/2/2020 6:45:00 AM 9 48.2 0.476 7.22 6.72 10.47
11/2/2020 7:00:00 AM 8.94 48.092 0.476 7.22 7.06 10.48
11/2/2020 7:15:00 AM 8.89 48.002 0.476 7.22 7.76 10.53
11/2/2020 7:30:00 AM 8.84 47.912 0.477 7.22 7.62 10.55
11/2/2020 7:45:00 AM 8.8 47.84 0.478 7.22 6.95 10.54
11/2/2020 8:00:00 AM 8.74 47.732 0.478 7.22 6.91 10.59
11/2/2020 8:15:00 AM 8.69 47.642 0.479 7.22 6.66 10.59
11/2/2020 8:30:00 AM 8.62 47.516 0.48 7.22 6.84 10.65
11/2/2020 8:45:00 AM 8.6 47.48 0.481 7.22 6.91 10.71
11/2/2020 9:00:00 AM 8.56 47.408 0.482 7.22 6.63 10.72
11/2/2020 9:15:00 AM 8.53 47.354 0.483 7.22 6.77 10.76
11/2/2020 9:30:00 AM 8.5 47.3 0.484 7.23 6.64 10.8
11/2/2020 9:45:00 AM 8.49 47.282 0.484 7.23 6.84 10.84
11/2/2020 10:00:00 AM 8.46 47.228 0.484 7.24 6.83 10.87
11/2/2020 10:15:00 AM 8.44 47.192 0.485 7.24 6.84 10.9
11/2/2020 10:30:00 AM 8.41 47.138 0.486 7.25 6.88 10.92
11/2/2020 10:45:00 AM 8.4 47.12 0.486 7.25 6.85 10.95
11/2/2020 11:00:00 AM 8.38 47.084 0.486 7.25 6.89 10.96
11/2/2020 11:15:00 AM 8.35 47.03 0.486 7.25 6.73 10.98
11/2/2020 11:30:00 AM 8.33 46.994 0.486 7.26 6.58 11.01
11/2/2020 11:45:00 AM 8.29 46.922 0.486 7.26 6.73 11.01
11/2/2020 12:00:00 PM 8.27 46.886 0.485 7.27 6.72 11.04
11/2/2020 12:15:00 PM 8.24 46.832 0.485 7.27 6.7 11.06
11/2/2020 12:30:00 PM 8.21 46.778 0.485 7.27 6.79 11.09
11/2/2020 12:45:00 PM 8.18 46.724 0.484 7.28 6.88 11.12
11/2/2020 1:00:00 PM 8.17 46.706 0.484 7.28 6.92 11.15
11/2/2020 1:15:00 PM 8.14 46.652 0.484 7.28 7.02 11.16
11/2/2020 1:30:00 PM 8.14 46.652 0.483 7.29 6.79 11.18
11/2/2020 1:45:00 PM 8.11 46.598 0.483 7.29 6.95 11.19
11/2/2020 2:00:00 PM 8.06 46.508 0.483 7.29 6.91 11.2
11/2/2020 2:15:00 PM 8.03 46.454 0.483 7.3 7.04 11.22
11/2/2020 2:30:00 PM 8.03 46.454 0.483 7.3 6.97 11.26
11/2/2020 2:45:00 PM 8.03 46.454 0.483 7.3 6.89 11.26
11/2/2020 3:00:00 PM 8.03 46.454 0.484 7.31 6.88 11.27
11/2/2020 3:15:00 PM 8.03 46.454 0.484 7.31 6.88 11.28
11/2/2020 3:30:00 PM 8.03 46.454 0.485 7.32 6.88 11.27
11/2/2020 3:45:00 PM 8.03 46.454 0.486 7.32 6.9 11.28
11/2/2020 4:00:00 PM 8.04 46.472 0.486 7.32 6.99 11.29
11/2/2020 4:15:00 PM 8.04 46.472 0.487 7.32 6.99 11.3
11/2/2020 4:30:00 PM 8.04 46.472 0.487 7.33 7.01 11.3
11/2/2020 4:45:00 PM 8.04 46.472 0.488 7.33 7.05 11.31
11/2/2020 5:00:00 PM 8.03 46.454 0.489 7.33 6.97 11.31
11/2/2020 5:15:00 PM 8.01 46.418 0.489 7.34 7.06 11.32
11/2/2020 5:30:00 PM 7.99 46.382 0.49 7.34 6.84 11.33
11/2/2020 5:45:00 PM 7.96 46.328 0.491 7.34 7.07 11.36
11/2/2020 6:00:00 PM 7.93 46.274 0.491 7.34 6.9 11.38
11/2/2020 6:15:00 PM 7.89 46.202 0.49 7.34 6.82 11.4
11/2/2020 6:30:00 PM 7.84 46.112 0.489 7.34 6.88 11.38
11/2/2020 6:45:00 PM 7.78 46.004 0.489 7.34 7.05 11.27
11/2/2020 7:00:00 PM 7.73 45.914 0.489 7.33 7.06 11.3
11/2/2020 7:15:00 PM 7.68 45.824 0.488 7.33 7.08 11.44
11/2/2020 7:30:00 PM 7.65 45.77 0.487 7.32 7.01 11.4
11/2/2020 7:45:00 PM 7.62 45.716 0.485 7.32 7.06 11.4
11/2/2020 8:00:00 PM 7.6 45.68 0.484 7.32 7.35 11.38
11/2/2020 8:15:00 PM 7.59 45.662 0.483 7.31 6.92 11.38
11/2/2020 8:30:00 PM 7.58 45.644 0.482 7.31 6.97 11.37
11/2/2020 8:45:00 PM 7.57 45.626 0.48 7.32 6.97 11.44
11/2/2020 9:00:00 PM 7.57 45.626 0.479 7.31 6.96 11.44
11/2/2020 9:15:00 PM 7.57 45.626 0.478 7.31 6.97 11.41
11/2/2020 9:30:00 PM 7.57 45.626 0.476 7.31 6.88 11.39
11/2/2020 9:45:00 PM 7.56 45.608 0.474 7.31 7.18 11.42
11/2/2020 10:00:00 PM 7.56 45.608 0.473 7.31 7.07 11.4
11/2/2020 10:15:00 PM 7.56 45.608 0.471 7.32 6.96 11.34
11/2/2020 10:30:00 PM 7.57 45.626 0.469 7.31 7.08 11.4
11/2/2020 10:45:00 PM 7.57 45.626 0.469 7.31 7.12 11.44
11/2/2020 11:00:00 PM 7.57 45.626 0.467 7.31 7.08 11.4
11/2/2020 11:15:00 PM 7.57 45.626 0.466 7.32 7.17 11.36
11/2/2020 11:30:00 PM 7.57 45.626 0.465 7.32 7.15 11.36
11/2/2020 11:45:00 PM 7.57 45.626 0.465 7.32 7.05 11.35
11/3/2020 12:00:00 AM 7.56 45.608 0.464 7.31 7.26 11.32
11/3/2020 12:15:00 AM 7.56 45.608 0.463 7.32 7.14 11.33
11/3/2020 12:30:00 AM 7.55 45.59 0.463 7.31 7.11 11.36
11/3/2020 12:45:00 AM 7.54 45.572 0.463 7.31 7.37 11.42
11/3/2020 1:00:00 AM 7.52 45.536 0.462 7.31 8.45 11.4
11/3/2020 1:15:00 AM 7.51 45.518 0.463 7.31 7.23 11.32
11/3/2020 1:30:00 AM 7.48 45.464 0.463 7.31 7.18 11.35
11/3/2020 1:45:00 AM 7.46 45.428 0.462 7.31 7.69 11.35
11/3/2020 2:00:00 AM 7.44 45.392 0.463 7.31 7.27 11.36
11/3/2020 2:15:00 AM 7.42 45.356 0.464 7.31 7.23 11.32
11/3/2020 2:30:00 AM 7.4 45.32 0.464 7.31 7.31 11.4
11/3/2020 2:45:00 AM 7.37 45.266 0.464 7.3 7.29 11.35
11/3/2020 3:00:00 AM 7.35 45.23 0.465 7.3 7.31 11.41
11/3/2020 3:15:00 AM 7.33 45.194 0.465 7.31 8.07 11.38
11/3/2020 3:30:00 AM 7.3 45.14 0.466 7.3 8.1 11.38
11/3/2020 3:45:00 AM 7.28 45.104 0.466 7.29 8.09 11.38
11/3/2020 4:00:00 AM 7.25 45.05 0.467 7.29 8.21 11.38
11/3/2020 4:15:00 AM 7.22 44.996 0.467 7.28 7.92 11.31
11/3/2020 4:30:00 AM 7.2 44.96 0.468 7.28 7.31 11.38
11/3/2020 4:45:00 AM 7.17 44.906 0.468 7.28 7.19 11.36
11/3/2020 5:00:00 AM 7.15 44.87 0.468 7.28 7.96 11.21
11/3/2020 5:15:00 AM 7.12 44.816 0.469 7.27 7.56 11.22
11/3/2020 5:30:00 AM 7.09 44.762 0.469 7.26 7.6 11.25
11/3/2020 5:45:00 AM 7.07 44.726 0.469 7.27 8 11.22
11/3/2020 6:00:00 AM 7.05 44.69 0.47 7.26 7.33 11.17
11/3/2020 6:15:00 AM 7.03 44.654 0.47 7.27 7.18 11.24
11/3/2020 6:30:00 AM 7 44.6 0.47 7.26 7.17 11.22
11/3/2020 6:45:00 AM 6.97 44.546 0.47 7.26 7.25 11.13
11/3/2020 7:00:00 AM 6.95 44.51 0.47 7.26 7.03 11.3
11/3/2020 7:15:00 AM 6.93 44.474 0.471 7.25 7.29 11
11/3/2020 7:30:00 AM 6.92 44.456 0.47 7.26 7.11 11.22
11/3/2020 7:45:00 AM 6.91 44.438 0.469 7.26 7.21 11.3
11/3/2020 8:00:00 AM 6.9 44.42 0.469 7.26 7.29 11.31
11/3/2020 8:15:00 AM 6.91 44.438 0.469 7.26 7.4 11.4
11/3/2020 8:30:00 AM 6.93 44.474 0.469 7.26 7.36 11.4
11/3/2020 8:45:00 AM 6.94 44.492 0.469 7.26 7.35 11.41
11/3/2020 9:00:00 AM 6.94 44.492 0.468 7.26 7.29 11.42
11/3/2020 9:15:00 AM 6.97 44.546 0.468 7.27 7.4 11.35
11/3/2020 9:30:00 AM 6.97 44.546 0.468 7.27 7.12 11.38
11/3/2020 9:45:00 AM 7 44.6 0.467 7.27 7.23 11.39
11/3/2020 10:00:00 AM 7.03 44.654 0.467 7.27 7.44 11.4
11/3/2020 10:15:00 AM 7.05 44.69 0.467 7.28 7.35 11.41
11/3/2020 10:30:00 AM 7.06 44.708 0.467 7.28 7.28 11.38
11/3/2020 10:45:00 AM 7.09 44.762 0.466 7.28 7.25 11.33
11/3/2020 11:00:00 AM 7.11 44.798 0.466 7.29 7.15 11.4
11/3/2020 11:15:00 AM 7.14 44.852 0.466 7.29 7.04 11.34
11/3/2020 11:30:00 AM 7.17 44.906 0.465 7.29 7.25 11.41
11/3/2020 11:45:00 AM 7.2 44.96 0.465 7.29 7.03 11.39
11/3/2020 12:00:00 PM 7.22 44.996 0.465 7.29 7.22 11.42
11/3/2020 12:15:00 PM 7.24 45.032 0.464 7.29 7.15 11.42
11/3/2020 12:30:00 PM 7.25 45.05 0.464 7.3 7.03 11.39
11/3/2020 12:45:00 PM 7.28 45.104 0.464 7.3 7.04 11.3
11/3/2020 1:00:00 PM 7.29 45.122 0.463 7.3 7.03 11.35
11/3/2020 1:15:00 PM 7.3 45.14 0.463 7.31 7.03 11.32
11/3/2020 1:30:00 PM 7.31 45.158 0.462 7.31 7.16 11.39
11/3/2020 1:45:00 PM 7.32 45.176 0.462 7.31 7.09 11.27
11/3/2020 2:00:00 PM 7.32 45.176 0.461 7.3 7.12 11.3
11/3/2020 2:15:00 PM 7.31 45.158 0.461 7.31 7.35 11.33
11/3/2020 2:30:00 PM 7.31 45.158 0.461 7.29 6.67 11.32
11/3/2020 2:45:00 PM 7.32 45.176 0.461 7.29 6.78 11.29
11/3/2020 3:00:00 PM 7.33 45.194 0.462 7.3 6.97 11.31
11/3/2020 3:15:00 PM 7.34 45.212 0.46 7.29 6.82 11.26
11/3/2020 3:30:00 PM 7.35 45.23 0.46 7.3 6.63 11.2
11/3/2020 3:45:00 PM 7.35 45.23 0.46 7.3 6.68 11.3
11/3/2020 4:00:00 PM 7.36 45.248 0.46 7.3 10.92 11.21
11/3/2020 4:15:00 PM 7.36 45.248 0.46 7.3 6.8 11.23
11/3/2020 4:30:00 PM 7.37 45.266 0.46 7.31 6.73 11.28
11/3/2020 4:45:00 PM 7.38 45.284 0.459 7.31 6.71 11.18
11/3/2020 5:00:00 PM 7.4 45.32 0.459 7.3 6.75 11.08
11/3/2020 5:15:00 PM 7.41 45.338 0.459 7.3 6.66 11.31
11/3/2020 5:30:00 PM 7.43 45.374 0.46 7.3 6.68 11.18
11/3/2020 5:45:00 PM 7.44 45.392 0.459 7.3 7.08 11.18
11/3/2020 6:00:00 PM 7.46 45.428 0.459 7.3 6.78 11.17
11/3/2020 6:15:00 PM 7.48 45.464 0.459 7.3 6.81 11.18
11/3/2020 6:30:00 PM 7.51 45.518 0.459 7.3 6.71 11.14
11/3/2020 6:45:00 PM 7.53 45.554 0.459 7.3 7 11.18
11/3/2020 7:00:00 PM 7.54 45.572 0.459 7.3 6.96 11.2
11/3/2020 7:15:00 PM 7.55 45.59 0.459 7.3 7.18 11.23
11/3/2020 7:30:00 PM 7.55 45.59 0.459 7.3 7.01 11.27
11/3/2020 7:45:00 PM 7.54 45.572 0.459 7.3 7.14 11.32
11/3/2020 8:00:00 PM 7.53 45.554 0.459 7.3 6.95 11.12
11/3/2020 8:15:00 PM 7.51 45.518 0.459 7.3 6.93 11.26
11/3/2020 8:30:00 PM 7.49 45.482 0.459 7.29 7.07 11.26
11/3/2020 8:45:00 PM 7.45 45.41 0.459 7.29 7.12 11.3
11/3/2020 9:00:00 PM 7.42 45.356 0.46 7.29 7.22 11.25
11/3/2020 9:15:00 PM 7.39 45.302 0.46 7.28 7.2 11.14
11/3/2020 9:30:00 PM 7.35 45.23 0.46 7.28 7.82 11.12
11/3/2020 9:45:00 PM 7.32 45.176 0.46 7.28 7.42 11.04
11/3/2020 10:00:00 PM 7.29 45.122 0.461 7.27 6.92 11.09
11/3/2020 10:15:00 PM 7.27 45.086 0.461 7.27 7.05 11.08
11/3/2020 10:30:00 PM 7.24 45.032 0.461 7.27 6.99 11.16
11/3/2020 10:45:00 PM 7.24 45.032 0.462 7.27 7.19 11.05
11/3/2020 11:00:00 PM 7.23 45.014 0.462 7.27 7.2 11.14
11/3/2020 11:15:00 PM 7.22 44.996 0.462 7.27 7.27 11.08
11/3/2020 11:30:00 PM 7.22 44.996 0.462 7.27 7.2 11.12
11/3/2020 11:45:00 PM 7.22 44.996 0.463 7.27 7.16 11.07
11/4/2020 12:00:00 AM 7.22 44.996 0.463 7.27 7.41 11.15
11/4/2020 12:15:00 AM 7.22 44.996 0.463 7.27 7.05 11.1
11/4/2020 12:30:00 AM 7.23 45.014 0.463 7.27 7.4 11.4
11/4/2020 12:45:00 AM 7.24 45.032 0.464 7.27 7.29 11.34
11/4/2020 1:00:00 AM 7.24 45.032 0.464 7.27 7.02 11.26
11/4/2020 1:15:00 AM 7.25 45.05 0.464 7.27 7.03 11.2
11/4/2020 1:30:00 AM 7.26 45.068 0.465 7.27 6.98 11.13
11/4/2020 1:45:00 AM 7.28 45.104 0.465 7.27 7.02 11.13
11/4/2020 2:00:00 AM 7.3 45.14 0.465 7.27 6.9 11.13
11/4/2020 2:15:00 AM 7.31 45.158 0.466 7.27 6.99 11.08
11/4/2020 2:30:00 AM 7.35 45.23 0.466 7.28 7.14 11.16
11/4/2020 2:45:00 AM 7.38 45.284 0.467 7.28 7.26 11.21
11/4/2020 3:00:00 AM 7.39 45.302 0.468 7.28 7.15 11.1
11/4/2020 3:15:00 AM 7.42 45.356 0.468 7.28 8.53 11.09
11/4/2020 3:30:00 AM 7.44 45.392 0.469 7.28 6.94 11.15
11/4/2020 3:45:00 AM 7.45 45.41 0.469 7.29 7.22 11.19
11/4/2020 4:00:00 AM 7.49 45.482 0.47 7.29 7.05 11.19
11/4/2020 4:15:00 AM 7.5 45.5 0.47 7.29 7.02 11.19
11/4/2020 4:30:00 AM 7.53 45.554 0.471 7.3 7.59 11.22
11/4/2020 4:45:00 AM 7.53 45.554 0.472 7.3 7.55 11.21
11/4/2020 5:00:00 AM 7.57 45.626 0.473 7.3 11.33 11.14
11/4/2020 5:15:00 AM 7.58 45.644 0.474 7.3 7.89 11.12
11/4/2020 5:30:00 AM 7.62 45.716 0.475 7.31 7.74 11.19
11/4/2020 5:45:00 AM 7.61 45.698 0.476 7.31 10.77 11.23
11/4/2020 6:00:00 AM 7.62 45.716 0.477 7.31 7.4 11.14
11/4/2020 6:15:00 AM 7.63 45.734 0.477 7.3 7.07 11.06
11/4/2020 6:30:00 AM 7.64 45.752 0.479 7.3 7.86 11.1
11/4/2020 6:45:00 AM 7.65 45.77 0.48 7.31 8.06 11.06
11/4/2020 7:00:00 AM 7.63 45.734 0.48 7.3 8.07 11.07
11/4/2020 7:15:00 AM 7.63 45.734 0.481 7.3 6.84 11.11
11/4/2020 7:30:00 AM 7.63 45.734 0.483 7.3 7.26 11.07
11/4/2020 7:45:00 AM 7.64 45.752 0.484 7.3 7.1 11.08
11/4/2020 8:00:00 AM 7.64 45.752 0.484 7.3 7.4 11.1
11/4/2020 8:15:00 AM 7.67 45.806 0.485 7.3 7.27 11.15
11/4/2020 8:30:00 AM 7.7 45.86 0.486 7.3 7.16 11.12
11/4/2020 8:45:00 AM 7.74 45.932 0.488 7.31 7.25 11.4
11/4/2020 9:00:00 AM 7.77 45.986 0.489 7.31 7.01 11.21
11/4/2020 9:15:00 AM 7.81 46.058 0.489 7.31 7.08 11.13
11/4/2020 9:30:00 AM 7.84 46.112 0.49 7.31 6.8 11.34
11/4/2020 9:45:00 AM 7.87 46.166 0.492 7.32 8.08 11.09
11/4/2020 10:00:00 AM 7.92 46.256 0.492 7.32 7.22 11.16
11/4/2020 10:15:00 AM 7.96 46.328 0.493 7.32 7.14 11.15
11/4/2020 10:30:00 AM 7.99 46.382 0.494 7.32 7.12 11.15
11/4/2020 10:45:00 AM 8.04 46.472 0.495 7.32 7.1 11.13
11/4/2020 11:00:00 AM 8.08 46.544 0.496 7.32 7.08 11.14
11/4/2020 11:15:00 AM 8.11 46.598 0.497 7.32 7.04 11.12
11/4/2020 11:30:00 AM 8.14 46.652 0.498 7.32 7.08 11.1
11/4/2020 11:45:00 AM 8.15 46.67 0.499 7.32 7.09 11.16
11/4/2020 12:00:00 PM 8.17 46.706 0.5 7.32 6.91 11.11
11/4/2020 12:15:00 PM 8.2 46.76 0.497 7.32 7.03 11.19
11/4/2020 12:30:00 PM 8.26 46.868 0.502 7.32 7.82 11.12
11/4/2020 12:45:00 PM 8.3 46.94 0.502 7.32 6.86 11.08
11/4/2020 1:00:00 PM 8.34 47.012 0.503 7.32 7.47 11.02
11/4/2020 1:15:00 PM 8.34 47.012 0.503 7.33 7.01 11.13
11/4/2020 1:30:00 PM 8.35 47.03 0.504 7.33 6.88 10.95
11/4/2020 1:45:00 PM 8.35 47.03 0.505 7.33 7.4 10.93
11/4/2020 2:00:00 PM 8.35 47.03 0.505 7.33 7.57 10.87
11/4/2020 2:15:00 PM 8.33 46.994 0.506 7.33 7.94 10.89
11/4/2020 2:30:00 PM 8.32 46.976 0.506 7.33 8.17 10.87
11/4/2020 2:45:00 PM 8.32 46.976 0.507 7.33 7.71 10.88
11/4/2020 3:00:00 PM 8.29 46.922 0.507 7.32 7.8 10.87
11/4/2020 3:15:00 PM 8.28 46.904 0.508 7.32 7.66 10.82
11/4/2020 3:30:00 PM 8.29 46.922 0.508 7.32 6.8 10.8
11/4/2020 3:45:00 PM 8.29 46.922 0.508 7.32 6.95 10.87
11/4/2020 4:00:00 PM 8.28 46.904 0.509 7.32 6.96 10.81
11/4/2020 4:15:00 PM 8.26 46.868 0.509 7.32 6.77 10.82
11/4/2020 4:30:00 PM 8.28 46.904 0.509 7.32 6.98 10.73
11/4/2020 4:45:00 PM 8.28 46.904 0.509 7.32 7.48 10.81
11/4/2020 5:00:00 PM 8.28 46.904 0.509 7.32 3.27 10.76
11/4/2020 5:15:00 PM 8.29 46.922 0.51 7.31 4.04 10.74
11/4/2020 5:30:00 PM 8.29 46.922 0.51 7.32 3.41 10.74
11/4/2020 5:45:00 PM 8.29 46.922 0.51 7.32 3.41 10.82
11/4/2020 6:00:00 PM 8.3 46.94 0.51 7.32 4.69 10.86
11/4/2020 6:15:00 PM 8.3 46.94 0.51 7.32 3.48 10.85
11/4/2020 6:30:00 PM 8.3 46.94 0.51 7.32 3.42 10.85
11/4/2020 6:45:00 PM 8.29 46.922 0.51 7.32 3.74 10.87
11/4/2020 7:00:00 PM 8.3 46.94 0.51 7.32 3.68 10.87
11/4/2020 7:15:00 PM 8.3 46.94 0.51 7.32 3.44 10.84
11/4/2020 7:30:00 PM 8.3 46.94 0.51 7.32 3.6 10.9
11/4/2020 7:45:00 PM 8.29 46.922 0.51 7.32 3.68 10.85
11/4/2020 8:00:00 PM 8.28 46.904 0.51 7.33 3.75 10.82
11/4/2020 8:15:00 PM 8.27 46.886 0.511 7.32 3.46 10.87
11/4/2020 8:30:00 PM 8.27 46.886 0.51 7.32 3.47 10.85
11/4/2020 8:45:00 PM 8.26 46.868 0.511 7.32 3.6 10.9
11/4/2020 9:00:00 PM 8.25 46.85 0.511 7.31 3.67 10.95
11/4/2020 9:15:00 PM 8.24 46.832 0.511 7.31 3.64 10.88
11/4/2020 9:30:00 PM 8.22 46.796 0.511 7.31 4.55 10.84
11/4/2020 9:45:00 PM 8.2 46.76 0.511 7.3 3.48 10.79
11/4/2020 10:00:00 PM 8.17 46.706 0.511 7.3 7.14 10.8
11/4/2020 10:15:00 PM 8.16 46.688 0.511 7.3 8.26 10.78
11/4/2020 10:30:00 PM 8.14 46.652 0.511 7.29 9.94 10.77
11/4/2020 10:45:00 PM 8.1 46.58 0.511 7.29 4.15 10.72
11/4/2020 11:00:00 PM 8.1 46.58 0.511 7.29 5.4 10.87
11/4/2020 11:15:00 PM 8.07 46.526 0.511 7.28 5.52 10.75
11/4/2020 11:30:00 PM 8.06 46.508 0.511 7.28 6.85 10.75
11/4/2020 11:45:00 PM 8.03 46.454 0.511 7.28 6.38 10.75
11/5/2020 12:00:00 AM 8.01 46.418 0.511 7.27 5.79 10.72
11/5/2020 12:15:00 AM 8 46.4 0.511 7.28 4.63 10.61
11/5/2020 12:30:00 AM 7.99 46.382 0.511 7.27 4.81 10.62
11/5/2020 12:45:00 AM 7.99 46.382 0.511 7.28 5.21 10.68
11/5/2020 1:00:00 AM 7.98 46.364 0.511 7.28 6.19 10.72
11/5/2020 1:15:00 AM 7.98 46.364 0.511 7.27 4.17 10.69
11/5/2020 1:30:00 AM 7.99 46.382 0.511 7.27 3.54 10.66
11/5/2020 1:45:00 AM 7.99 46.382 0.511 7.27 10.51 10.72
11/5/2020 2:00:00 AM 8 46.4 0.511 7.27 5.01 10.69
11/5/2020 2:15:00 AM 8.01 46.418 0.511 7.27 4.18 10.77
11/5/2020 2:30:00 AM 8.03 46.454 0.511 7.27 3.5 10.8
11/5/2020 2:45:00 AM 8.05 46.49 0.511 7.28 4.22 10.77
11/5/2020 3:00:00 AM 8.08 46.544 0.511 7.28 3.67 10.8
11/5/2020 3:15:00 AM 8.11 46.598 0.511 7.28 3.38 10.71
11/5/2020 3:30:00 AM 8.13 46.634 0.511 7.29 3.59 10.75
11/5/2020 3:45:00 AM 8.17 46.706 0.512 7.29 3.44 10.77
11/5/2020 4:00:00 AM 8.21 46.778 0.512 7.29 3.49 10.74
11/5/2020 4:15:00 AM 8.24 46.832 0.512 7.3 3.51 10.74
11/5/2020 4:30:00 AM 8.27 46.886 0.512 7.31 3.46 10.73
11/5/2020 4:45:00 AM 8.3 46.94 0.512 7.31 3.56 10.67
11/5/2020 5:00:00 AM 8.35 47.03 0.512 7.32 3.51 10.55
11/5/2020 5:15:00 AM 8.38 47.084 0.512 7.33 4.04 10.85
11/5/2020 5:30:00 AM 8.41 47.138 0.512 7.33 3.56 10.59
11/5/2020 5:45:00 AM 8.44 47.192 0.513 7.33 3.61 10.96
11/5/2020 6:00:00 AM 8.47 47.246 0.513 7.34 4.13 10.67
11/5/2020 6:15:00 AM 8.5 47.3 0.513 7.34 3.69 11.18
11/5/2020 6:30:00 AM 8.52 47.336 0.513 7.34 4 11.12
11/5/2020 6:45:00 AM 8.54 47.372 0.514 7.34 3.44 10.52
11/5/2020 7:00:00 AM 8.54 47.372 0.513 7.34 3.9 10.37
11/5/2020 7:15:00 AM 8.57 47.426 0.514 7.34 3.65 10.56
11/5/2020 7:30:00 AM 8.6 47.48 0.514 7.35 8.37 10.71
11/5/2020 7:45:00 AM 8.62 47.516 0.515 7.35 4.6 10.61
11/5/2020 8:00:00 AM 8.67 47.606 0.515 7.36 10.66 10.99
11/5/2020 8:15:00 AM 8.71 47.678 0.516 7.37 4.48 10.82
11/5/2020 8:30:00 AM 8.76 47.768 0.516 7.37 4.08 10.78
11/5/2020 8:45:00 AM 8.82 47.876 0.517 7.38 3.86 10.89
11/5/2020 9:00:00 AM 8.86 47.948 0.517 7.38 4.63 10.93
11/5/2020 9:15:00 AM 8.94 48.092 0.518 7.39 8.19 10.84
11/5/2020 9:30:00 AM 9.01 48.218 0.519 7.39 6.53 11.11
11/5/2020 9:45:00 AM 9.07 48.326 0.52 7.4 5.42 10.92
11/5/2020 10:00:00 AM 9.14 48.452 0.521 7.4 5.2 10.86
11/5/2020 10:15:00 AM 9.19 48.542 0.521 7.4 4.57 11.04
11/5/2020 10:30:00 AM 9.24 48.632 0.521 7.41 5.28 10.81
11/5/2020 10:45:00 AM 9.29 48.722 0.522 7.41 4.21 10.76
11/5/2020 11:00:00 AM 9.33 48.794 0.522 7.41 3.5 10.63
11/5/2020 11:15:00 AM 9.38 48.884 0.523 7.41 3.51 10.67
11/5/2020 11:30:00 AM 9.43 48.974 0.524 7.42 3.49 10.63
11/5/2020 11:45:00 AM 9.51 49.118 0.524 7.42 3.47 10.64
11/5/2020 12:00:00 PM 9.56 49.208 0.525 7.42 3.54 10.67
11/5/2020 12:15:00 PM 9.59 49.262 0.525 7.43 3.54 10.69
11/5/2020 12:30:00 PM 9.62 49.316 0.525 7.43 3.58 10.5
11/5/2020 12:45:00 PM 9.64 49.352 0.526 7.43 3.41 10.69
11/5/2020 1:00:00 PM 9.65 49.37 0.526 7.43 3.58 10.65
11/5/2020 1:15:00 PM 9.65 49.37 0.526 7.44 3.71 10.6
11/5/2020 1:30:00 PM 9.64 49.352 0.526 7.44 3.73 10.44
11/5/2020 1:45:00 PM 9.62 49.316 0.526 7.44 3.5 10.54
11/5/2020 2:00:00 PM 9.62 49.316 0.527 7.44 3.62 10.58
11/5/2020 2:15:00 PM 9.65 49.37 0.527 7.44 3.43 10.47
11/5/2020 2:30:00 PM 9.68 49.424 0.527 7.44 3.36 10.45
11/5/2020 2:45:00 PM 9.72 49.496 0.527 7.44 3.28 10.52
11/5/2020 3:00:00 PM 9.74 49.532 0.527 7.44 3.44 10.4
11/5/2020 3:15:00 PM 9.75 49.55 0.499 7.44 3.28 10.39
11/5/2020 3:30:00 PM 9.75 49.55 0.527 7.44 3.34 10.27
11/5/2020 3:45:00 PM 9.74 49.532 0.527 7.45 3.46 10.32
11/5/2020 4:00:00 PM 9.73 49.514 0.527 7.45 3.57 10.23
11/5/2020 4:15:00 PM 9.72 49.496 0.527 7.45 3.28 10.27
11/5/2020 4:30:00 PM 9.71 49.478 0.527 7.44 3.41 10.27
11/5/2020 4:45:00 PM 9.71 49.478 0.526 7.44 3.4 10.33
11/5/2020 5:00:00 PM 9.72 49.496 0.498 7.44 3.4 10.26
11/5/2020 5:15:00 PM 9.74 49.532 0.527 7.44 3.28 10.24
11/5/2020 5:30:00 PM 9.75 49.55 0.527 7.44 3.47 10.34
11/5/2020 5:45:00 PM 9.76 49.568 0.525 7.45 3.52 10.31
11/5/2020 6:00:00 PM 9.76 49.568 0.527 7.45 3.19 10.56
11/5/2020 6:15:00 PM 9.75 49.55 0.527 7.46 3.19 10.47
11/5/2020 6:30:00 PM 9.75 49.55 0.527 7.45 3.05 10.45
11/5/2020 6:45:00 PM 9.74 49.532 0.527 7.45 3.12 10.26
11/5/2020 7:00:00 PM 9.71 49.478 0.527 7.45 3.06 10.39
11/5/2020 7:15:00 PM 9.69 49.442 0.527 7.45 2.99 10.41
11/5/2020 7:30:00 PM 9.68 49.424 0.527 7.45 3.12 10.39
11/5/2020 7:45:00 PM 9.68 49.424 0.527 7.45 3.24 10.37
11/5/2020 8:00:00 PM 9.66 49.388 0.527 7.45 3.35 10.41
11/5/2020 8:15:00 PM 9.65 49.37 0.527 7.44 3.27 10.41
11/5/2020 8:30:00 PM 9.63 49.334 0.528 7.44 3.14 10.39
11/5/2020 8:45:00 PM 9.61 49.298 0.528 7.44 3.39 10.36
11/5/2020 9:00:00 PM 9.59 49.262 0.528 7.44 3.23 10.38
11/5/2020 9:15:00 PM 9.57 49.226 0.528 7.44 3.14 10.36
11/5/2020 9:30:00 PM 9.55 49.19 0.528 7.43 3.66 10.35
11/5/2020 9:45:00 PM 9.54 49.172 0.528 7.42 3.42 10.42
11/5/2020 10:00:00 PM 9.52 49.136 0.528 7.42 5.63 10.4
11/5/2020 10:15:00 PM 9.5 49.1 0.528 7.42 3.28 10.27
11/5/2020 10:30:00 PM 9.49 49.082 0.529 7.42 3.47 10.43
11/5/2020 10:45:00 PM 9.48 49.064 0.529 7.41 4.13 10.23
11/5/2020 11:00:00 PM 9.47 49.046 0.529 7.41 4.61 10.14
11/5/2020 11:15:00 PM 9.45 49.01 0.529 7.41 3.22 10.2
11/5/2020 11:30:00 PM 9.44 48.992 0.529 7.41 3.29 10.23
11/5/2020 11:45:00 PM 9.43 48.974 0.53 7.41 30.99 10.23
11/6/2020 12:00:00 AM 9.42 48.956 0.53 7.4 4.23 10.19
11/6/2020 12:15:00 AM 9.41 48.938 0.53 7.41 2095.34 10.39
11/6/2020 12:30:00 AM 9.4 48.92 0.53 7.41 3.21 10.46
11/6/2020 12:45:00 AM 9.39 48.902 0.53 7.41 3.25 10.43
11/6/2020 1:00:00 AM 9.38 48.884 0.53 7.41 3.08 10.41
11/6/2020 1:15:00 AM 9.38 48.884 0.53 7.41 2.89 10.54
11/6/2020 1:30:00 AM 9.38 48.884 0.53 7.41 3.05 10.55
11/6/2020 1:45:00 AM 9.39 48.902 0.53 7.41 3.16 10.31
11/6/2020 2:00:00 AM 9.4 48.92 0.53 7.41 3.1 10.54
11/6/2020 2:15:00 AM 9.41 48.938 0.531 7.41 3.23 10.29
11/6/2020 2:30:00 AM 9.43 48.974 0.531 7.42 2.93 10.39
11/6/2020 2:45:00 AM 9.45 49.01 0.531 7.42 2.91 10.48
11/6/2020 3:00:00 AM 9.48 49.064 0.531 7.42 2.91 10.53
11/6/2020 3:15:00 AM 9.51 49.118 0.531 7.43 2.8 10.52
11/6/2020 3:30:00 AM 9.54 49.172 0.531 7.43 2.82 10.51
11/6/2020 3:45:00 AM 9.58 49.244 0.531 7.44 2.9 10.57
11/6/2020 4:00:00 AM 9.61 49.298 0.531 7.44 4.12 10.61
11/6/2020 4:15:00 AM 9.64 49.352 0.531 7.45 2.98 10.52
11/6/2020 4:30:00 AM 9.67 49.406 0.531 7.45 2.87 10.47
11/6/2020 4:45:00 AM 9.69 49.442 0.531 7.46 2.84 10.48
11/6/2020 5:00:00 AM 9.74 49.532 0.531 7.47 2.96 10.52
11/6/2020 5:15:00 AM 9.77 49.586 0.531 7.47 4.21 10.4
11/6/2020 5:30:00 AM 9.79 49.622 0.531 7.47 3.07 10.44
11/6/2020 5:45:00 AM 9.8 49.64 0.53 7.47 3.03 10.46
11/6/2020 6:00:00 AM 9.85 49.73 0.531 7.48 3.16 10.66
11/6/2020 6:15:00 AM 9.87 49.766 0.531 7.48 3.53 10.48
11/6/2020 6:30:00 AM 9.89 49.802 0.531 7.48 3.33 10.43
11/6/2020 6:45:00 AM 9.91 49.838 0.531 7.48 3.04 10.4
11/6/2020 7:00:00 AM 9.94 49.892 0.53 7.49 2.89 10.43
11/6/2020 7:15:00 AM 9.96 49.928 0.53 7.49 3.94 10.35
11/6/2020 7:30:00 AM 10 50 0.531 7.49 2.94 10.37
11/6/2020 7:45:00 AM 10.02 50.036 0.531 7.5 2.93 10.46
11/6/2020 8:00:00 AM 10.05 50.09 0.531 7.5 3.07 10.4
11/6/2020 8:15:00 AM 10.07 50.126 0.531 7.51 3.32 10.65
11/6/2020 8:30:00 AM 10.08 50.144 0.531 7.51 3.19 10.61
11/6/2020 8:45:00 AM 10.11 50.198 0.532 7.52 3.27 10.61
11/6/2020 9:00:00 AM 10.18 50.324 0.532 7.53 3.39 10.63
11/6/2020 9:15:00 AM 10.24 50.432 0.532 7.53 3.15 10.54
11/6/2020 9:30:00 AM 10.31 50.558 0.532 7.54 4.86 10.77
11/6/2020 9:45:00 AM 10.36 50.648 0.533 7.55 3.15 10.69
11/6/2020 10:00:00 AM 10.42 50.756 0.533 7.55 3.04 10.5
11/6/2020 10:15:00 AM 10.47 50.846 0.533 7.56 3.56 10.5
11/6/2020 10:30:00 AM 10.52 50.936 0.533 7.57 4.35 10.58
11/6/2020 10:45:00 AM 10.57 51.026 0.534 7.57 3.37 10.57
11/6/2020 11:00:00 AM 10.61 51.098 0.534 7.58 3.32 10.58
11/6/2020 11:15:00 AM 10.64 51.152 0.534 7.58 3.03 10.5
11/6/2020 11:30:00 AM 10.69 51.242 0.535 7.58 3.11 10.26
11/6/2020 11:45:00 AM 10.75 51.35 0.535 7.58 3.27 10.49
11/6/2020 12:00:00 PM 10.77 51.386 0.535 7.59 3.15 10.54
11/6/2020 12:15:00 PM 10.8 51.44 0.536 7.59 3.28 10.58
11/6/2020 12:30:00 PM 10.8 51.44 0.537 7.59 3.29 10.52
11/6/2020 12:45:00 PM 10.82 51.476 0.537 7.59 3.19 10.46
11/6/2020 1:00:00 PM 10.82 51.476 0.538 7.59 3.19 10.46
11/6/2020 1:15:00 PM 10.79 51.422 0.538 7.6 3.18 10.29
11/6/2020 1:30:00 PM 10.79 51.422 0.538 7.59 3.28 10.44
11/6/2020 1:45:00 PM 10.79 51.422 0.539 7.59 3.14 10.19
11/6/2020 2:00:00 PM 10.78 51.404 0.539 7.59 3.13 10.17
11/6/2020 2:15:00 PM 10.79 51.422 0.54 7.59 3.06 10.25
11/6/2020 2:30:00 PM 10.79 51.422 0.54 7.59 3.24 10.2
11/6/2020 2:45:00 PM 10.79 51.422 0.54 7.59 3.13 10.13
11/6/2020 3:00:00 PM 10.79 51.422 0.54 7.59 4.81 10.16
11/6/2020 3:15:00 PM 10.8 51.44 0.541 7.59 2.47 10.17
11/6/2020 3:30:00 PM 10.82 51.476 0.541 7.6 2.67 10.22
11/6/2020 3:45:00 PM 10.83 51.494 0.541 7.6 2.79 10.13
11/6/2020 4:00:00 PM 10.83 51.494 0.541 7.6 2.79 10.09
11/6/2020 4:15:00 PM 10.84 51.512 0.541 7.6 2.69 10.06
11/6/2020 4:30:00 PM 10.85 51.53 0.541 7.6 2.73 10.05
11/6/2020 4:45:00 PM 10.87 51.566 0.541 7.6 2.03 10.09
11/6/2020 5:00:00 PM 10.89 51.602 0.541 7.6 1.97 9.88
11/6/2020 5:15:00 PM 10.9 51.62 0.541 7.59 2.35 9.92
11/6/2020 5:30:00 PM 10.93 51.674 0.541 7.6 2.72 9.92
11/6/2020 5:45:00 PM 10.94 51.692 0.541 7.6 2.43 10.08
11/6/2020 6:00:00 PM 10.95 51.71 0.541 7.61 2.09 10.02
11/6/2020 6:15:00 PM 10.95 51.71 0.54 7.61 2.3 10.06
11/6/2020 6:30:00 PM 10.94 51.692 0.54 7.61 2.05 9.97
11/6/2020 6:45:00 PM 10.93 51.674 0.54 7.62 2.04 9.86
11/6/2020 7:00:00 PM 10.92 51.656 0.54 7.61 2.23 9.9
11/6/2020 7:15:00 PM 10.89 51.602 0.54 7.62 2.12 10.08
11/6/2020 7:30:00 PM 10.88 51.584 0.54 7.61 2.09 9.81
11/6/2020 7:45:00 PM 10.85 51.53 0.54 7.61 2.2 9.89
11/6/2020 8:00:00 PM 10.82 51.476 0.54 7.61 2.13 9.88
11/6/2020 8:15:00 PM 10.79 51.422 0.54 7.61 1.97 9.92
11/6/2020 8:30:00 PM 10.76 51.368 0.54 7.61 2.18 10.1
11/6/2020 8:45:00 PM 10.73 51.314 0.54 7.61 2.19 10.14
11/6/2020 9:00:00 PM 10.7 51.26 0.54 7.61 2.26 9.99
11/6/2020 9:15:00 PM 10.68 51.224 0.54 7.6 2.45 9.93
11/6/2020 9:30:00 PM 10.65 51.17 0.54 7.6 2.25 10
11/6/2020 9:45:00 PM 10.63 51.134 0.54 7.59 2.93 9.98
11/6/2020 10:00:00 PM 10.6 51.08 0.54 7.59 3.67 9.99
11/6/2020 10:15:00 PM 10.58 51.044 0.54 7.59 2.17 9.91
11/6/2020 10:30:00 PM 10.56 51.008 0.534 7.58 2.24 9.88
11/6/2020 10:45:00 PM 10.54 50.972 0.541 7.58 2.19 10.08
11/6/2020 11:00:00 PM 10.52 50.936 0.541 7.58 2.6 9.97
11/6/2020 11:15:00 PM 10.51 50.918 0.541 7.58 2.62 9.97
11/6/2020 11:30:00 PM 10.49 50.882 0.541 7.58 2.23 9.88
11/6/2020 11:45:00 PM 10.47 50.846 0.541 7.57 2.61 10.02
11/7/2020 12:00:00 AM 10.45 50.81 0.541 7.57 2.48 10.04
11/7/2020 12:15:00 AM 10.43 50.774 0.541 7.57 2.41 9.91
11/7/2020 12:30:00 AM 10.42 50.756 0.542 7.57 2.7 9.93
11/7/2020 12:45:00 AM 10.4 50.72 0.542 7.57 2.2 10.12
11/7/2020 1:00:00 AM 10.37 50.666 0.542 7.57 2.29 10.09
11/7/2020 1:15:00 AM 10.35 50.63 0.54 7.57 2.66 9.96
11/7/2020 1:30:00 AM 10.33 50.594 0.542 7.57 2.22 9.85
11/7/2020 1:45:00 AM 10.31 50.558 0.543 7.57 3.21 9.9
11/7/2020 2:00:00 AM 10.28 50.504 0.543 7.57 3.44 9.9
11/7/2020 2:15:00 AM 10.27 50.486 0.543 7.57 3.31 9.95
11/7/2020 2:30:00 AM 10.24 50.432 0.544 7.57 3.25 9.87
11/7/2020 2:45:00 AM 10.23 50.414 0.544 7.58 3.44 10.06
11/7/2020 3:00:00 AM 10.22 50.396 0.544 7.59 3.2 9.88
11/7/2020 3:15:00 AM 10.2 50.36 0.544 7.58 3.22 9.98
11/7/2020 3:30:00 AM 10.19 50.342 0.544 7.58 3.25 9.79
11/7/2020 3:45:00 AM 10.18 50.324 0.545 7.59 3.27 10.02
11/7/2020 4:00:00 AM 10.18 50.324 0.545 7.59 3.24 9.9
11/7/2020 4:15:00 AM 10.18 50.324 0.545 7.59 3.11 10.08
11/7/2020 4:30:00 AM 10.19 50.342 0.546 7.6 3.14 10.01
11/7/2020 4:45:00 AM 10.2 50.36 0.546 7.6 3.17 10.06
11/7/2020 5:00:00 AM 10.21 50.378 0.547 7.61 3.08 10.09
11/7/2020 5:15:00 AM 10.22 50.396 0.547 7.61 3.03 10.09
11/7/2020 5:30:00 AM 10.24 50.432 0.547 7.62 3.34 10.16
11/7/2020 5:45:00 AM 10.25 50.45 0.548 7.63 3.13 10.15
11/7/2020 6:00:00 AM 10.27 50.486 0.548 7.63 3.38 10.26
11/7/2020 6:15:00 AM 10.28 50.504 0.548 7.63 3.29 10.27
11/7/2020 6:30:00 AM 10.3 50.54 0.548 7.63 3.1 10.14
11/7/2020 6:45:00 AM 10.32 50.576 0.549 7.64 3.18 10.16
11/7/2020 7:00:00 AM 10.34 50.612 0.549 7.65 3.29 10.23
11/7/2020 7:15:00 AM 10.34 50.612 0.549 7.65 3.12 10.23
11/7/2020 7:30:00 AM 10.36 50.648 0.549 7.66 3.14 10.23
11/7/2020 7:45:00 AM 10.39 50.702 0.549 7.66 3.22 10.3
11/7/2020 8:00:00 AM 10.43 50.774 0.55 7.67 3.1 10.21
11/7/2020 8:15:00 AM 10.47 50.846 0.55 7.68 3.08 10.34
11/7/2020 8:30:00 AM 10.53 50.954 0.55 7.69 2.78 10.52
11/7/2020 8:45:00 AM 10.6 51.08 0.55 7.71 2.82 10.64
11/7/2020 9:00:00 AM 10.66 51.188 0.55 7.72 2.97 10.6
11/7/2020 9:15:00 AM 10.72 51.296 0.549 7.73 2.53 10.58
11/7/2020 9:30:00 AM 10.79 51.422 0.55 7.74 2.42 10.65
11/7/2020 9:45:00 AM 10.84 51.512 0.55 7.74 2.05 10.68
11/7/2020 10:00:00 AM 10.91 51.638 0.55 7.76 2.32 10.59
11/7/2020 10:15:00 AM 10.97 51.746 0.55 7.76 2.23 10.44
11/7/2020 10:30:00 AM 11.03 51.854 0.551 7.77 2.34 10.59
11/7/2020 10:45:00 AM 11.08 51.944 0.551 7.78 2.31 10.09
11/7/2020 11:00:00 AM 11.13 52.034 0.551 7.78 2.31 10.33
11/7/2020 11:15:00 AM 11.17 52.106 0.551 7.79 2.16 10.55
11/7/2020 11:30:00 AM 11.21 52.178 0.552 7.79 3.84 10.38
11/7/2020 11:45:00 AM 11.23 52.214 0.552 7.79 2.21 10.13
11/7/2020 12:00:00 PM 11.25 52.25 0.552 7.79 2.46 10.29
11/7/2020 12:15:00 PM 11.28 52.304 0.553 7.79 2.27 10.3
11/7/2020 12:30:00 PM 11.28 52.304 0.553 7.79 2.07 10.07
11/7/2020 12:45:00 PM 11.29 52.322 0.554 7.79 2.04 10.16
11/7/2020 1:00:00 PM 11.29 52.322 0.554 7.79 2.01 10.11
11/7/2020 1:15:00 PM 11.28 52.304 0.555 7.79 2.13 10.07
11/7/2020 1:30:00 PM 11.26 52.268 0.556 7.79 2.33 10.25
11/7/2020 1:45:00 PM 11.26 52.268 0.556 7.79 2.49 10.17
11/7/2020 2:00:00 PM 11.27 52.286 0.557 7.78 2.17 9.98
11/7/2020 2:15:00 PM 11.24 52.232 0.558 7.79 2.19 10.03
11/7/2020 2:30:00 PM 11.23 52.214 0.558 7.79 2.22 9.95
11/7/2020 2:45:00 PM 11.22 52.196 0.559 7.79 2.33 9.96
11/7/2020 3:00:00 PM 11.21 52.178 0.56 7.79 2.12 9.9
11/7/2020 3:15:00 PM 11.2 52.16 0.56 7.79 2.28 10
11/7/2020 3:30:00 PM 11.19 52.142 0.561 7.78 2.14 9.92
11/7/2020 3:45:00 PM 11.18 52.124 0.562 7.78 2.52 10.07
11/7/2020 4:00:00 PM 11.17 52.106 0.562 7.78 2.01 9.81
11/7/2020 4:15:00 PM 11.15 52.07 0.563 7.78 2.18 9.91
11/7/2020 4:30:00 PM 11.15 52.07 0.564 7.78 1.9 9.76
11/7/2020 4:45:00 PM 11.15 52.07 0.564 7.78 1.92 9.8
11/7/2020 5:00:00 PM 11.16 52.088 0.564 7.78 1.98 9.88
11/7/2020 5:15:00 PM 11.17 52.106 0.565 7.78 2.1 9.79
11/7/2020 5:30:00 PM 11.18 52.124 0.565 7.78 1.99 9.81
11/7/2020 5:45:00 PM 11.19 52.142 0.566 7.78 1.73 9.74
11/7/2020 6:00:00 PM 11.19 52.142 0.566 7.78 2.15 9.7
11/7/2020 6:15:00 PM 11.17 52.106 0.566 7.79 1.82 9.94
11/7/2020 6:30:00 PM 11.15 52.07 0.567 7.78 3.11 9.73
11/7/2020 6:45:00 PM 11.13 52.034 0.567 7.79 1.79 9.68
11/7/2020 7:00:00 PM 11.11 51.998 0.567 7.79 1.96 9.82
11/7/2020 7:15:00 PM 11.07 51.926 0.567 7.79 1.95 10.05
11/7/2020 7:30:00 PM 11.05 51.89 0.567 7.79 2.69 9.83
11/7/2020 7:45:00 PM 11.01 51.818 0.567 7.79 1.89 9.97
11/7/2020 8:00:00 PM 10.97 51.746 0.567 7.8 1.93 9.95
11/7/2020 8:15:00 PM 10.94 51.692 0.567 7.78 1.88 9.76
11/7/2020 8:30:00 PM 10.91 51.638 0.567 7.79 2.14 9.79
11/7/2020 8:45:00 PM 10.87 51.566 0.567 7.79 2.07 9.95
11/7/2020 9:00:00 PM 10.84 51.512 0.567 7.79 3.42 9.72
11/7/2020 9:15:00 PM 10.81 51.458 0.565 7.78 11.14 9.91
11/7/2020 9:30:00 PM 10.79 51.422 0.567 7.78 1.96 9.86
11/7/2020 9:45:00 PM 10.76 51.368 0.567 7.77 2.24 9.81
11/7/2020 10:00:00 PM 10.73 51.314 0.567 7.77 1.94 9.77
11/7/2020 10:15:00 PM 10.71 51.278 0.566 7.77 2.13 9.77
11/7/2020 10:30:00 PM 10.68 51.224 0.566 7.77 2.25 9.69
11/7/2020 10:45:00 PM 10.66 51.188 0.566 7.76 2.01 9.65
11/7/2020 11:00:00 PM 10.63 51.134 0.566 7.76 1.85 9.56
11/7/2020 11:15:00 PM 10.61 51.098 0.566 7.76 2.02 9.58
11/7/2020 11:30:00 PM 10.58 51.044 0.565 7.76 2.04 9.52
11/7/2020 11:45:00 PM 10.55 50.99 0.565 7.76 2.2 9.49
11/8/2020 12:00:00 AM 10.52 50.936 0.565 7.75 2.15 9.58
11/8/2020 12:15:00 AM 10.49 50.882 0.565 7.75 2.19 9.37
11/8/2020 12:30:00 AM 10.47 50.846 0.565 7.75 2.36 9.57
11/8/2020 12:45:00 AM 10.44 50.792 0.564 7.75 2.23 9.45
11/8/2020 1:00:00 AM 10.4 50.72 0.564 7.75 2.25 9.72
11/8/2020 1:15:00 AM 10.37 50.666 0.564 7.74 2.32 9.69
11/8/2020 1:30:00 AM 10.34 50.612 0.563 7.74 2.26 9.47
11/8/2020 1:45:00 AM 10.3 50.54 0.563 7.75 2.15 9.72
11/8/2020 2:00:00 AM 10.27 50.486 0.562 7.75 2.19 9.56
11/8/2020 2:15:00 AM 10.24 50.432 0.562 7.75 2.19 9.65
11/8/2020 2:30:00 AM 10.21 50.378 0.562 7.74 2.1 9.61
11/8/2020 2:45:00 AM 10.18 50.324 0.561 7.74 2.15 9.62
11/8/2020 3:00:00 AM 10.16 50.288 0.561 7.75 2.06 9.55
11/8/2020 3:15:00 AM 10.14 50.252 0.561 7.75 1.98 9.76
11/8/2020 3:30:00 AM 10.13 50.234 0.561 7.75 2.87 9.78
11/8/2020 3:45:00 AM 10.12 50.216 0.561 7.74 2.74 9.81
11/8/2020 4:00:00 AM 10.1 50.18 0.561 7.74 2.7 9.81
11/8/2020 4:15:00 AM 10.09 50.162 0.56 7.75 2.83 9.77
11/8/2020 4:30:00 AM 10.08 50.144 0.56 7.75 2.62 9.75
11/8/2020 4:45:00 AM 10.09 50.162 0.559 7.75 2.1 9.94
11/8/2020 5:00:00 AM 10.1 50.18 0.559 7.75 2.07 10.01
11/8/2020 5:15:00 AM 10.11 50.198 0.558 7.76 2.03 9.8
11/8/2020 5:30:00 AM 10.12 50.216 0.558 7.76 1.9 9.75
11/8/2020 5:45:00 AM 10.13 50.234 0.558 7.77 2.01 10.05
11/8/2020 6:00:00 AM 10.13 50.234 0.558 7.77 1.9 9.68
11/8/2020 6:15:00 AM 10.13 50.234 0.558 7.77 2.05 9.78
11/8/2020 6:30:00 AM 10.14 50.252 0.558 7.78 2.01 9.99
11/8/2020 6:45:00 AM 10.18 50.324 0.557 7.78 2.27 10.35
11/8/2020 7:00:00 AM 10.18 50.324 0.557 7.78 2.2 10.24
11/8/2020 7:15:00 AM 10.2 50.36 0.557 7.79 2.31 10.28
11/8/2020 7:30:00 AM 10.22 50.396 0.557 7.8 2.15 10.27
11/8/2020 7:45:00 AM 10.25 50.45 0.557 7.8 2.3 10.26
11/8/2020 8:00:00 AM 10.3 50.54 0.556 7.81 2.63 10.11
11/8/2020 8:15:00 AM 10.35 50.63 0.556 7.82 2.44 10.15
11/8/2020 8:30:00 AM 10.39 50.702 0.556 7.83 2.33 10.19
11/8/2020 8:45:00 AM 10.46 50.828 0.556 7.84 2.56 10.33
11/8/2020 9:00:00 AM 10.52 50.936 0.556 7.85 2.42 10.45
11/8/2020 9:15:00 AM 10.6 51.08 0.556 7.87 2.38 10.42
11/8/2020 9:30:00 AM 10.69 51.242 0.556 7.88 2.43 10.5
11/8/2020 9:45:00 AM 10.76 51.368 0.555 7.89 2.55 10.4
11/8/2020 10:00:00 AM 10.82 51.476 0.556 7.9 2.63 10.58
11/8/2020 10:15:00 AM 10.89 51.602 0.555 7.9 2.43 10.49
11/8/2020 10:30:00 AM 10.96 51.728 0.555 7.91 2.31 10.54
11/8/2020 10:45:00 AM 11.02 51.836 0.555 7.92 2.54 10.45
11/8/2020 11:00:00 AM 11.08 51.944 0.555 7.92 2.54 10.44
11/8/2020 11:15:00 AM 11.13 52.034 0.555 7.93 2.36 10.39
11/8/2020 11:30:00 AM 11.18 52.124 0.555 7.93 2.49 10.43
11/8/2020 11:45:00 AM 11.25 52.25 0.555 7.94 2.45 10.39
11/8/2020 12:00:00 PM 11.3 52.34 0.555 7.94 2.8 10.16
11/8/2020 12:15:00 PM 11.34 52.412 0.555 7.95 2.76 10.35
11/8/2020 12:30:00 PM 11.38 52.484 0.555 7.95 2.45 10.32
11/8/2020 12:45:00 PM 11.42 52.556 0.556 7.96 2.4 10.07
11/8/2020 1:00:00 PM 11.43 52.574 0.522 7.96 2.52 10.04
11/8/2020 1:15:00 PM 11.43 52.574 0.532 7.96 2.86 10.03
11/8/2020 1:30:00 PM 11.44 52.592 0.555 7.96 2.34 9.98
11/8/2020 1:45:00 PM 11.43 52.574 0.554 7.96 2.58 9.91
11/8/2020 2:00:00 PM 11.42 52.556 0.554 7.96 2.56 10.16
11/8/2020 2:15:00 PM 11.39 52.502 0.554 7.95 2.37 10.11
11/8/2020 2:30:00 PM 11.38 52.484 0.554 7.95 2.41 10
11/8/2020 2:45:00 PM 11.36 52.448 0.555 7.95 2.59 9.88
11/8/2020 3:00:00 PM 11.35 52.43 0.555 7.94 2.48 9.89
11/8/2020 3:15:00 PM 11.34 52.412 0.547 7.94 2.49 9.97
11/8/2020 3:30:00 PM 11.3 52.34 0.555 7.94 2.42 9.54
11/8/2020 3:45:00 PM 11.29 52.322 0.557 7.94 2.31 9.54
11/8/2020 4:00:00 PM 11.31 52.358 0.558 7.94 2.38 9.52
11/8/2020 4:15:00 PM 11.33 52.394 0.557 7.95 2.28 9.83
11/8/2020 4:30:00 PM 11.33 52.394 0.559 7.95 2.31 9.82
11/8/2020 4:45:00 PM 11.35 52.43 0.559 7.95 2.17 9.5
11/8/2020 5:00:00 PM 11.33 52.394 0.559 7.95 1.99 9.54
11/8/2020 5:15:00 PM 11.31 52.358 0.56 7.95 2 9.58
11/8/2020 5:30:00 PM 11.3 52.34 0.471 7.94 2 9.48
11/8/2020 5:45:00 PM 11.29 52.322 0.558 7.94 2.03 9.61
11/8/2020 6:00:00 PM 11.28 52.304 0.562 7.94 1.88 9.7
11/8/2020 6:15:00 PM 11.27 52.286 0.559 7.93 2.28 9.38
11/8/2020 6:30:00 PM 11.24 52.232 0.559 7.94 2.03 9.38
11/8/2020 6:45:00 PM 11.22 52.196 0.561 7.93 2.05 9.52
11/8/2020 7:00:00 PM 11.19 52.142 0.562 7.94 1.93 9.54
11/8/2020 7:15:00 PM 11.17 52.106 0.562 7.93 2.34 9.49
11/8/2020 7:30:00 PM 11.14 52.052 0.562 7.94 2.16 9.34
11/8/2020 7:45:00 PM 11.1 51.98 0.563 7.93 1.96 9.59
11/8/2020 8:00:00 PM 11.06 51.908 0.563 7.93 5.31 9.92
11/8/2020 8:15:00 PM 11.03 51.854 0.544 7.94 4.34 9.45
11/8/2020 8:30:00 PM 11 51.8 0.564 7.93 4.11 9.62
11/8/2020 8:45:00 PM 10.96 51.728 0.564 7.93 4.03 9.68
11/8/2020 9:00:00 PM 10.94 51.692 0.564 7.93 4.11 9.67
11/8/2020 9:15:00 PM 10.91 51.638 0.565 7.92 4.19 9.64
11/8/2020 9:30:00 PM 10.89 51.602 0.564 7.92 4.02 9.81
11/8/2020 9:45:00 PM 10.87 51.566 0.564 7.92 4.15 9.63
11/8/2020 10:00:00 PM 10.85 51.53 0.563 7.91 4.06 9.58
11/8/2020 10:15:00 PM 10.83 51.494 0.564 7.91 4 9.49
11/8/2020 10:30:00 PM 10.8 51.44 0.565 7.91 4.14 9.45
11/8/2020 10:45:00 PM 10.77 51.386 0.565 7.91 2.34 9.43
11/8/2020 11:00:00 PM 10.75 51.35 0.565 7.91 2.14 9.8
11/8/2020 11:15:00 PM 10.72 51.296 0.566 7.9 1.88 9.28
11/8/2020 11:30:00 PM 10.7 51.26 0.566 7.9 2.14 9.19
11/8/2020 11:45:00 PM 10.67 51.206 0.567 7.89 2.05 9.19
11/9/2020 12:00:00 AM 10.63 51.134 0.567 7.88 1.98 9.34
11/9/2020 12:15:00 AM 10.59 51.062 0.567 7.89 2.23 9.32
11/9/2020 12:30:00 AM 10.56 51.008 0.567 7.88 1.9 9.57
11/9/2020 12:45:00 AM 10.52 50.936 0.567 7.88 2.13 9.73
11/9/2020 1:00:00 AM 10.48 50.864 0.567 7.88 2.03 9.67
11/9/2020 1:15:00 AM 10.44 50.792 0.567 7.87 2.01 9.79
11/9/2020 1:30:00 AM 10.41 50.738 0.568 7.87 1.99 9.7
11/9/2020 1:45:00 AM 10.37 50.666 0.568 7.87 1.97 9.79
11/9/2020 2:00:00 AM 10.33 50.594 0.568 7.87 1.88 9.77
11/9/2020 2:15:00 AM 10.3 50.54 0.567 7.87 2.14 9.77
11/9/2020 2:30:00 AM 10.26 50.468 0.567 7.87 2.06 9.75
11/9/2020 2:45:00 AM 10.23 50.414 0.558 7.87 2.03 9.94
11/9/2020 3:00:00 AM 10.21 50.378 0.567 7.87 2 9.9
11/9/2020 3:15:00 AM 10.19 50.342 0.567 7.87 2.11 9.89
11/9/2020 3:30:00 AM 10.17 50.306 0.567 7.87 2.2 9.93
11/9/2020 3:45:00 AM 10.16 50.288 0.567 7.87 2.06 9.96
11/9/2020 4:00:00 AM 10.15 50.27 0.567 7.87 1.96 9.97
11/9/2020 4:15:00 AM 10.13 50.234 0.504 7.87 2.41 9.93
11/9/2020 4:30:00 AM 10.12 50.216 0.568 7.88 2.04 9.91
11/9/2020 4:45:00 AM 10.1 50.18 0.568 7.87 1.96 9.9
11/9/2020 5:00:00 AM 10.12 50.216 0.538 7.88 2.1 9.98
11/9/2020 5:15:00 AM 10.1 50.18 0.562 7.88 1.97 10
11/9/2020 5:30:00 AM 10.11 50.198 0.563 7.89 2.11 10
11/9/2020 5:45:00 AM 10.12 50.216 0.563 7.89 2.03 9.9
11/9/2020 6:00:00 AM 10.13 50.234 0.538 7.9 2.04 10.02
11/9/2020 6:15:00 AM 10.16 50.288 0.549 7.91 1.99 10.06
11/9/2020 6:30:00 AM 10.18 50.324 0.564 7.91 1.99 9.96
11/9/2020 6:45:00 AM 10.2 50.36 0.564 7.92 1.86 10.11
11/9/2020 7:00:00 AM 10.21 50.378 0.569 7.92 1.8 10.04
11/9/2020 7:15:00 AM 10.25 50.45 0.57 7.93 1.97 10.19
11/9/2020 7:30:00 AM 10.26 50.468 0.57 7.93 1.86 10.2
11/9/2020 7:45:00 AM 10.3 50.54 0.57 7.94 1.94 10.34
11/9/2020 8:00:00 AM 10.37 50.666 0.571 7.95 1.96 10.26
11/9/2020 8:15:00 AM 10.4 50.72 0.57 7.97 1.95 10.45
11/9/2020 8:30:00 AM 10.48 50.864 0.571 7.98 1.92 10.53
11/9/2020 8:45:00 AM 10.55 50.99 0.569 7.99 2.04 10.5
11/9/2020 9:00:00 AM 10.62 51.116 0.57 8 2.02 10.64
11/9/2020 9:15:00 AM 10.7 51.26 0.57 8.01 2.11 10.51
11/9/2020 9:30:00 AM 10.78 51.404 0.57 8.03 1.96 10.67
11/9/2020 9:45:00 AM 10.86 51.548 0.571 8.05 1.91 10.58
11/9/2020 10:00:00 AM 10.94 51.692 0.571 8.05 1.94 10.61
11/9/2020 10:15:00 AM 11.01 51.818 0.572 8.07 1.82 10.59
11/9/2020 10:30:00 AM 11.1 51.98 0.572 8.07 2.13 10.56
11/9/2020 10:45:00 AM 11.18 52.124 0.573 8.08 1.92 10.56
11/9/2020 11:00:00 AM 11.23 52.214 0.572 8.09 2.03 10.57
11/9/2020 11:15:00 AM 11.3 52.34 0.573 8.09 2.58 10.36
11/9/2020 11:30:00 AM 11.37 52.466 0.571 8.1 1.99 10.49
11/9/2020 11:45:00 AM 11.42 52.556 0.571 8.11 1.91 10.62
11/9/2020 12:00:00 PM 11.46 52.628 0.571 8.11 1.95 10.4
11/9/2020 12:15:00 PM 11.52 52.736 0.571 8.12 1.91 10.39
11/9/2020 12:30:00 PM 11.57 52.826 0.563 8.12 1.96 10.41
11/9/2020 12:45:00 PM 11.62 52.916 0.575 8.12 2.31 10.43
11/9/2020 1:00:00 PM 11.65 52.97 0.575 8.13 1.86 10.44
11/9/2020 1:15:00 PM 11.65 52.97 0.576 8.13 2.19 10.29
11/9/2020 1:30:00 PM 11.65 52.97 0.576 8.13 1.87 10.23
11/9/2020 1:45:00 PM 11.66 52.988 0.576 8.13 1.95 10.15
11/9/2020 2:00:00 PM 11.63 52.934 0.576 8.12 2.01 10.23
11/9/2020 2:15:00 PM 11.61 52.898 0.576 8.12 1.94 10.07
11/9/2020 2:30:00 PM 11.58 52.844 0.576 8.12 2.09 10.1
11/9/2020 2:45:00 PM 11.57 52.826 0.576 8.11 2.17 10.05
11/9/2020 3:00:00 PM 11.56 52.808 0.577 8.11 2.11 10.06
11/9/2020 3:15:00 PM 11.57 52.826 0.576 8.11 1.92 10
11/9/2020 3:30:00 PM 11.56 52.808 0.576 8.1 2.26 9.89
11/9/2020 3:45:00 PM 11.56 52.808 0.577 8.11 2.04 9.96
11/9/2020 4:00:00 PM 11.57 52.826 0.577 8.1 1.95 9.8
11/9/2020 4:15:00 PM 11.58 52.844 0.577 8.1 1.94 9.74
11/9/2020 4:30:00 PM 11.59 52.862 0.577 8.1 2 9.82
11/9/2020 4:45:00 PM 11.61 52.898 0.571 8.1 2.03 9.79
11/9/2020 5:00:00 PM 11.64 52.952 0.543 8.1 2 9.73
11/9/2020 5:15:00 PM 11.67 53.006 0.578 8.09 2.03 9.74
11/9/2020 5:30:00 PM 11.68 53.024 0.578 8.09 2.21 9.74
11/9/2020 5:45:00 PM 11.68 53.024 0.578 8.09 2.03 9.71
11/9/2020 6:00:00 PM 11.68 53.024 0.577 8.09 2.08 9.68
11/9/2020 6:15:00 PM 11.68 53.024 0.577 8.09 2.11 9.67
11/9/2020 6:30:00 PM 11.69 53.042 0.577 8.09 2.21 9.69
11/9/2020 6:45:00 PM 11.69 53.042 0.575 8.09 2.16 9.73
11/9/2020 7:00:00 PM 11.66 52.988 0.577 8.1 2.05 9.67
11/9/2020 7:15:00 PM 11.63 52.934 0.577 8.09 2.15 9.61
11/9/2020 7:30:00 PM 11.58 52.844 0.576 8.1 2.15 9.73
11/9/2020 7:45:00 PM 11.56 52.808 0.544 8.1 2.34 9.75
11/9/2020 8:00:00 PM 11.54 52.772 0.577 8.09 2.09 9.79
11/9/2020 8:15:00 PM 11.53 52.754 0.577 8.09 2.05 9.73
11/9/2020 8:30:00 PM 11.52 52.736 0.577 8.09 2.47 9.73
11/9/2020 8:45:00 PM 11.5 52.7 0.577 8.09 2.04 9.73
11/9/2020 9:00:00 PM 11.48 52.664 0.577 8.09 2.01 9.71
11/9/2020 9:15:00 PM 11.45 52.61 0.577 8.09 2.14 9.75
11/9/2020 9:30:00 PM 11.42 52.556 0.577 8.09 2.1 9.7
11/9/2020 9:45:00 PM 11.4 52.52 0.577 8.09 1.97 9.75
11/9/2020 10:00:00 PM 11.37 52.466 0.577 8.08 2.1 9.77
11/9/2020 10:15:00 PM 11.34 52.412 0.577 8.08 2.03 9.73
11/9/2020 10:30:00 PM 11.3 52.34 0.576 8.07 2.14 9.74
11/9/2020 10:45:00 PM 11.28 52.304 0.576 8.07 2.18 9.75
11/9/2020 11:00:00 PM 11.25 52.25 0.576 8.06 2.14 9.77
11/9/2020 11:15:00 PM 11.23 52.214 0.576 8.06 2.4 9.73
11/9/2020 11:30:00 PM 11.2 52.16 0.576 8.06 2.2 9.66
11/9/2020 11:45:00 PM 11.18 52.124 0.576 8.05 2.23 9.76
11/10/2020 12:00:00 AM 11.16 52.088 0.576 8.05 2.33 9.78
11/10/2020 12:15:00 AM 11.14 52.052 0.576 8.05 2.27 9.78
11/10/2020 12:30:00 AM 11.11 51.998 0.576 8.04 2.41 9.71
11/10/2020 12:45:00 AM 11.09 51.962 0.576 8.04 2.43 9.67
11/10/2020 1:00:00 AM 11.07 51.926 0.576 8.03 2.2 9.62
11/10/2020 1:15:00 AM 11.05 51.89 0.576 8.02 2.33 9.66
11/10/2020 1:30:00 AM 11.02 51.836 0.575 8.02 2.21 9.67
11/10/2020 1:45:00 AM 11 51.8 0.575 8.02 2.3 9.72
11/10/2020 2:00:00 AM 10.97 51.746 0.575 8.02 2.24 9.71
11/10/2020 2:15:00 AM 10.95 51.71 0.573 8.02 3.41 9.76
11/10/2020 2:30:00 AM 10.92 51.656 0.573 8.02 2.39 9.8
11/10/2020 2:45:00 AM 10.9 51.62 0.573 8.02 2.39 9.73
11/10/2020 3:00:00 AM 10.88 51.584 0.572 8.02 2.35 9.73
11/10/2020 3:15:00 AM 10.87 51.566 0.571 8.02 2.64 9.82
11/10/2020 3:30:00 AM 10.86 51.548 0.57 8.02 2.09 9.77
11/10/2020 3:45:00 AM 10.86 51.548 0.57 8.03 2.24 9.7
11/10/2020 4:00:00 AM 10.87 51.566 0.57 8.03 2.25 9.85
11/10/2020 4:15:00 AM 10.88 51.584 0.569 8.04 2.31 9.91
11/10/2020 4:30:00 AM 10.89 51.602 0.568 8.04 2.37 9.88
11/10/2020 4:45:00 AM 10.91 51.638 0.567 8.04 2.12 9.95
11/10/2020 5:00:00 AM 10.93 51.674 0.567 8.05 2.14 9.97
11/10/2020 5:15:00 AM 10.96 51.728 0.566 8.06 2.07 9.61
11/10/2020 5:30:00 AM 10.97 51.746 0.566 8.06 2.12 9.95
11/10/2020 5:45:00 AM 10.99 51.782 0.566 8.07 2.13 9.9
11/10/2020 6:00:00 AM 11.01 51.818 0.565 8.08 2.28 10.01
11/10/2020 6:15:00 AM 11.03 51.854 0.565 8.08 2.11 10.01
11/10/2020 6:30:00 AM 11.05 51.89 0.564 8.08 2.39 10.03
11/10/2020 6:45:00 AM 11.08 51.944 0.564 8.1 2.14 9.92
11/10/2020 7:00:00 AM 11.1 51.98 0.564 8.1 2.21 9.82
11/10/2020 7:15:00 AM 11.13 52.034 0.563 8.1 2.16 9.89
11/10/2020 7:30:00 AM 11.15 52.07 0.563 8.1 2.29 10.15
11/10/2020 7:45:00 AM 11.18 52.124 0.563 8.11 2.65 10.02
11/10/2020 8:00:00 AM 11.23 52.214 0.563 8.12 2.39 10.31
11/10/2020 8:15:00 AM 11.28 52.304 0.563 8.13 2.18 10.19
11/10/2020 8:30:00 AM 11.34 52.412 0.563 8.14 2.25 10.21
11/10/2020 8:45:00 AM 11.41 52.538 0.563 8.15 2.33 10.23
11/10/2020 9:00:00 AM 11.48 52.664 0.563 8.16 2.18 10.41
11/10/2020 9:15:00 AM 11.55 52.79 0.563 8.16 2.24 10.25
11/10/2020 9:30:00 AM 11.64 52.952 0.563 8.18 2.24 10.29
11/10/2020 9:45:00 AM 11.71 53.078 0.563 8.2 2.26 10.21
11/10/2020 10:00:00 AM 11.79 53.222 0.563 8.2 2.34 10.38
11/10/2020 10:15:00 AM 11.86 53.348 0.563 8.22 2.26 10.28
11/10/2020 10:30:00 AM 11.95 53.51 0.564 8.22 2.33 10.09
11/10/2020 10:45:00 AM 12.01 53.618 0.564 8.23 2.48 10.06
11/10/2020 11:00:00 AM 12.06 53.708 0.564 8.23 2.5 10.09
11/10/2020 11:15:00 AM 12.12 53.816 0.564 8.25 2.27 9.96
11/10/2020 11:30:00 AM 12.19 53.942 0.564 8.23 2.3 9.94
11/10/2020 11:45:00 AM 12.25 54.05 0.564 8.24 2.45 10.17
11/10/2020 12:00:00 PM 12.32 54.176 0.565 8.25 2.27 9.95
11/10/2020 12:15:00 PM 12.34 54.212 0.565 8.26 2.14 10.2
11/10/2020 12:30:00 PM 12.41 54.338 0.565 8.27 2.58 10.2
11/10/2020 12:45:00 PM 12.5 54.5 0.566 8.26 2.12 9.96
11/10/2020 1:00:00 PM 12.56 54.608 0.566 8.26 2.19 10.1
11/10/2020 1:15:00 PM 12.59 54.662 0.566 8.26 2.16 9.87
11/10/2020 1:30:00 PM 12.56 54.608 0.566 8.27 2.19 9.86
11/10/2020 1:45:00 PM 12.57 54.626 0.566 8.26 2.14 9.91
11/10/2020 2:00:00 PM 12.58 54.644 0.567 8.27 2.14 9.81
11/10/2020 2:15:00 PM 12.58 54.644 0.567 8.26 2.12 9.75
11/10/2020 2:30:00 PM 12.61 54.698 0.567 8.27 2.11 9.74
11/10/2020 2:45:00 PM 12.62 54.716 0.567 8.26 2.01 9.6
11/10/2020 3:00:00 PM 12.61 54.698 0.568 8.25 2.09 9.52
11/10/2020 3:15:00 PM 12.63 54.734 0.568 8.25 2.02 9.52
11/10/2020 3:30:00 PM 12.63 54.734 0.568 8.26 2.08 9.47
11/10/2020 3:45:00 PM 12.61 54.698 0.568 8.25 2.1 9.49
11/10/2020 4:00:00 PM 12.61 54.698 0.569 8.24 2.27 9.45
11/10/2020 4:15:00 PM 12.61 54.698 0.569 8.24 2.15 9.44
11/10/2020 4:30:00 PM 12.63 54.734 0.569 8.23 2.08 9.3
11/10/2020 4:45:00 PM 12.65 54.77 0.569 8.23 2.08 9.27
11/10/2020 5:00:00 PM 12.7 54.86 0.569 8.23 2.12 9.27
11/10/2020 5:15:00 PM 12.72 54.896 0.57 8.23 2.14 9.27
11/10/2020 5:30:00 PM 12.72 54.896 0.57 8.23 2.22 9.23
11/10/2020 5:45:00 PM 12.7 54.86 0.57 8.22 2.15 9.2
11/10/2020 6:00:00 PM 12.68 54.824 0.57 8.22 2.07 9.12
11/10/2020 6:15:00 PM 12.68 54.824 0.57 8.22 2.12 9.29
11/10/2020 6:30:00 PM 12.67 54.806 0.57 8.23 2.2 9.05
11/10/2020 6:45:00 PM 12.66 54.788 0.57 8.23 2.03 9.21
11/10/2020 7:00:00 PM 12.66 54.788 0.57 8.23 2.4 9.01
11/10/2020 7:15:00 PM 12.67 54.806 0.571 8.23 2.19 9.02
11/10/2020 7:30:00 PM 12.67 54.806 0.571 8.23 2.16 9.04
11/10/2020 7:45:00 PM 12.66 54.788 0.572 8.23 2.2 9.08
11/10/2020 8:00:00 PM 12.64 54.752 0.572 8.22 2.26 8.95
11/10/2020 8:15:00 PM 12.61 54.698 0.572 8.22 2.13 8.83
11/10/2020 8:30:00 PM 12.59 54.662 0.572 8.21 2.32 8.84
11/10/2020 8:45:00 PM 12.57 54.626 0.572 8.21 2.3 8.87
11/10/2020 9:00:00 PM 12.56 54.608 0.572 8.21 2.23 8.87
11/10/2020 9:15:00 PM 12.54 54.572 0.573 8.21 2.16 8.87
11/10/2020 9:30:00 PM 12.51 54.518 0.573 8.22 2.25 9.01
11/10/2020 9:45:00 PM 12.49 54.482 0.573 8.21 2.22 8.95
11/10/2020 10:00:00 PM 12.47 54.446 0.573 8.2 2.44 9.11
11/10/2020 10:15:00 PM 12.45 54.41 0.573 8.2 2.45 9.03
11/10/2020 10:30:00 PM 12.44 54.392 0.573 8.2 2.23 9.02
11/10/2020 10:45:00 PM 12.43 54.374 0.573 8.2 2.45 8.98
11/10/2020 11:00:00 PM 12.42 54.356 0.573 8.19 2.36 9.04
11/10/2020 11:15:00 PM 12.4 54.32 0.573 8.19 2.19 9.02
11/10/2020 11:30:00 PM 12.39 54.302 0.573 8.19 2.26 8.85
11/10/2020 11:45:00 PM 12.38 54.284 0.573 8.18 2.48 8.78
11/11/2020 12:00:00 AM 12.36 54.248 0.573 8.18 2.46 9.04
11/11/2020 12:15:00 AM 12.36 54.248 0.572 8.18 2.64 9.02
11/11/2020 12:30:00 AM 12.35 54.23 0.572 8.19 2.28 8.81
11/11/2020 12:45:00 AM 12.35 54.23 0.572 8.19 2.31 8.97
11/11/2020 1:00:00 AM 12.34 54.212 0.572 8.18 2.44 8.73
11/11/2020 1:15:00 AM 12.34 54.212 0.571 8.18 2.26 8.77
11/11/2020 1:30:00 AM 12.34 54.212 0.571 8.18 2.35 9.01
11/11/2020 1:45:00 AM 12.33 54.194 0.571 8.18 2.32 8.99
11/11/2020 2:00:00 AM 12.34 54.212 0.571 8.18 2.37 9.13
11/11/2020 2:15:00 AM 12.34 54.212 0.57 8.18 2.59 9.36
11/11/2020 2:30:00 AM 12.35 54.23 0.57 8.19 2.56 9.16
11/11/2020 2:45:00 AM 12.36 54.248 0.57 8.18 2.41 9.21
11/11/2020 3:00:00 AM 12.36 54.248 0.57 8.18 2.5 9.19
11/11/2020 3:15:00 AM 12.37 54.266 0.569 8.18 2.34 9.16
11/11/2020 3:30:00 AM 12.38 54.284 0.569 8.19 2.55 8.79
11/11/2020 3:45:00 AM 12.39 54.302 0.569 8.19 2.31 9.18
11/11/2020 4:00:00 AM 12.41 54.338 0.568 8.19 2.41 9.32
11/11/2020 4:15:00 AM 12.43 54.374 0.568 8.19 2.44 9.33
11/11/2020 4:30:00 AM 12.46 54.428 0.568 8.21 2.33 8.96
11/11/2020 4:45:00 AM 12.5 54.5 0.568 8.22 2.51 8.81
11/11/2020 5:00:00 AM 12.54 54.572 0.567 8.22 3.16 8.79
11/11/2020 5:15:00 AM 12.58 54.644 0.567 8.23 2.61 9.03
11/11/2020 5:30:00 AM 12.63 54.734 0.566 8.24 2.49 9.31
11/11/2020 5:45:00 AM 12.67 54.806 0.566 8.25 2.51 8.93
11/11/2020 6:00:00 AM 12.75 54.95 0.565 8.26 2.78 9.08
11/11/2020 6:15:00 AM 12.8 55.04 0.565 8.27 2.69 9.15
11/11/2020 6:30:00 AM 12.85 55.13 0.564 8.27 2.57 8.6
11/11/2020 6:45:00 AM 12.89 55.202 0.564 8.28 2.54 8.92
11/11/2020 7:00:00 AM 12.93 55.274 0.564 8.29 2.69 9.06
11/11/2020 7:15:00 AM 12.98 55.364 0.563 8.3 2.71 9.28
11/11/2020 7:30:00 AM 13.04 55.472 0.563 8.31 2.5 9.55
11/11/2020 7:45:00 AM 13.13 55.634 0.563 8.32 5.33 9.59
11/11/2020 8:00:00 AM 13.2 55.76 0.562 8.34 2.33 9.77
11/11/2020 8:15:00 AM 13.27 55.886 0.562 8.35 2.55 9.8
11/11/2020 8:30:00 AM 13.34 56.012 0.562 8.36 2.48 9.75
11/11/2020 8:45:00 AM 13.39 56.102 0.562 8.36 2.51 9.49
11/11/2020 9:00:00 AM 13.45 56.21 0.563 8.37 2.73 8.98
11/11/2020 9:15:00 AM 13.5 56.3 0.563 8.37 2.51 9.49
11/11/2020 9:30:00 AM 13.56 56.408 0.563 8.38 2.21 9.27
11/11/2020 9:45:00 AM 13.59 56.462 0.563 8.38 2.43 8.94
11/11/2020 10:00:00 AM 13.6 56.48 0.563 8.38 2.45 9.27
11/11/2020 10:15:00 AM 13.61 56.498 0.563 8.38 2.48 9.14
11/11/2020 10:30:00 AM 13.62 56.516 0.563 8.39 2.4 9.45
11/11/2020 10:45:00 AM 13.63 56.534 0.563 8.39 2.55 8.44
11/11/2020 11:00:00 AM 13.63 56.534 0.563 8.38 2.45 8.95
11/11/2020 11:15:00 AM 13.62 56.516 0.564 8.39 2.49 9.32
11/11/2020 11:30:00 AM 13.64 56.552 0.564 8.39 2.36 8.8
11/11/2020 11:45:00 AM 13.65 56.57 0.564 8.38 2.53 9.07
11/11/2020 12:00:00 PM 13.68 56.624 0.563 8.38 2.35 9.23
11/11/2020 12:15:00 PM 13.74 56.732 0.562 8.39 2.33 8.94
11/11/2020 12:30:00 PM 13.8 56.84 0.562 8.39 2.37 9.22
11/11/2020 12:45:00 PM 13.81 56.858 0.562 8.39 2.29 9.19
11/11/2020 1:00:00 PM 13.81 56.858 0.563 8.39 2.5 9.26
11/11/2020 1:15:00 PM 13.81 56.858 0.564 8.39 2.51 8.97
11/11/2020 1:30:00 PM 13.84 56.912 0.564 8.39 2.2 8.89
11/11/2020 1:45:00 PM 13.85 56.93 0.564 8.39 2.43 8.93
11/11/2020 2:00:00 PM 13.87 56.966 0.565 8.39 2.37 8.87
11/11/2020 2:15:00 PM 13.88 56.984 0.566 8.39 2.38 8.81
11/11/2020 2:30:00 PM 13.86 56.948 0.566 8.39 2.5 8.95
11/11/2020 2:45:00 PM 13.85 56.93 0.566 8.38 2.46 9.05
11/11/2020 3:00:00 PM 13.84 56.912 0.565 8.38 2.36 8.81
11/11/2020 3:15:00 PM 13.83 56.894 0.565 8.39 2.28 8.71
11/11/2020 3:30:00 PM 13.83 56.894 0.563 8.39 2.31 8.72
11/11/2020 3:45:00 PM 13.87 56.966 0.559 8.4 2.62 8.61
11/11/2020 4:00:00 PM 13.9 57.02 0.555 8.4 2.46 8.52
11/11/2020 4:15:00 PM 13.91 57.038 0.554 8.39 2.67 8.76
11/11/2020 4:30:00 PM 13.9 57.02 0.555 8.38 2.84 8.73
11/11/2020 4:45:00 PM 13.86 56.948 0.558 8.37 2.62 8.62
11/11/2020 5:00:00 PM 13.82 56.876 0.561 8.36 3.35 8.62
11/11/2020 5:15:00 PM 13.78 56.804 0.562 8.35 2.94 8.7
11/11/2020 5:30:00 PM 13.73 56.714 0.564 8.34 2.74 8.72
11/11/2020 5:45:00 PM 13.71 56.678 0.566 8.34 2.72 8.56
11/11/2020 6:00:00 PM 13.71 56.678 0.566 8.34 2.67 8.58
11/11/2020 6:15:00 PM 13.67 56.606 0.569 8.33 2.94 8.48
11/11/2020 6:30:00 PM 13.67 56.606 0.568 8.32 2.71 8.6
11/11/2020 6:45:00 PM 13.71 56.678 0.567 8.32 2.65 8.58
11/11/2020 7:00:00 PM 13.76 56.768 0.565 8.32 2.8 8.74
11/11/2020 7:15:00 PM 13.8 56.84 0.564 8.33 3.22 8.93
11/11/2020 7:30:00 PM 13.81 56.858 0.564 8.33 2.89 8.58
11/11/2020 7:45:00 PM 13.8 56.84 0.565 8.32 3.25 8.46
11/11/2020 8:00:00 PM 13.8 56.84 0.566 8.32 2.89 8.54
11/11/2020 8:15:00 PM 13.79 56.822 0.567 8.33 3.48 8.59
11/11/2020 8:30:00 PM 13.77 56.786 0.569 8.33 3.74 8.56
11/11/2020 8:45:00 PM 13.76 56.768 0.57 8.32 4.37 8.85
11/11/2020 9:00:00 PM 13.69 56.642 0.57 8.32 9.66 8.98
11/11/2020 9:15:00 PM 13.65 56.57 0.569 8.3 8.39 8.97
11/11/2020 9:30:00 PM 13.71 56.678 0.569 8.29 9.78 9.05
11/11/2020 9:45:00 PM 13.98 57.164 0.566 8.3 8.95 9.04
11/11/2020 10:00:00 PM 14.2 57.56 0.56 8.34 7.26 9.1
11/11/2020 10:15:00 PM 14.31 57.758 0.556 8.35 7.1 9.09
11/11/2020 10:30:00 PM 14.44 57.992 0.55 8.37 8.63 9.11
11/11/2020 10:45:00 PM 14.61 58.298 0.539 8.39 8.65 9.08
11/11/2020 11:00:00 PM 14.8 58.64 0.522 8.41 8.71 9.06
11/11/2020 11:15:00 PM 14.92 58.856 0.508 8.42 9.58 9
11/11/2020 11:30:00 PM 14.95 58.91 0.503 8.42 9.75 8.94
11/11/2020 11:45:00 PM 14.96 58.928 0.5 8.43 9.95 8.95
11/12/2020 12:00:00 AM 14.96 58.928 0.497 8.42 10.46 8.92
11/12/2020 12:15:00 AM 14.96 58.928 0.498 8.41 13.56 8.93
11/12/2020 12:30:00 AM 14.95 58.91 0.505 8.41 12.46 8.96
11/12/2020 12:45:00 AM 14.94 58.892 0.513 8.41 12.88 8.97
11/12/2020 1:00:00 AM 14.94 58.892 0.52 8.41 12.96 8.96
11/12/2020 1:15:00 AM 14.93 58.874 0.522 8.41 12.76 8.97
11/12/2020 1:30:00 AM 14.93 58.874 0.522 8.41 12.49 8.98
11/12/2020 1:45:00 AM 14.92 58.856 0.518 8.41 15.43 9.04
11/12/2020 2:00:00 AM 14.91 58.838 0.512 8.41 14.88 9.06
11/12/2020 2:15:00 AM 14.89 58.802 0.505 8.42 13.87 9.08
11/12/2020 2:30:00 AM 14.88 58.784 0.498 8.41 20.02 9.09
11/12/2020 2:45:00 AM 14.88 58.784 0.49 8.41 13.58 9.09
11/12/2020 3:00:00 AM 14.89 58.802 0.481 8.41 14.69 9.08
11/12/2020 3:15:00 AM 14.91 58.838 0.471 8.4 16.68 9.09
11/12/2020 3:30:00 AM 14.94 58.892 0.458 8.39 14.39 9.03
11/12/2020 3:45:00 AM 14.97 58.946 0.443 8.39 15.39 9.06
11/12/2020 4:00:00 AM 15.02 59.036 0.426 8.38 16.89 9.06
11/12/2020 4:15:00 AM 15.09 59.162 0.408 8.37 16.42 9.04
11/12/2020 4:30:00 AM 15.15 59.27 0.392 8.37 18.49 9.02
11/12/2020 4:45:00 AM 15.22 59.396 0.378 8.36 16.38 9
11/12/2020 5:00:00 AM 15.29 59.522 0.366 8.36 19.56 8.96
11/12/2020 5:15:00 AM 15.35 59.63 0.355 8.36 18.39 8.93
11/12/2020 5:30:00 AM 15.42 59.756 0.347 8.35 18.89 8.95
11/12/2020 5:45:00 AM 15.47 59.846 0.34 8.36 18.52 8.95
11/12/2020 6:00:00 AM 15.5 59.9 0.335 8.36 18.51 8.93
11/12/2020 6:15:00 AM 15.53 59.954 0.331 8.36 18.5 8.92
11/12/2020 6:30:00 AM 15.54 59.972 0.329 8.36 20.15 8.94
11/12/2020 6:45:00 AM 15.55 59.99 0.326 8.37 17.26 8.95
11/12/2020 7:00:00 AM 15.54 59.972 0.324 8.37 19.51 8.94
11/12/2020 7:15:00 AM 15.53 59.954 0.321 8.37 18.67 8.95
11/12/2020 7:30:00 AM 15.52 59.936 0.32 8.38 19.71 8.97
11/12/2020 7:45:00 AM 15.5 59.9 0.319 8.38 21.68 8.98
11/12/2020 8:00:00 AM 15.48 59.864 0.319 8.38 20.29 8.99
11/12/2020 8:15:00 AM 15.46 59.828 0.32 8.38 20.2 9
11/12/2020 8:30:00 AM 15.44 59.792 0.323 8.39 19.59 9.01
11/12/2020 8:45:00 AM 15.41 59.738 0.325 8.39 20.41 9.03
11/12/2020 9:00:00 AM 15.38 59.684 0.327 8.39 20.44 9.03
11/12/2020 9:15:00 AM 15.35 59.63 0.33 8.38 20.76 9.05
11/12/2020 9:30:00 AM 15.32 59.576 0.333 8.38 20.22 9.05
11/12/2020 9:45:00 AM 15.28 59.504 0.335 8.38 20.62 9.08
11/12/2020 10:00:00 AM 15.24 59.432 0.337 8.38 20.73 9.09
11/12/2020 10:15:00 AM 15.19 59.342 0.338 8.38 23.61 9.1
11/12/2020 10:30:00 AM 15.15 59.27 0.339 8.38 22.78 9.09
11/12/2020 10:45:00 AM 15.1 59.18 0.34 8.38 20.34 9.11
11/12/2020 11:00:00 AM 15.06 59.108 0.341 8.37 22.98 9.15
11/12/2020 11:15:00 AM 15.01 59.018 0.341 8.38 24.92 9.15
11/12/2020 11:30:00 AM 14.97 58.946 0.342 8.37 24.01 9.18
11/12/2020 11:45:00 AM 14.94 58.892 0.342 8.37 23.09 9.17
11/12/2020 12:00:00 PM 14.9 58.82 0.342 8.36 26.23 9.19
11/12/2020 12:15:00 PM 14.86 58.748 0.342 8.36 24.32 9.16
11/12/2020 12:30:00 PM 14.81 58.658 0.343 8.36 22.33 9.19
11/12/2020 12:45:00 PM 14.78 58.604 0.342 8.36 25.87 9.19
11/12/2020 1:00:00 PM 14.74 58.532 0.342 8.35 24.41 9.22
11/12/2020 1:15:00 PM 14.7 58.46 0.342 8.35 27.38 9.23
11/12/2020 1:30:00 PM 14.67 58.406 0.342 8.35 20.68 9.23
11/12/2020 1:45:00 PM 14.64 58.352 0.34 8.35 55.58 9.23
11/12/2020 2:00:00 PM 14.6 58.28 0.342 8.35 25.42 9.24
11/12/2020 2:15:00 PM 14.56 58.208 0.322 8.34 25.04 9.26
11/12/2020 2:30:00 PM 14.53 58.154 0.343 8.34 25.48 9.27
11/12/2020 2:45:00 PM 14.49 58.082 0.343 8.34 27.22 9.28
11/12/2020 3:00:00 PM 14.45 58.01 0.344 8.33 51.93 9.26
11/12/2020 3:15:00 PM 14.42 57.956 0.345 8.34 24.38 9.28
11/12/2020 3:30:00 PM 14.38 57.884 0.347 8.33 40.38 9.29
11/12/2020 3:45:00 PM 14.35 57.83 0.348 8.33 23.69 9.3
11/12/2020 4:00:00 PM 14.31 57.758 0.349 8.33 27.47 9.3
11/12/2020 4:15:00 PM 14.27 57.686 0.35 8.33 28.11 9.32
11/12/2020 4:30:00 PM 14.24 57.632 0.351 8.33 27.67 9.31
11/12/2020 4:45:00 PM 14.2 57.56 0.352 8.33 26.05 9.33
11/12/2020 5:00:00 PM 14.16 57.488 0.353 8.33 24.31 9.33
11/12/2020 5:15:00 PM 14.13 57.434 0.353 8.32 28.91 9.33
11/12/2020 5:30:00 PM 14.09 57.362 0.354 8.32 25.87 9.34
11/12/2020 5:45:00 PM 14.05 57.29 0.354 8.31 25.15 9.34
11/12/2020 6:00:00 PM 14.02 57.236 0.354 8.31 29.77 9.36
11/12/2020 6:15:00 PM 13.98 57.164 0.351 8.31 26.01 9.38
11/12/2020 6:30:00 PM 13.94 57.092 0.348 8.31 25.61 9.35
11/12/2020 6:45:00 PM 13.91 57.038 0.352 8.31 30.62 9.38
11/12/2020 7:00:00 PM 13.87 56.966 0.351 8.3 25.54 9.4
11/12/2020 7:15:00 PM 13.84 56.912 0.349 8.3 26.15 9.4
11/12/2020 7:30:00 PM 13.8 56.84 0.351 8.3 25.33 9.41
11/12/2020 7:45:00 PM 13.76 56.768 0.352 8.3 25.89 9.39
11/12/2020 8:00:00 PM 13.72 56.696 0.352 8.29 28.4 9.39
11/12/2020 8:15:00 PM 13.68 56.624 0.351 8.29 25.34 9.4
11/12/2020 8:30:00 PM 13.64 56.552 0.352 8.29 26.69 9.44
11/12/2020 8:45:00 PM 13.6 56.48 0.353 8.29 27.76 9.44
11/12/2020 9:00:00 PM 13.56 56.408 0.354 8.29 28.01 9.46
11/12/2020 9:15:00 PM 13.51 56.318 0.352 8.29 27.71 9.47
11/12/2020 9:30:00 PM 13.46 56.228 0.354 8.28 27.19 9.46
11/12/2020 9:45:00 PM 13.42 56.156 0.354 8.28 32 9.45
11/12/2020 10:00:00 PM 13.38 56.084 0.357 8.27 25.82 9.45
11/12/2020 10:15:00 PM 13.33 55.994 0.358 8.27 26.16 9.48
11/12/2020 10:30:00 PM 13.29 55.922 0.359 8.27 26.94 9.46
11/12/2020 10:45:00 PM 13.26 55.868 0.36 8.26 26.62 9.46
11/12/2020 11:00:00 PM 13.23 55.814 0.361 8.26 26.38 9.45
11/12/2020 11:15:00 PM 13.19 55.742 0.363 8.26 27.09 9.47
11/12/2020 11:30:00 PM 13.15 55.67 0.364 8.26 27.66 9.47
11/12/2020 11:45:00 PM 13.12 55.616 0.366 8.25 28.09 9.48
11/13/2020 12:00:00 AM 13.09 55.562 0.367 8.25 26.34 9.47
11/13/2020 12:15:00 AM 13.06 55.508 0.368 8.25 27.28 9.46
11/13/2020 12:30:00 AM 13.03 55.454 0.369 8.24 27.12 9.48
11/13/2020 12:45:00 AM 13 55.4 0.37 8.24 26.38 9.46
11/13/2020 1:00:00 AM 12.97 55.346 0.372 8.24 26.55 9.48
11/13/2020 1:15:00 AM 12.93 55.274 0.373 8.24 26.35 9.46
11/13/2020 1:30:00 AM 12.9 55.22 0.362 8.23 25.7 9.47
11/13/2020 1:45:00 AM 12.86 55.148 0.374 8.23 26.71 9.49
11/13/2020 2:00:00 AM 12.83 55.094 0.375 8.23 27.52 9.5
11/13/2020 2:15:00 AM 12.8 55.04 0.376 8.22 27.99 9.47
11/13/2020 2:30:00 AM 12.77 54.986 0.376 8.22 27.47 9.51
11/13/2020 2:45:00 AM 12.74 54.932 0.377 8.22 26.95 9.48
11/13/2020 3:00:00 AM 12.7 54.86 0.377 8.22 27.19 9.49
11/13/2020 3:15:00 AM 12.67 54.806 0.378 8.22 27 9.49
11/13/2020 3:30:00 AM 12.64 54.752 0.379 8.21 28.17 9.48
11/13/2020 3:45:00 AM 12.61 54.698 0.379 8.21 28.74 9.5
11/13/2020 4:00:00 AM 12.57 54.626 0.38 8.21 29.1 9.51
11/13/2020 4:15:00 AM 12.54 54.572 0.381 8.21 29.91 9.49
11/13/2020 4:30:00 AM 12.51 54.518 0.381 8.2 29.15 9.5
11/13/2020 4:45:00 AM 12.49 54.482 0.382 8.2 28.41 9.52
11/13/2020 5:00:00 AM 12.45 54.41 0.382 8.2 28.65 9.53
11/13/2020 5:15:00 AM 12.43 54.374 0.383 8.2 28.66 9.54
11/13/2020 5:30:00 AM 12.4 54.32 0.383 8.2 28.69 9.54
11/13/2020 5:45:00 AM 12.37 54.266 0.383 8.2 29.72 9.58
11/13/2020 6:00:00 AM 12.34 54.212 0.383 8.19 29.52 9.55
11/13/2020 6:15:00 AM 12.32 54.176 0.383 8.19 28.89 9.54
11/13/2020 6:30:00 AM 12.3 54.14 0.383 8.19 30.26 9.55
11/13/2020 6:45:00 AM 12.28 54.104 0.384 8.19 29.63 9.6
11/13/2020 7:00:00 AM 12.25 54.05 0.384 8.19 32.01 9.6
11/13/2020 7:15:00 AM 12.23 54.014 0.384 8.18 29.04 9.58
11/13/2020 7:30:00 AM 12.21 53.978 0.384 8.18 28.96 9.58
11/13/2020 7:45:00 AM 12.19 53.942 0.384 8.18 30.16 9.59
11/13/2020 8:00:00 AM 12.17 53.906 0.384 8.18 27.49 9.6
11/13/2020 8:15:00 AM 12.15 53.87 0.385 8.18 9.93 9.61
11/13/2020 8:30:00 AM 12.13 53.834 0.385 8.18 9.43 9.6
11/13/2020 8:45:00 AM 12.11 53.798 0.386 8.18 12.1 9.61
11/13/2020 9:00:00 AM 12.09 53.762 0.386 8.18 11.9 9.62
11/13/2020 9:15:00 AM 12.08 53.744 0.387 8.18 10.07 9.68
11/13/2020 9:30:00 AM 12.06